<?xml version="1.0" encoding="UTF-8" standalone="no" ?>
<gpx xmlns="http://www.topografix.com/GPX/1/1" xmlns:xsi="http://www.w3.org/2001/XMLSchema-instance" xsi:schemaLocation="http://www.topografix.com/GPX/1/1 http://www.topografix.com/GPX/1/1/gpx.xsd" version="1.1" creator="VisuGPX - https://www.visugpx.com">
  <metadata>
    <name>Tempête Bella</name>
  </metadata>
  <trk>
    <name><![CDATA[Tempête Bella]]></name>
    <trkseg>
      <trkpt lat="49.297" lon="-0.31695">
        <ele>10.9</ele>
        <time>2020-12-27T08:58:27Z</time>
      </trkpt>
      <trkpt lat="49.29687" lon="-0.31662">
        <ele>10.8</ele>
        <time>2020-12-27T08:58:31Z</time>
      </trkpt>
      <trkpt lat="49.29683" lon="-0.31636">
        <ele>10.7</ele>
        <time>2020-12-27T08:58:32Z</time>
      </trkpt>
      <trkpt lat="49.29685" lon="-0.31634">
        <ele>10.6</ele>
        <time>2020-12-27T08:58:33Z</time>
      </trkpt>
      <trkpt lat="49.29685" lon="-0.3163">
        <ele>10.6</ele>
        <time>2020-12-27T08:58:34Z</time>
      </trkpt>
      <trkpt lat="49.29688" lon="-0.31632">
        <ele>10.6</ele>
        <time>2020-12-27T08:58:36Z</time>
      </trkpt>
      <trkpt lat="49.2969" lon="-0.31634">
        <ele>10.6</ele>
        <time>2020-12-27T08:58:37Z</time>
      </trkpt>
      <trkpt lat="49.29694" lon="-0.31636">
        <ele>10.6</ele>
        <time>2020-12-27T08:58:39Z</time>
      </trkpt>
      <trkpt lat="49.29695" lon="-0.31638">
        <ele>10.5</ele>
        <time>2020-12-27T08:58:40Z</time>
      </trkpt>
      <trkpt lat="49.29697" lon="-0.3164">
        <ele>10.5</ele>
        <time>2020-12-27T08:58:42Z</time>
      </trkpt>
      <trkpt lat="49.29699" lon="-0.31642">
        <ele>10.5</ele>
        <time>2020-12-27T08:58:43Z</time>
      </trkpt>
      <trkpt lat="49.297" lon="-0.31646">
        <ele>10.5</ele>
        <time>2020-12-27T08:58:44Z</time>
      </trkpt>
      <trkpt lat="49.29701" lon="-0.31648">
        <ele>10.5</ele>
        <time>2020-12-27T08:58:45Z</time>
      </trkpt>
      <trkpt lat="49.29702" lon="-0.31649">
        <ele>10.5</ele>
        <time>2020-12-27T08:58:46Z</time>
      </trkpt>
      <trkpt lat="49.29703" lon="-0.3165">
        <ele>10.5</ele>
        <time>2020-12-27T08:58:48Z</time>
      </trkpt>
      <trkpt lat="49.29705" lon="-0.31654">
        <ele>10.4</ele>
        <time>2020-12-27T08:58:49Z</time>
      </trkpt>
      <trkpt lat="49.29706" lon="-0.31654">
        <ele>10.4</ele>
        <time>2020-12-27T08:58:50Z</time>
      </trkpt>
      <trkpt lat="49.29708" lon="-0.31655">
        <ele>10.4</ele>
        <time>2020-12-27T08:58:52Z</time>
      </trkpt>
      <trkpt lat="49.29709" lon="-0.31656">
        <ele>10.4</ele>
        <time>2020-12-27T08:58:54Z</time>
      </trkpt>
      <trkpt lat="49.29711" lon="-0.31657">
        <ele>10.4</ele>
        <time>2020-12-27T08:58:55Z</time>
      </trkpt>
      <trkpt lat="49.29713" lon="-0.31658">
        <ele>10.4</ele>
        <time>2020-12-27T08:58:56Z</time>
      </trkpt>
      <trkpt lat="49.29714" lon="-0.31659">
        <ele>10.4</ele>
        <time>2020-12-27T08:58:58Z</time>
      </trkpt>
      <trkpt lat="49.29716" lon="-0.3166">
        <ele>10.3</ele>
        <time>2020-12-27T08:58:59Z</time>
      </trkpt>
      <trkpt lat="49.29719" lon="-0.31662">
        <ele>10.3</ele>
        <time>2020-12-27T08:59:00Z</time>
      </trkpt>
      <trkpt lat="49.29722" lon="-0.31665">
        <ele>10.3</ele>
        <time>2020-12-27T08:59:02Z</time>
      </trkpt>
      <trkpt lat="49.29724" lon="-0.31666">
        <ele>10.3</ele>
        <time>2020-12-27T08:59:03Z</time>
      </trkpt>
      <trkpt lat="49.29725" lon="-0.31667">
        <ele>10.3</ele>
        <time>2020-12-27T08:59:04Z</time>
      </trkpt>
      <trkpt lat="49.29727" lon="-0.31671">
        <ele>10.2</ele>
        <time>2020-12-27T08:59:06Z</time>
      </trkpt>
      <trkpt lat="49.29729" lon="-0.31673">
        <ele>10.2</ele>
        <time>2020-12-27T08:59:08Z</time>
      </trkpt>
      <trkpt lat="49.2973" lon="-0.31674">
        <ele>10.2</ele>
        <time>2020-12-27T08:59:09Z</time>
      </trkpt>
      <trkpt lat="49.29733" lon="-0.31676">
        <ele>10.2</ele>
        <time>2020-12-27T08:59:10Z</time>
      </trkpt>
      <trkpt lat="49.29736" lon="-0.31677">
        <ele>10.1</ele>
        <time>2020-12-27T08:59:12Z</time>
      </trkpt>
      <trkpt lat="49.29737" lon="-0.31678">
        <ele>10.1</ele>
        <time>2020-12-27T08:59:13Z</time>
      </trkpt>
      <trkpt lat="49.29739" lon="-0.31679">
        <ele>10.1</ele>
        <time>2020-12-27T08:59:14Z</time>
      </trkpt>
      <trkpt lat="49.29741" lon="-0.3168">
        <ele>10.1</ele>
        <time>2020-12-27T08:59:16Z</time>
      </trkpt>
      <trkpt lat="49.29744" lon="-0.31682">
        <ele>10.1</ele>
        <time>2020-12-27T08:59:17Z</time>
      </trkpt>
      <trkpt lat="49.29745" lon="-0.31682">
        <ele>10.1</ele>
        <time>2020-12-27T08:59:18Z</time>
      </trkpt>
      <trkpt lat="49.29748" lon="-0.31685">
        <ele>10</ele>
        <time>2020-12-27T08:59:20Z</time>
      </trkpt>
      <trkpt lat="49.29749" lon="-0.31686">
        <ele>10</ele>
        <time>2020-12-27T08:59:21Z</time>
      </trkpt>
      <trkpt lat="49.29753" lon="-0.31688">
        <ele>10</ele>
        <time>2020-12-27T08:59:23Z</time>
      </trkpt>
      <trkpt lat="49.29754" lon="-0.31689">
        <ele>10</ele>
        <time>2020-12-27T08:59:24Z</time>
      </trkpt>
      <trkpt lat="49.29758" lon="-0.31693">
        <ele>10</ele>
        <time>2020-12-27T08:59:26Z</time>
      </trkpt>
      <trkpt lat="49.2976" lon="-0.31694">
        <ele>9.9</ele>
        <time>2020-12-27T08:59:28Z</time>
      </trkpt>
      <trkpt lat="49.29761" lon="-0.31696">
        <ele>9.9</ele>
        <time>2020-12-27T08:59:29Z</time>
      </trkpt>
      <trkpt lat="49.29763" lon="-0.31697">
        <ele>9.9</ele>
        <time>2020-12-27T08:59:30Z</time>
      </trkpt>
      <trkpt lat="49.29765" lon="-0.31699">
        <ele>9.9</ele>
        <time>2020-12-27T08:59:31Z</time>
      </trkpt>
      <trkpt lat="49.29767" lon="-0.317">
        <ele>9.9</ele>
        <time>2020-12-27T08:59:33Z</time>
      </trkpt>
      <trkpt lat="49.29769" lon="-0.31702">
        <ele>9.8</ele>
        <time>2020-12-27T08:59:34Z</time>
      </trkpt>
      <trkpt lat="49.29771" lon="-0.31703">
        <ele>9.8</ele>
        <time>2020-12-27T08:59:36Z</time>
      </trkpt>
      <trkpt lat="49.29774" lon="-0.31706">
        <ele>9.8</ele>
        <time>2020-12-27T08:59:37Z</time>
      </trkpt>
      <trkpt lat="49.29775" lon="-0.31707">
        <ele>9.8</ele>
        <time>2020-12-27T08:59:38Z</time>
      </trkpt>
      <trkpt lat="49.29776" lon="-0.31708">
        <ele>9.8</ele>
        <time>2020-12-27T08:59:39Z</time>
      </trkpt>
      <trkpt lat="49.29778" lon="-0.3171">
        <ele>9.7</ele>
        <time>2020-12-27T08:59:41Z</time>
      </trkpt>
      <trkpt lat="49.2978" lon="-0.31711">
        <ele>9.7</ele>
        <time>2020-12-27T08:59:42Z</time>
      </trkpt>
      <trkpt lat="49.29781" lon="-0.31712">
        <ele>9.7</ele>
        <time>2020-12-27T08:59:44Z</time>
      </trkpt>
      <trkpt lat="49.29784" lon="-0.31714">
        <ele>9.7</ele>
        <time>2020-12-27T08:59:46Z</time>
      </trkpt>
      <trkpt lat="49.29785" lon="-0.31716">
        <ele>9.6</ele>
        <time>2020-12-27T08:59:47Z</time>
      </trkpt>
      <trkpt lat="49.29788" lon="-0.31718">
        <ele>9.6</ele>
        <time>2020-12-27T08:59:49Z</time>
      </trkpt>
      <trkpt lat="49.2979" lon="-0.31721">
        <ele>9.5</ele>
        <time>2020-12-27T08:59:50Z</time>
      </trkpt>
      <trkpt lat="49.29792" lon="-0.31724">
        <ele>9.5</ele>
        <time>2020-12-27T08:59:52Z</time>
      </trkpt>
      <trkpt lat="49.29794" lon="-0.31725">
        <ele>9.5</ele>
        <time>2020-12-27T08:59:53Z</time>
      </trkpt>
      <trkpt lat="49.29795" lon="-0.31727">
        <ele>9.5</ele>
        <time>2020-12-27T08:59:54Z</time>
      </trkpt>
      <trkpt lat="49.29797" lon="-0.31729">
        <ele>9.4</ele>
        <time>2020-12-27T08:59:55Z</time>
      </trkpt>
      <trkpt lat="49.29799" lon="-0.31731">
        <ele>9.4</ele>
        <time>2020-12-27T08:59:57Z</time>
      </trkpt>
      <trkpt lat="49.29801" lon="-0.31733">
        <ele>9.4</ele>
        <time>2020-12-27T08:59:58Z</time>
      </trkpt>
      <trkpt lat="49.29803" lon="-0.31735">
        <ele>9.3</ele>
        <time>2020-12-27T09:00:00Z</time>
      </trkpt>
      <trkpt lat="49.29806" lon="-0.31738">
        <ele>9.3</ele>
        <time>2020-12-27T09:00:02Z</time>
      </trkpt>
      <trkpt lat="49.29807" lon="-0.31739">
        <ele>9.2</ele>
        <time>2020-12-27T09:00:03Z</time>
      </trkpt>
      <trkpt lat="49.2981" lon="-0.31742">
        <ele>9.2</ele>
        <time>2020-12-27T09:00:05Z</time>
      </trkpt>
      <trkpt lat="49.29811" lon="-0.31743">
        <ele>9.2</ele>
        <time>2020-12-27T09:00:06Z</time>
      </trkpt>
      <trkpt lat="49.29813" lon="-0.31745">
        <ele>9.1</ele>
        <time>2020-12-27T09:00:07Z</time>
      </trkpt>
      <trkpt lat="49.29815" lon="-0.31747">
        <ele>9.1</ele>
        <time>2020-12-27T09:00:09Z</time>
      </trkpt>
      <trkpt lat="49.29817" lon="-0.31749">
        <ele>9.1</ele>
        <time>2020-12-27T09:00:10Z</time>
      </trkpt>
      <trkpt lat="49.29819" lon="-0.31751">
        <ele>9</ele>
        <time>2020-12-27T09:00:11Z</time>
      </trkpt>
      <trkpt lat="49.29821" lon="-0.31753">
        <ele>9</ele>
        <time>2020-12-27T09:00:13Z</time>
      </trkpt>
      <trkpt lat="49.29824" lon="-0.31756">
        <ele>8.9</ele>
        <time>2020-12-27T09:00:15Z</time>
      </trkpt>
      <trkpt lat="49.29825" lon="-0.31757">
        <ele>8.9</ele>
        <time>2020-12-27T09:00:16Z</time>
      </trkpt>
      <trkpt lat="49.29827" lon="-0.31759">
        <ele>8.8</ele>
        <time>2020-12-27T09:00:18Z</time>
      </trkpt>
      <trkpt lat="49.2983" lon="-0.31761">
        <ele>8.8</ele>
        <time>2020-12-27T09:00:20Z</time>
      </trkpt>
      <trkpt lat="49.29833" lon="-0.31763">
        <ele>8.7</ele>
        <time>2020-12-27T09:00:21Z</time>
      </trkpt>
      <trkpt lat="49.29834" lon="-0.31764">
        <ele>8.7</ele>
        <time>2020-12-27T09:00:22Z</time>
      </trkpt>
      <trkpt lat="49.29838" lon="-0.31767">
        <ele>8.6</ele>
        <time>2020-12-27T09:00:24Z</time>
      </trkpt>
      <trkpt lat="49.29839" lon="-0.31768">
        <ele>8.6</ele>
        <time>2020-12-27T09:00:26Z</time>
      </trkpt>
      <trkpt lat="49.2984" lon="-0.31769">
        <ele>8.6</ele>
        <time>2020-12-27T09:00:27Z</time>
      </trkpt>
      <trkpt lat="49.29842" lon="-0.31771">
        <ele>8.6</ele>
        <time>2020-12-27T09:00:28Z</time>
      </trkpt>
      <trkpt lat="49.29844" lon="-0.31772">
        <ele>8.5</ele>
        <time>2020-12-27T09:00:30Z</time>
      </trkpt>
      <trkpt lat="49.29847" lon="-0.31774">
        <ele>8.4</ele>
        <time>2020-12-27T09:00:31Z</time>
      </trkpt>
      <trkpt lat="49.29848" lon="-0.31775">
        <ele>8.4</ele>
        <time>2020-12-27T09:00:32Z</time>
      </trkpt>
      <trkpt lat="49.2985" lon="-0.31777">
        <ele>8.3</ele>
        <time>2020-12-27T09:00:34Z</time>
      </trkpt>
      <trkpt lat="49.29851" lon="-0.31777">
        <ele>8.3</ele>
        <time>2020-12-27T09:00:35Z</time>
      </trkpt>
      <trkpt lat="49.29855" lon="-0.31779">
        <ele>8.2</ele>
        <time>2020-12-27T09:00:37Z</time>
      </trkpt>
      <trkpt lat="49.29856" lon="-0.3178">
        <ele>8.1</ele>
        <time>2020-12-27T09:00:38Z</time>
      </trkpt>
      <trkpt lat="49.29858" lon="-0.31781">
        <ele>8.1</ele>
        <time>2020-12-27T09:00:40Z</time>
      </trkpt>
      <trkpt lat="49.29861" lon="-0.31783">
        <ele>8</ele>
        <time>2020-12-27T09:00:42Z</time>
      </trkpt>
      <trkpt lat="49.29864" lon="-0.31784">
        <ele>7.9</ele>
        <time>2020-12-27T09:00:43Z</time>
      </trkpt>
      <trkpt lat="49.29865" lon="-0.31785">
        <ele>7.8</ele>
        <time>2020-12-27T09:00:44Z</time>
      </trkpt>
      <trkpt lat="49.29868" lon="-0.31786">
        <ele>7.7</ele>
        <time>2020-12-27T09:00:46Z</time>
      </trkpt>
      <trkpt lat="49.2987" lon="-0.31786">
        <ele>7.7</ele>
        <time>2020-12-27T09:00:47Z</time>
      </trkpt>
      <trkpt lat="49.29873" lon="-0.31788">
        <ele>7.6</ele>
        <time>2020-12-27T09:00:49Z</time>
      </trkpt>
      <trkpt lat="49.29873" lon="-0.31788">
        <ele>7.6</ele>
        <time>2020-12-27T09:00:50Z</time>
      </trkpt>
      <trkpt lat="49.29875" lon="-0.31789">
        <ele>7.5</ele>
        <time>2020-12-27T09:00:51Z</time>
      </trkpt>
      <trkpt lat="49.29877" lon="-0.31791">
        <ele>7.5</ele>
        <time>2020-12-27T09:00:53Z</time>
      </trkpt>
      <trkpt lat="49.29881" lon="-0.31792">
        <ele>7.4</ele>
        <time>2020-12-27T09:00:54Z</time>
      </trkpt>
      <trkpt lat="49.29881" lon="-0.31793">
        <ele>7.4</ele>
        <time>2020-12-27T09:00:55Z</time>
      </trkpt>
      <trkpt lat="49.29884" lon="-0.31792">
        <ele>7.3</ele>
        <time>2020-12-27T09:00:57Z</time>
      </trkpt>
      <trkpt lat="49.29885" lon="-0.31792">
        <ele>7.3</ele>
        <time>2020-12-27T09:00:58Z</time>
      </trkpt>
      <trkpt lat="49.29887" lon="-0.3179">
        <ele>7.3</ele>
        <time>2020-12-27T09:01:00Z</time>
      </trkpt>
      <trkpt lat="49.29888" lon="-0.31789">
        <ele>7.1</ele>
        <time>2020-12-27T09:01:01Z</time>
      </trkpt>
      <trkpt lat="49.29889" lon="-0.31788">
        <ele>7.1</ele>
        <time>2020-12-27T09:01:02Z</time>
      </trkpt>
      <trkpt lat="49.29892" lon="-0.31785">
        <ele>7.1</ele>
        <time>2020-12-27T09:01:04Z</time>
      </trkpt>
      <trkpt lat="49.29893" lon="-0.31784">
        <ele>7.1</ele>
        <time>2020-12-27T09:01:05Z</time>
      </trkpt>
      <trkpt lat="49.29896" lon="-0.31779">
        <ele>7</ele>
        <time>2020-12-27T09:01:07Z</time>
      </trkpt>
      <trkpt lat="49.29897" lon="-0.31777">
        <ele>7</ele>
        <time>2020-12-27T09:01:08Z</time>
      </trkpt>
      <trkpt lat="49.29898" lon="-0.31775">
        <ele>7</ele>
        <time>2020-12-27T09:01:09Z</time>
      </trkpt>
      <trkpt lat="49.299" lon="-0.31771">
        <ele>7</ele>
        <time>2020-12-27T09:01:11Z</time>
      </trkpt>
      <trkpt lat="49.29902" lon="-0.31767">
        <ele>7</ele>
        <time>2020-12-27T09:01:12Z</time>
      </trkpt>
      <trkpt lat="49.29903" lon="-0.31763">
        <ele>7</ele>
        <time>2020-12-27T09:01:14Z</time>
      </trkpt>
      <trkpt lat="49.29904" lon="-0.31759">
        <ele>7</ele>
        <time>2020-12-27T09:01:16Z</time>
      </trkpt>
      <trkpt lat="49.29903" lon="-0.31754">
        <ele>7</ele>
        <time>2020-12-27T09:01:17Z</time>
      </trkpt>
      <trkpt lat="49.29904" lon="-0.31751">
        <ele>7</ele>
        <time>2020-12-27T09:01:18Z</time>
      </trkpt>
      <trkpt lat="49.29905" lon="-0.31747">
        <ele>7</ele>
        <time>2020-12-27T09:01:20Z</time>
      </trkpt>
      <trkpt lat="49.29907" lon="-0.31743">
        <ele>7</ele>
        <time>2020-12-27T09:01:22Z</time>
      </trkpt>
      <trkpt lat="49.29908" lon="-0.31742">
        <ele>7</ele>
        <time>2020-12-27T09:01:23Z</time>
      </trkpt>
      <trkpt lat="49.29909" lon="-0.3174">
        <ele>7</ele>
        <time>2020-12-27T09:01:24Z</time>
      </trkpt>
      <trkpt lat="49.29911" lon="-0.31737">
        <ele>7</ele>
        <time>2020-12-27T09:01:26Z</time>
      </trkpt>
      <trkpt lat="49.29913" lon="-0.31734">
        <ele>7</ele>
        <time>2020-12-27T09:01:27Z</time>
      </trkpt>
      <trkpt lat="49.29914" lon="-0.31733">
        <ele>7</ele>
        <time>2020-12-27T09:01:28Z</time>
      </trkpt>
      <trkpt lat="49.29917" lon="-0.31731">
        <ele>7</ele>
        <time>2020-12-27T09:01:30Z</time>
      </trkpt>
      <trkpt lat="49.29918" lon="-0.31729">
        <ele>7</ele>
        <time>2020-12-27T09:01:31Z</time>
      </trkpt>
      <trkpt lat="49.2992" lon="-0.31727">
        <ele>7</ele>
        <time>2020-12-27T09:01:32Z</time>
      </trkpt>
      <trkpt lat="49.29923" lon="-0.31724">
        <ele>7</ele>
        <time>2020-12-27T09:01:34Z</time>
      </trkpt>
      <trkpt lat="49.29924" lon="-0.31723">
        <ele>7</ele>
        <time>2020-12-27T09:01:35Z</time>
      </trkpt>
      <trkpt lat="49.29926" lon="-0.31721">
        <ele>7</ele>
        <time>2020-12-27T09:01:36Z</time>
      </trkpt>
      <trkpt lat="49.29928" lon="-0.31719">
        <ele>7</ele>
        <time>2020-12-27T09:01:38Z</time>
      </trkpt>
      <trkpt lat="49.2993" lon="-0.31716">
        <ele>7</ele>
        <time>2020-12-27T09:01:39Z</time>
      </trkpt>
      <trkpt lat="49.29931" lon="-0.31714">
        <ele>7</ele>
        <time>2020-12-27T09:01:40Z</time>
      </trkpt>
      <trkpt lat="49.29933" lon="-0.3171">
        <ele>7</ele>
        <time>2020-12-27T09:01:42Z</time>
      </trkpt>
      <trkpt lat="49.29934" lon="-0.31709">
        <ele>7</ele>
        <time>2020-12-27T09:01:43Z</time>
      </trkpt>
      <trkpt lat="49.29935" lon="-0.31706">
        <ele>7</ele>
        <time>2020-12-27T09:01:44Z</time>
      </trkpt>
      <trkpt lat="49.29936" lon="-0.31704">
        <ele>7</ele>
        <time>2020-12-27T09:01:46Z</time>
      </trkpt>
      <trkpt lat="49.29939" lon="-0.317">
        <ele>7</ele>
        <time>2020-12-27T09:01:48Z</time>
      </trkpt>
      <trkpt lat="49.29941" lon="-0.31699">
        <ele>7</ele>
        <time>2020-12-27T09:01:49Z</time>
      </trkpt>
      <trkpt lat="49.29942" lon="-0.31698">
        <ele>7</ele>
        <time>2020-12-27T09:01:50Z</time>
      </trkpt>
      <trkpt lat="49.29944" lon="-0.31696">
        <ele>7</ele>
        <time>2020-12-27T09:01:52Z</time>
      </trkpt>
      <trkpt lat="49.29946" lon="-0.31695">
        <ele>6.9</ele>
        <time>2020-12-27T09:01:53Z</time>
      </trkpt>
      <trkpt lat="49.29949" lon="-0.31693">
        <ele>6.9</ele>
        <time>2020-12-27T09:01:55Z</time>
      </trkpt>
      <trkpt lat="49.29952" lon="-0.31691">
        <ele>6.9</ele>
        <time>2020-12-27T09:01:57Z</time>
      </trkpt>
      <trkpt lat="49.29953" lon="-0.31691">
        <ele>6.8</ele>
        <time>2020-12-27T09:01:58Z</time>
      </trkpt>
      <trkpt lat="49.29956" lon="-0.3169">
        <ele>6.8</ele>
        <time>2020-12-27T09:01:59Z</time>
      </trkpt>
      <trkpt lat="49.29958" lon="-0.31689">
        <ele>6.8</ele>
        <time>2020-12-27T09:02:01Z</time>
      </trkpt>
      <trkpt lat="49.29961" lon="-0.31688">
        <ele>6.7</ele>
        <time>2020-12-27T09:02:03Z</time>
      </trkpt>
      <trkpt lat="49.29964" lon="-0.31688">
        <ele>6.7</ele>
        <time>2020-12-27T09:02:04Z</time>
      </trkpt>
      <trkpt lat="49.29968" lon="-0.31688">
        <ele>6.6</ele>
        <time>2020-12-27T09:02:06Z</time>
      </trkpt>
      <trkpt lat="49.29969" lon="-0.31687">
        <ele>6.6</ele>
        <time>2020-12-27T09:02:07Z</time>
      </trkpt>
      <trkpt lat="49.29972" lon="-0.31687">
        <ele>6.6</ele>
        <time>2020-12-27T09:02:08Z</time>
      </trkpt>
      <trkpt lat="49.29974" lon="-0.31688">
        <ele>6.5</ele>
        <time>2020-12-27T09:02:10Z</time>
      </trkpt>
      <trkpt lat="49.29977" lon="-0.31689">
        <ele>6.5</ele>
        <time>2020-12-27T09:02:11Z</time>
      </trkpt>
      <trkpt lat="49.29978" lon="-0.31689">
        <ele>6.5</ele>
        <time>2020-12-27T09:02:12Z</time>
      </trkpt>
      <trkpt lat="49.29981" lon="-0.3169">
        <ele>6.4</ele>
        <time>2020-12-27T09:02:13Z</time>
      </trkpt>
      <trkpt lat="49.29985" lon="-0.31691">
        <ele>6.3</ele>
        <time>2020-12-27T09:02:15Z</time>
      </trkpt>
      <trkpt lat="49.29986" lon="-0.31692">
        <ele>6.3</ele>
        <time>2020-12-27T09:02:16Z</time>
      </trkpt>
      <trkpt lat="49.29989" lon="-0.31693">
        <ele>6.3</ele>
        <time>2020-12-27T09:02:18Z</time>
      </trkpt>
      <trkpt lat="49.29991" lon="-0.31695">
        <ele>6.3</ele>
        <time>2020-12-27T09:02:19Z</time>
      </trkpt>
      <trkpt lat="49.29992" lon="-0.31696">
        <ele>6.2</ele>
        <time>2020-12-27T09:02:20Z</time>
      </trkpt>
      <trkpt lat="49.29994" lon="-0.31701">
        <ele>6.2</ele>
        <time>2020-12-27T09:02:22Z</time>
      </trkpt>
      <trkpt lat="49.29995" lon="-0.31702">
        <ele>6.2</ele>
        <time>2020-12-27T09:02:23Z</time>
      </trkpt>
      <trkpt lat="49.29997" lon="-0.31705">
        <ele>6.2</ele>
        <time>2020-12-27T09:02:25Z</time>
      </trkpt>
      <trkpt lat="49.29998" lon="-0.31708">
        <ele>6.1</ele>
        <time>2020-12-27T09:02:26Z</time>
      </trkpt>
      <trkpt lat="49.3" lon="-0.31713">
        <ele>6.1</ele>
        <time>2020-12-27T09:02:28Z</time>
      </trkpt>
      <trkpt lat="49.30002" lon="-0.31718">
        <ele>6.1</ele>
        <time>2020-12-27T09:02:29Z</time>
      </trkpt>
      <trkpt lat="49.30003" lon="-0.31722">
        <ele>6.1</ele>
        <time>2020-12-27T09:02:30Z</time>
      </trkpt>
      <trkpt lat="49.30007" lon="-0.31724">
        <ele>6</ele>
        <time>2020-12-27T09:02:32Z</time>
      </trkpt>
      <trkpt lat="49.30008" lon="-0.31724">
        <ele>6</ele>
        <time>2020-12-27T09:02:33Z</time>
      </trkpt>
      <trkpt lat="49.3001" lon="-0.31723">
        <ele>6</ele>
        <time>2020-12-27T09:02:34Z</time>
      </trkpt>
      <trkpt lat="49.30012" lon="-0.31723">
        <ele>6</ele>
        <time>2020-12-27T09:02:36Z</time>
      </trkpt>
      <trkpt lat="49.30015" lon="-0.31725">
        <ele>6</ele>
        <time>2020-12-27T09:02:38Z</time>
      </trkpt>
      <trkpt lat="49.30016" lon="-0.31727">
        <ele>6</ele>
        <time>2020-12-27T09:02:39Z</time>
      </trkpt>
      <trkpt lat="49.30018" lon="-0.31729">
        <ele>6</ele>
        <time>2020-12-27T09:02:41Z</time>
      </trkpt>
      <trkpt lat="49.30019" lon="-0.31731">
        <ele>5.9</ele>
        <time>2020-12-27T09:02:42Z</time>
      </trkpt>
      <trkpt lat="49.3002" lon="-0.31733">
        <ele>5.9</ele>
        <time>2020-12-27T09:02:43Z</time>
      </trkpt>
      <trkpt lat="49.30023" lon="-0.31739">
        <ele>5.9</ele>
        <time>2020-12-27T09:02:45Z</time>
      </trkpt>
      <trkpt lat="49.30024" lon="-0.31741">
        <ele>5.9</ele>
        <time>2020-12-27T09:02:46Z</time>
      </trkpt>
      <trkpt lat="49.30025" lon="-0.31744">
        <ele>5.9</ele>
        <time>2020-12-27T09:02:47Z</time>
      </trkpt>
      <trkpt lat="49.30027" lon="-0.31746">
        <ele>5.9</ele>
        <time>2020-12-27T09:02:49Z</time>
      </trkpt>
      <trkpt lat="49.30028" lon="-0.31747">
        <ele>5.9</ele>
        <time>2020-12-27T09:02:50Z</time>
      </trkpt>
      <trkpt lat="49.30031" lon="-0.31749">
        <ele>5.9</ele>
        <time>2020-12-27T09:02:51Z</time>
      </trkpt>
      <trkpt lat="49.30035" lon="-0.31746">
        <ele>5.9</ele>
        <time>2020-12-27T09:02:53Z</time>
      </trkpt>
      <trkpt lat="49.30036" lon="-0.31745">
        <ele>5.9</ele>
        <time>2020-12-27T09:02:55Z</time>
      </trkpt>
      <trkpt lat="49.30038" lon="-0.31743">
        <ele>5.9</ele>
        <time>2020-12-27T09:02:56Z</time>
      </trkpt>
      <trkpt lat="49.30039" lon="-0.31741">
        <ele>5.9</ele>
        <time>2020-12-27T09:02:57Z</time>
      </trkpt>
      <trkpt lat="49.30041" lon="-0.31738">
        <ele>5.9</ele>
        <time>2020-12-27T09:02:59Z</time>
      </trkpt>
      <trkpt lat="49.30043" lon="-0.31734">
        <ele>6</ele>
        <time>2020-12-27T09:03:01Z</time>
      </trkpt>
      <trkpt lat="49.30043" lon="-0.31733">
        <ele>6</ele>
        <time>2020-12-27T09:03:02Z</time>
      </trkpt>
      <trkpt lat="49.30045" lon="-0.31727">
        <ele>6</ele>
        <time>2020-12-27T09:03:04Z</time>
      </trkpt>
      <trkpt lat="49.30046" lon="-0.31724">
        <ele>6</ele>
        <time>2020-12-27T09:03:05Z</time>
      </trkpt>
      <trkpt lat="49.30047" lon="-0.31722">
        <ele>6</ele>
        <time>2020-12-27T09:03:06Z</time>
      </trkpt>
      <trkpt lat="49.30048" lon="-0.31718">
        <ele>6</ele>
        <time>2020-12-27T09:03:08Z</time>
      </trkpt>
      <trkpt lat="49.30049" lon="-0.31716">
        <ele>6</ele>
        <time>2020-12-27T09:03:09Z</time>
      </trkpt>
      <trkpt lat="49.30052" lon="-0.3171">
        <ele>6</ele>
        <time>2020-12-27T09:03:11Z</time>
      </trkpt>
      <trkpt lat="49.30053" lon="-0.31708">
        <ele>6</ele>
        <time>2020-12-27T09:03:12Z</time>
      </trkpt>
      <trkpt lat="49.30054" lon="-0.31707">
        <ele>6.1</ele>
        <time>2020-12-27T09:03:13Z</time>
      </trkpt>
      <trkpt lat="49.30056" lon="-0.31704">
        <ele>6.1</ele>
        <time>2020-12-27T09:03:15Z</time>
      </trkpt>
      <trkpt lat="49.30058" lon="-0.317">
        <ele>6.1</ele>
        <time>2020-12-27T09:03:17Z</time>
      </trkpt>
      <trkpt lat="49.3006" lon="-0.31697">
        <ele>6.1</ele>
        <time>2020-12-27T09:03:18Z</time>
      </trkpt>
      <trkpt lat="49.30063" lon="-0.31693">
        <ele>6.2</ele>
        <time>2020-12-27T09:03:19Z</time>
      </trkpt>
      <trkpt lat="49.30065" lon="-0.31689">
        <ele>6.2</ele>
        <time>2020-12-27T09:03:21Z</time>
      </trkpt>
      <trkpt lat="49.30066" lon="-0.31688">
        <ele>6.2</ele>
        <time>2020-12-27T09:03:22Z</time>
      </trkpt>
      <trkpt lat="49.30068" lon="-0.31684">
        <ele>6.3</ele>
        <time>2020-12-27T09:03:23Z</time>
      </trkpt>
      <trkpt lat="49.30069" lon="-0.3168">
        <ele>6.3</ele>
        <time>2020-12-27T09:03:24Z</time>
      </trkpt>
      <trkpt lat="49.30071" lon="-0.31675">
        <ele>6.4</ele>
        <time>2020-12-27T09:03:26Z</time>
      </trkpt>
      <trkpt lat="49.30072" lon="-0.31674">
        <ele>6.4</ele>
        <time>2020-12-27T09:03:27Z</time>
      </trkpt>
      <trkpt lat="49.30074" lon="-0.31671">
        <ele>6.4</ele>
        <time>2020-12-27T09:03:29Z</time>
      </trkpt>
      <trkpt lat="49.30077" lon="-0.31668">
        <ele>6.3</ele>
        <time>2020-12-27T09:03:31Z</time>
      </trkpt>
      <trkpt lat="49.3008" lon="-0.31665">
        <ele>6.2</ele>
        <time>2020-12-27T09:03:32Z</time>
      </trkpt>
      <trkpt lat="49.30082" lon="-0.31664">
        <ele>6.1</ele>
        <time>2020-12-27T09:03:33Z</time>
      </trkpt>
      <trkpt lat="49.30084" lon="-0.31661">
        <ele>6</ele>
        <time>2020-12-27T09:03:34Z</time>
      </trkpt>
      <trkpt lat="49.30086" lon="-0.31659">
        <ele>6</ele>
        <time>2020-12-27T09:03:36Z</time>
      </trkpt>
      <trkpt lat="49.30089" lon="-0.31656">
        <ele>6</ele>
        <time>2020-12-27T09:03:37Z</time>
      </trkpt>
      <trkpt lat="49.30092" lon="-0.31652">
        <ele>6</ele>
        <time>2020-12-27T09:03:39Z</time>
      </trkpt>
      <trkpt lat="49.30093" lon="-0.31651">
        <ele>6</ele>
        <time>2020-12-27T09:03:40Z</time>
      </trkpt>
      <trkpt lat="49.30095" lon="-0.31649">
        <ele>6</ele>
        <time>2020-12-27T09:03:41Z</time>
      </trkpt>
      <trkpt lat="49.30097" lon="-0.31646">
        <ele>6</ele>
        <time>2020-12-27T09:03:43Z</time>
      </trkpt>
      <trkpt lat="49.30098" lon="-0.31645">
        <ele>6</ele>
        <time>2020-12-27T09:03:44Z</time>
      </trkpt>
      <trkpt lat="49.301" lon="-0.31643">
        <ele>6</ele>
        <time>2020-12-27T09:03:45Z</time>
      </trkpt>
      <trkpt lat="49.30101" lon="-0.31641">
        <ele>6</ele>
        <time>2020-12-27T09:03:47Z</time>
      </trkpt>
      <trkpt lat="49.30103" lon="-0.3164">
        <ele>5.9</ele>
        <time>2020-12-27T09:03:48Z</time>
      </trkpt>
      <trkpt lat="49.30105" lon="-0.31637">
        <ele>5.9</ele>
        <time>2020-12-27T09:03:50Z</time>
      </trkpt>
      <trkpt lat="49.30107" lon="-0.31635">
        <ele>5.9</ele>
        <time>2020-12-27T09:03:51Z</time>
      </trkpt>
      <trkpt lat="49.30109" lon="-0.31634">
        <ele>5.9</ele>
        <time>2020-12-27T09:03:53Z</time>
      </trkpt>
      <trkpt lat="49.30111" lon="-0.31631">
        <ele>6</ele>
        <time>2020-12-27T09:03:54Z</time>
      </trkpt>
      <trkpt lat="49.30112" lon="-0.3163">
        <ele>6</ele>
        <time>2020-12-27T09:03:55Z</time>
      </trkpt>
      <trkpt lat="49.30115" lon="-0.31627">
        <ele>6</ele>
        <time>2020-12-27T09:03:57Z</time>
      </trkpt>
      <trkpt lat="49.30116" lon="-0.31625">
        <ele>6</ele>
        <time>2020-12-27T09:03:58Z</time>
      </trkpt>
      <trkpt lat="49.30118" lon="-0.31624">
        <ele>6</ele>
        <time>2020-12-27T09:03:59Z</time>
      </trkpt>
      <trkpt lat="49.3012" lon="-0.31622">
        <ele>6</ele>
        <time>2020-12-27T09:04:01Z</time>
      </trkpt>
      <trkpt lat="49.30122" lon="-0.31619">
        <ele>6</ele>
        <time>2020-12-27T09:04:02Z</time>
      </trkpt>
      <trkpt lat="49.30124" lon="-0.31617">
        <ele>6</ele>
        <time>2020-12-27T09:04:03Z</time>
      </trkpt>
      <trkpt lat="49.30126" lon="-0.31615">
        <ele>6</ele>
        <time>2020-12-27T09:04:05Z</time>
      </trkpt>
      <trkpt lat="49.30127" lon="-0.31613">
        <ele>6</ele>
        <time>2020-12-27T09:04:06Z</time>
      </trkpt>
      <trkpt lat="49.30129" lon="-0.31612">
        <ele>6</ele>
        <time>2020-12-27T09:04:08Z</time>
      </trkpt>
      <trkpt lat="49.3013" lon="-0.31611">
        <ele>6</ele>
        <time>2020-12-27T09:04:09Z</time>
      </trkpt>
      <trkpt lat="49.30133" lon="-0.31608">
        <ele>6</ele>
        <time>2020-12-27T09:04:11Z</time>
      </trkpt>
      <trkpt lat="49.30136" lon="-0.31606">
        <ele>6.1</ele>
        <time>2020-12-27T09:04:12Z</time>
      </trkpt>
      <trkpt lat="49.30137" lon="-0.31605">
        <ele>6.1</ele>
        <time>2020-12-27T09:04:13Z</time>
      </trkpt>
      <trkpt lat="49.30139" lon="-0.31602">
        <ele>6.1</ele>
        <time>2020-12-27T09:04:15Z</time>
      </trkpt>
      <trkpt lat="49.3014" lon="-0.31601">
        <ele>6.1</ele>
        <time>2020-12-27T09:04:16Z</time>
      </trkpt>
      <trkpt lat="49.30142" lon="-0.316">
        <ele>6.1</ele>
        <time>2020-12-27T09:04:17Z</time>
      </trkpt>
      <trkpt lat="49.30143" lon="-0.31598">
        <ele>6.1</ele>
        <time>2020-12-27T09:04:19Z</time>
      </trkpt>
      <trkpt lat="49.30145" lon="-0.31596">
        <ele>6.1</ele>
        <time>2020-12-27T09:04:20Z</time>
      </trkpt>
      <trkpt lat="49.30146" lon="-0.31593">
        <ele>6.1</ele>
        <time>2020-12-27T09:04:22Z</time>
      </trkpt>
      <trkpt lat="49.30148" lon="-0.31589">
        <ele>6.3</ele>
        <time>2020-12-27T09:04:23Z</time>
      </trkpt>
      <trkpt lat="49.30149" lon="-0.31588">
        <ele>6.3</ele>
        <time>2020-12-27T09:04:24Z</time>
      </trkpt>
      <trkpt lat="49.30152" lon="-0.31585">
        <ele>6.3</ele>
        <time>2020-12-27T09:04:26Z</time>
      </trkpt>
      <trkpt lat="49.30153" lon="-0.31584">
        <ele>6.3</ele>
        <time>2020-12-27T09:04:27Z</time>
      </trkpt>
      <trkpt lat="49.30155" lon="-0.31581">
        <ele>6.4</ele>
        <time>2020-12-27T09:04:29Z</time>
      </trkpt>
      <trkpt lat="49.30156" lon="-0.31579">
        <ele>6.4</ele>
        <time>2020-12-27T09:04:30Z</time>
      </trkpt>
      <trkpt lat="49.30158" lon="-0.31577">
        <ele>6.4</ele>
        <time>2020-12-27T09:04:31Z</time>
      </trkpt>
      <trkpt lat="49.30161" lon="-0.31575">
        <ele>6.4</ele>
        <time>2020-12-27T09:04:33Z</time>
      </trkpt>
      <trkpt lat="49.30163" lon="-0.31572">
        <ele>6.4</ele>
        <time>2020-12-27T09:04:34Z</time>
      </trkpt>
      <trkpt lat="49.30165" lon="-0.3157">
        <ele>6.4</ele>
        <time>2020-12-27T09:04:36Z</time>
      </trkpt>
      <trkpt lat="49.30167" lon="-0.31567">
        <ele>6.4</ele>
        <time>2020-12-27T09:04:37Z</time>
      </trkpt>
      <trkpt lat="49.3017" lon="-0.31565">
        <ele>6.5</ele>
        <time>2020-12-27T09:04:39Z</time>
      </trkpt>
      <trkpt lat="49.30171" lon="-0.31564">
        <ele>6.5</ele>
        <time>2020-12-27T09:04:40Z</time>
      </trkpt>
      <trkpt lat="49.30173" lon="-0.31562">
        <ele>6.5</ele>
        <time>2020-12-27T09:04:41Z</time>
      </trkpt>
      <trkpt lat="49.30176" lon="-0.31558">
        <ele>6.5</ele>
        <time>2020-12-27T09:04:43Z</time>
      </trkpt>
      <trkpt lat="49.30177" lon="-0.31557">
        <ele>6.5</ele>
        <time>2020-12-27T09:04:44Z</time>
      </trkpt>
      <trkpt lat="49.30178" lon="-0.31555">
        <ele>6.5</ele>
        <time>2020-12-27T09:04:45Z</time>
      </trkpt>
      <trkpt lat="49.3018" lon="-0.31553">
        <ele>6.5</ele>
        <time>2020-12-27T09:04:47Z</time>
      </trkpt>
      <trkpt lat="49.30183" lon="-0.31551">
        <ele>6.5</ele>
        <time>2020-12-27T09:04:48Z</time>
      </trkpt>
      <trkpt lat="49.30184" lon="-0.3155">
        <ele>6.5</ele>
        <time>2020-12-27T09:04:49Z</time>
      </trkpt>
      <trkpt lat="49.30186" lon="-0.31548">
        <ele>6.6</ele>
        <time>2020-12-27T09:04:50Z</time>
      </trkpt>
      <trkpt lat="49.30189" lon="-0.31545">
        <ele>6.6</ele>
        <time>2020-12-27T09:04:52Z</time>
      </trkpt>
      <trkpt lat="49.30193" lon="-0.31541">
        <ele>6.6</ele>
        <time>2020-12-27T09:04:54Z</time>
      </trkpt>
      <trkpt lat="49.30195" lon="-0.3154">
        <ele>6.6</ele>
        <time>2020-12-27T09:04:55Z</time>
      </trkpt>
      <trkpt lat="49.30196" lon="-0.31539">
        <ele>6.6</ele>
        <time>2020-12-27T09:04:56Z</time>
      </trkpt>
      <trkpt lat="49.302" lon="-0.31536">
        <ele>6.7</ele>
        <time>2020-12-27T09:04:58Z</time>
      </trkpt>
      <trkpt lat="49.30202" lon="-0.31535">
        <ele>6.7</ele>
        <time>2020-12-27T09:04:59Z</time>
      </trkpt>
      <trkpt lat="49.30203" lon="-0.31533">
        <ele>6.7</ele>
        <time>2020-12-27T09:05:01Z</time>
      </trkpt>
      <trkpt lat="49.30204" lon="-0.31531">
        <ele>6.7</ele>
        <time>2020-12-27T09:05:02Z</time>
      </trkpt>
      <trkpt lat="49.30206" lon="-0.31529">
        <ele>6.7</ele>
        <time>2020-12-27T09:05:03Z</time>
      </trkpt>
      <trkpt lat="49.30206" lon="-0.31526">
        <ele>6.7</ele>
        <time>2020-12-27T09:05:05Z</time>
      </trkpt>
      <trkpt lat="49.30208" lon="-0.31524">
        <ele>6.7</ele>
        <time>2020-12-27T09:05:06Z</time>
      </trkpt>
      <trkpt lat="49.30209" lon="-0.31522">
        <ele>6.8</ele>
        <time>2020-12-27T09:05:08Z</time>
      </trkpt>
      <trkpt lat="49.30212" lon="-0.31519">
        <ele>6.8</ele>
        <time>2020-12-27T09:05:09Z</time>
      </trkpt>
      <trkpt lat="49.30213" lon="-0.31518">
        <ele>6.8</ele>
        <time>2020-12-27T09:05:10Z</time>
      </trkpt>
      <trkpt lat="49.30214" lon="-0.31516">
        <ele>6.8</ele>
        <time>2020-12-27T09:05:11Z</time>
      </trkpt>
      <trkpt lat="49.30217" lon="-0.31514">
        <ele>6.8</ele>
        <time>2020-12-27T09:05:13Z</time>
      </trkpt>
      <trkpt lat="49.30218" lon="-0.31512">
        <ele>6.8</ele>
        <time>2020-12-27T09:05:14Z</time>
      </trkpt>
      <trkpt lat="49.3022" lon="-0.3151">
        <ele>6.8</ele>
        <time>2020-12-27T09:05:16Z</time>
      </trkpt>
      <trkpt lat="49.30222" lon="-0.31508">
        <ele>6.8</ele>
        <time>2020-12-27T09:05:17Z</time>
      </trkpt>
      <trkpt lat="49.30223" lon="-0.31506">
        <ele>6.8</ele>
        <time>2020-12-27T09:05:19Z</time>
      </trkpt>
      <trkpt lat="49.30224" lon="-0.31503">
        <ele>6.8</ele>
        <time>2020-12-27T09:05:20Z</time>
      </trkpt>
      <trkpt lat="49.30225" lon="-0.31501">
        <ele>6.8</ele>
        <time>2020-12-27T09:05:21Z</time>
      </trkpt>
      <trkpt lat="49.30226" lon="-0.315">
        <ele>6.8</ele>
        <time>2020-12-27T09:05:22Z</time>
      </trkpt>
      <trkpt lat="49.30227" lon="-0.31498">
        <ele>6.7</ele>
        <time>2020-12-27T09:05:23Z</time>
      </trkpt>
      <trkpt lat="49.30228" lon="-0.31497">
        <ele>6.7</ele>
        <time>2020-12-27T09:05:25Z</time>
      </trkpt>
      <trkpt lat="49.30229" lon="-0.31495">
        <ele>6.7</ele>
        <time>2020-12-27T09:05:26Z</time>
      </trkpt>
      <trkpt lat="49.3023" lon="-0.31493">
        <ele>6.7</ele>
        <time>2020-12-27T09:05:28Z</time>
      </trkpt>
      <trkpt lat="49.30231" lon="-0.31491">
        <ele>6.6</ele>
        <time>2020-12-27T09:05:29Z</time>
      </trkpt>
      <trkpt lat="49.30232" lon="-0.3149">
        <ele>6.6</ele>
        <time>2020-12-27T09:05:30Z</time>
      </trkpt>
      <trkpt lat="49.30235" lon="-0.31486">
        <ele>6.5</ele>
        <time>2020-12-27T09:05:32Z</time>
      </trkpt>
      <trkpt lat="49.30236" lon="-0.31486">
        <ele>6.5</ele>
        <time>2020-12-27T09:05:33Z</time>
      </trkpt>
      <trkpt lat="49.30239" lon="-0.31483">
        <ele>6.4</ele>
        <time>2020-12-27T09:05:34Z</time>
      </trkpt>
      <trkpt lat="49.3024" lon="-0.31482">
        <ele>6.4</ele>
        <time>2020-12-27T09:05:35Z</time>
      </trkpt>
      <trkpt lat="49.30243" lon="-0.31479">
        <ele>6.3</ele>
        <time>2020-12-27T09:05:36Z</time>
      </trkpt>
      <trkpt lat="49.30246" lon="-0.31475">
        <ele>6.2</ele>
        <time>2020-12-27T09:05:38Z</time>
      </trkpt>
      <trkpt lat="49.30248" lon="-0.31474">
        <ele>6.1</ele>
        <time>2020-12-27T09:05:39Z</time>
      </trkpt>
      <trkpt lat="49.30249" lon="-0.31473">
        <ele>6</ele>
        <time>2020-12-27T09:05:40Z</time>
      </trkpt>
      <trkpt lat="49.30251" lon="-0.31469">
        <ele>5.8</ele>
        <time>2020-12-27T09:05:42Z</time>
      </trkpt>
      <trkpt lat="49.30252" lon="-0.31468">
        <ele>5.8</ele>
        <time>2020-12-27T09:05:43Z</time>
      </trkpt>
      <trkpt lat="49.30254" lon="-0.31466">
        <ele>5.6</ele>
        <time>2020-12-27T09:05:44Z</time>
      </trkpt>
      <trkpt lat="49.30255" lon="-0.31465">
        <ele>5.5</ele>
        <time>2020-12-27T09:05:45Z</time>
      </trkpt>
      <trkpt lat="49.30257" lon="-0.31463">
        <ele>5.4</ele>
        <time>2020-12-27T09:05:47Z</time>
      </trkpt>
      <trkpt lat="49.30259" lon="-0.31462">
        <ele>5.3</ele>
        <time>2020-12-27T09:05:49Z</time>
      </trkpt>
      <trkpt lat="49.3026" lon="-0.31461">
        <ele>5.2</ele>
        <time>2020-12-27T09:05:50Z</time>
      </trkpt>
      <trkpt lat="49.30262" lon="-0.31459">
        <ele>5</ele>
        <time>2020-12-27T09:05:51Z</time>
      </trkpt>
      <trkpt lat="49.30262" lon="-0.31457">
        <ele>5</ele>
        <time>2020-12-27T09:05:52Z</time>
      </trkpt>
      <trkpt lat="49.30263" lon="-0.31454">
        <ele>4.5</ele>
        <time>2020-12-27T09:05:54Z</time>
      </trkpt>
      <trkpt lat="49.30263" lon="-0.3145">
        <ele>4.5</ele>
        <time>2020-12-27T09:05:55Z</time>
      </trkpt>
      <trkpt lat="49.30263" lon="-0.31447">
        <ele>4.5</ele>
        <time>2020-12-27T09:05:57Z</time>
      </trkpt>
      <trkpt lat="49.30262" lon="-0.31443">
        <ele>4.5</ele>
        <time>2020-12-27T09:05:59Z</time>
      </trkpt>
      <trkpt lat="49.30261" lon="-0.31441">
        <ele>4.5</ele>
        <time>2020-12-27T09:06:00Z</time>
      </trkpt>
      <trkpt lat="49.30261" lon="-0.31439">
        <ele>4.5</ele>
        <time>2020-12-27T09:06:01Z</time>
      </trkpt>
      <trkpt lat="49.3026" lon="-0.31435">
        <ele>4.5</ele>
        <time>2020-12-27T09:06:02Z</time>
      </trkpt>
      <trkpt lat="49.3026" lon="-0.31433">
        <ele>4.5</ele>
        <time>2020-12-27T09:06:03Z</time>
      </trkpt>
      <trkpt lat="49.30258" lon="-0.31429">
        <ele>4.5</ele>
        <time>2020-12-27T09:06:05Z</time>
      </trkpt>
      <trkpt lat="49.30258" lon="-0.31428">
        <ele>4.5</ele>
        <time>2020-12-27T09:06:06Z</time>
      </trkpt>
      <trkpt lat="49.30257" lon="-0.31425">
        <ele>4.5</ele>
        <time>2020-12-27T09:06:08Z</time>
      </trkpt>
      <trkpt lat="49.30255" lon="-0.31422">
        <ele>4.5</ele>
        <time>2020-12-27T09:06:10Z</time>
      </trkpt>
      <trkpt lat="49.30253" lon="-0.3142">
        <ele>4.5</ele>
        <time>2020-12-27T09:06:11Z</time>
      </trkpt>
      <trkpt lat="49.30252" lon="-0.31417">
        <ele>4.5</ele>
        <time>2020-12-27T09:06:13Z</time>
      </trkpt>
      <trkpt lat="49.30251" lon="-0.31412">
        <ele>4.5</ele>
        <time>2020-12-27T09:06:15Z</time>
      </trkpt>
      <trkpt lat="49.30251" lon="-0.31411">
        <ele>4.5</ele>
        <time>2020-12-27T09:06:17Z</time>
      </trkpt>
      <trkpt lat="49.30252" lon="-0.3141">
        <ele>4.5</ele>
        <time>2020-12-27T09:06:18Z</time>
      </trkpt>
      <trkpt lat="49.30252" lon="-0.31407">
        <ele>4.5</ele>
        <time>2020-12-27T09:06:19Z</time>
      </trkpt>
      <trkpt lat="49.30252" lon="-0.31403">
        <ele>4.5</ele>
        <time>2020-12-27T09:06:20Z</time>
      </trkpt>
      <trkpt lat="49.30251" lon="-0.314">
        <ele>4.5</ele>
        <time>2020-12-27T09:06:22Z</time>
      </trkpt>
      <trkpt lat="49.30251" lon="-0.31396">
        <ele>4.5</ele>
        <time>2020-12-27T09:06:23Z</time>
      </trkpt>
      <trkpt lat="49.3025" lon="-0.31391">
        <ele>4.4</ele>
        <time>2020-12-27T09:06:25Z</time>
      </trkpt>
      <trkpt lat="49.3025" lon="-0.3139">
        <ele>4.4</ele>
        <time>2020-12-27T09:06:26Z</time>
      </trkpt>
      <trkpt lat="49.30248" lon="-0.31385">
        <ele>4.4</ele>
        <time>2020-12-27T09:06:27Z</time>
      </trkpt>
      <trkpt lat="49.30248" lon="-0.31384">
        <ele>4.4</ele>
        <time>2020-12-27T09:06:28Z</time>
      </trkpt>
      <trkpt lat="49.30247" lon="-0.31381">
        <ele>4.4</ele>
        <time>2020-12-27T09:06:30Z</time>
      </trkpt>
      <trkpt lat="49.30246" lon="-0.31379">
        <ele>4.4</ele>
        <time>2020-12-27T09:06:31Z</time>
      </trkpt>
      <trkpt lat="49.30245" lon="-0.31376">
        <ele>4.4</ele>
        <time>2020-12-27T09:06:32Z</time>
      </trkpt>
      <trkpt lat="49.30241" lon="-0.3137">
        <ele>4.4</ele>
        <time>2020-12-27T09:06:34Z</time>
      </trkpt>
      <trkpt lat="49.3024" lon="-0.31368">
        <ele>4.4</ele>
        <time>2020-12-27T09:06:36Z</time>
      </trkpt>
      <trkpt lat="49.30239" lon="-0.31366">
        <ele>4.4</ele>
        <time>2020-12-27T09:06:37Z</time>
      </trkpt>
      <trkpt lat="49.30236" lon="-0.31362">
        <ele>4.4</ele>
        <time>2020-12-27T09:06:39Z</time>
      </trkpt>
      <trkpt lat="49.30235" lon="-0.3136">
        <ele>4.4</ele>
        <time>2020-12-27T09:06:40Z</time>
      </trkpt>
      <trkpt lat="49.30233" lon="-0.31357">
        <ele>4.4</ele>
        <time>2020-12-27T09:06:42Z</time>
      </trkpt>
      <trkpt lat="49.30232" lon="-0.31356">
        <ele>4.4</ele>
        <time>2020-12-27T09:06:43Z</time>
      </trkpt>
      <trkpt lat="49.30229" lon="-0.31353">
        <ele>4.4</ele>
        <time>2020-12-27T09:06:44Z</time>
      </trkpt>
      <trkpt lat="49.30227" lon="-0.31351">
        <ele>4.4</ele>
        <time>2020-12-27T09:06:45Z</time>
      </trkpt>
      <trkpt lat="49.30225" lon="-0.31349">
        <ele>4.4</ele>
        <time>2020-12-27T09:06:47Z</time>
      </trkpt>
      <trkpt lat="49.30222" lon="-0.31346">
        <ele>4.4</ele>
        <time>2020-12-27T09:06:49Z</time>
      </trkpt>
      <trkpt lat="49.3022" lon="-0.31343">
        <ele>4.4</ele>
        <time>2020-12-27T09:06:50Z</time>
      </trkpt>
      <trkpt lat="49.30219" lon="-0.31339">
        <ele>4.3</ele>
        <time>2020-12-27T09:06:52Z</time>
      </trkpt>
      <trkpt lat="49.30217" lon="-0.31335">
        <ele>4.3</ele>
        <time>2020-12-27T09:06:54Z</time>
      </trkpt>
      <trkpt lat="49.30216" lon="-0.3133">
        <ele>4.3</ele>
        <time>2020-12-27T09:06:55Z</time>
      </trkpt>
      <trkpt lat="49.30215" lon="-0.31328">
        <ele>4.3</ele>
        <time>2020-12-27T09:06:56Z</time>
      </trkpt>
      <trkpt lat="49.30213" lon="-0.31323">
        <ele>4.3</ele>
        <time>2020-12-27T09:06:58Z</time>
      </trkpt>
      <trkpt lat="49.30211" lon="-0.31317">
        <ele>4.3</ele>
        <time>2020-12-27T09:07:00Z</time>
      </trkpt>
      <trkpt lat="49.3021" lon="-0.31316">
        <ele>4.3</ele>
        <time>2020-12-27T09:07:01Z</time>
      </trkpt>
      <trkpt lat="49.30209" lon="-0.31314">
        <ele>4.3</ele>
        <time>2020-12-27T09:07:02Z</time>
      </trkpt>
      <trkpt lat="49.30208" lon="-0.31311">
        <ele>4.4</ele>
        <time>2020-12-27T09:07:03Z</time>
      </trkpt>
      <trkpt lat="49.30206" lon="-0.31308">
        <ele>4.4</ele>
        <time>2020-12-27T09:07:05Z</time>
      </trkpt>
      <trkpt lat="49.30205" lon="-0.31306">
        <ele>4.4</ele>
        <time>2020-12-27T09:07:07Z</time>
      </trkpt>
      <trkpt lat="49.30204" lon="-0.31304">
        <ele>4.4</ele>
        <time>2020-12-27T09:07:08Z</time>
      </trkpt>
      <trkpt lat="49.30203" lon="-0.31303">
        <ele>4.4</ele>
        <time>2020-12-27T09:07:09Z</time>
      </trkpt>
      <trkpt lat="49.30202" lon="-0.313">
        <ele>4.4</ele>
        <time>2020-12-27T09:07:10Z</time>
      </trkpt>
      <trkpt lat="49.30201" lon="-0.31296">
        <ele>4.4</ele>
        <time>2020-12-27T09:07:12Z</time>
      </trkpt>
      <trkpt lat="49.302" lon="-0.31294">
        <ele>4.4</ele>
        <time>2020-12-27T09:07:13Z</time>
      </trkpt>
      <trkpt lat="49.30198" lon="-0.3129">
        <ele>4.4</ele>
        <time>2020-12-27T09:07:15Z</time>
      </trkpt>
      <trkpt lat="49.30198" lon="-0.31289">
        <ele>4.4</ele>
        <time>2020-12-27T09:07:16Z</time>
      </trkpt>
      <trkpt lat="49.30195" lon="-0.31285">
        <ele>4.4</ele>
        <time>2020-12-27T09:07:18Z</time>
      </trkpt>
      <trkpt lat="49.30194" lon="-0.31284">
        <ele>4.4</ele>
        <time>2020-12-27T09:07:19Z</time>
      </trkpt>
      <trkpt lat="49.30193" lon="-0.31282">
        <ele>4.4</ele>
        <time>2020-12-27T09:07:21Z</time>
      </trkpt>
      <trkpt lat="49.30192" lon="-0.3128">
        <ele>4.4</ele>
        <time>2020-12-27T09:07:22Z</time>
      </trkpt>
      <trkpt lat="49.30191" lon="-0.31278">
        <ele>4.4</ele>
        <time>2020-12-27T09:07:23Z</time>
      </trkpt>
      <trkpt lat="49.3019" lon="-0.31276">
        <ele>4.4</ele>
        <time>2020-12-27T09:07:25Z</time>
      </trkpt>
      <trkpt lat="49.30189" lon="-0.31272">
        <ele>4.4</ele>
        <time>2020-12-27T09:07:26Z</time>
      </trkpt>
      <trkpt lat="49.30188" lon="-0.31269">
        <ele>4.4</ele>
        <time>2020-12-27T09:07:28Z</time>
      </trkpt>
      <trkpt lat="49.30187" lon="-0.31266">
        <ele>4.4</ele>
        <time>2020-12-27T09:07:29Z</time>
      </trkpt>
      <trkpt lat="49.30187" lon="-0.31264">
        <ele>4.4</ele>
        <time>2020-12-27T09:07:30Z</time>
      </trkpt>
      <trkpt lat="49.30185" lon="-0.3126">
        <ele>4.4</ele>
        <time>2020-12-27T09:07:32Z</time>
      </trkpt>
      <trkpt lat="49.30185" lon="-0.31259">
        <ele>4.4</ele>
        <time>2020-12-27T09:07:33Z</time>
      </trkpt>
      <trkpt lat="49.30182" lon="-0.31253">
        <ele>4.4</ele>
        <time>2020-12-27T09:07:35Z</time>
      </trkpt>
      <trkpt lat="49.30182" lon="-0.31252">
        <ele>4.4</ele>
        <time>2020-12-27T09:07:36Z</time>
      </trkpt>
      <trkpt lat="49.30181" lon="-0.3125">
        <ele>4.4</ele>
        <time>2020-12-27T09:07:37Z</time>
      </trkpt>
      <trkpt lat="49.3018" lon="-0.31246">
        <ele>4.4</ele>
        <time>2020-12-27T09:07:38Z</time>
      </trkpt>
      <trkpt lat="49.30179" lon="-0.31243">
        <ele>4.4</ele>
        <time>2020-12-27T09:07:40Z</time>
      </trkpt>
      <trkpt lat="49.30178" lon="-0.31239">
        <ele>4.4</ele>
        <time>2020-12-27T09:07:41Z</time>
      </trkpt>
      <trkpt lat="49.30177" lon="-0.31236">
        <ele>4.4</ele>
        <time>2020-12-27T09:07:42Z</time>
      </trkpt>
      <trkpt lat="49.30176" lon="-0.31231">
        <ele>4.4</ele>
        <time>2020-12-27T09:07:44Z</time>
      </trkpt>
      <trkpt lat="49.30176" lon="-0.3123">
        <ele>4.4</ele>
        <time>2020-12-27T09:07:45Z</time>
      </trkpt>
      <trkpt lat="49.30175" lon="-0.31225">
        <ele>4.4</ele>
        <time>2020-12-27T09:07:47Z</time>
      </trkpt>
      <trkpt lat="49.30175" lon="-0.31223">
        <ele>4.4</ele>
        <time>2020-12-27T09:07:48Z</time>
      </trkpt>
      <trkpt lat="49.30174" lon="-0.3122">
        <ele>4.4</ele>
        <time>2020-12-27T09:07:49Z</time>
      </trkpt>
      <trkpt lat="49.30174" lon="-0.31218">
        <ele>4.5</ele>
        <time>2020-12-27T09:07:50Z</time>
      </trkpt>
      <trkpt lat="49.30173" lon="-0.31214">
        <ele>4.5</ele>
        <time>2020-12-27T09:07:52Z</time>
      </trkpt>
      <trkpt lat="49.30173" lon="-0.31211">
        <ele>4.5</ele>
        <time>2020-12-27T09:07:53Z</time>
      </trkpt>
      <trkpt lat="49.30172" lon="-0.31208">
        <ele>4.5</ele>
        <time>2020-12-27T09:07:55Z</time>
      </trkpt>
      <trkpt lat="49.30171" lon="-0.31207">
        <ele>4.5</ele>
        <time>2020-12-27T09:07:56Z</time>
      </trkpt>
      <trkpt lat="49.30169" lon="-0.31204">
        <ele>4.5</ele>
        <time>2020-12-27T09:07:57Z</time>
      </trkpt>
      <trkpt lat="49.30168" lon="-0.31201">
        <ele>4.5</ele>
        <time>2020-12-27T09:07:59Z</time>
      </trkpt>
      <trkpt lat="49.30166" lon="-0.31198">
        <ele>4.5</ele>
        <time>2020-12-27T09:08:01Z</time>
      </trkpt>
      <trkpt lat="49.30164" lon="-0.31193">
        <ele>4.5</ele>
        <time>2020-12-27T09:08:02Z</time>
      </trkpt>
      <trkpt lat="49.30163" lon="-0.31192">
        <ele>4.6</ele>
        <time>2020-12-27T09:08:03Z</time>
      </trkpt>
      <trkpt lat="49.30162" lon="-0.3119">
        <ele>4.6</ele>
        <time>2020-12-27T09:08:04Z</time>
      </trkpt>
      <trkpt lat="49.30161" lon="-0.31187">
        <ele>4.6</ele>
        <time>2020-12-27T09:08:06Z</time>
      </trkpt>
      <trkpt lat="49.3016" lon="-0.31185">
        <ele>4.6</ele>
        <time>2020-12-27T09:08:07Z</time>
      </trkpt>
      <trkpt lat="49.30159" lon="-0.31182">
        <ele>4.6</ele>
        <time>2020-12-27T09:08:08Z</time>
      </trkpt>
      <trkpt lat="49.30157" lon="-0.31178">
        <ele>4.6</ele>
        <time>2020-12-27T09:08:09Z</time>
      </trkpt>
      <trkpt lat="49.30157" lon="-0.31177">
        <ele>4.6</ele>
        <time>2020-12-27T09:08:10Z</time>
      </trkpt>
      <trkpt lat="49.30155" lon="-0.31172">
        <ele>4.6</ele>
        <time>2020-12-27T09:08:12Z</time>
      </trkpt>
      <trkpt lat="49.30154" lon="-0.31171">
        <ele>4.6</ele>
        <time>2020-12-27T09:08:13Z</time>
      </trkpt>
      <trkpt lat="49.30153" lon="-0.31169">
        <ele>4.7</ele>
        <time>2020-12-27T09:08:14Z</time>
      </trkpt>
      <trkpt lat="49.30152" lon="-0.31166">
        <ele>4.7</ele>
        <time>2020-12-27T09:08:16Z</time>
      </trkpt>
      <trkpt lat="49.3015" lon="-0.3116">
        <ele>4.7</ele>
        <time>2020-12-27T09:08:18Z</time>
      </trkpt>
      <trkpt lat="49.3015" lon="-0.31159">
        <ele>4.7</ele>
        <time>2020-12-27T09:08:19Z</time>
      </trkpt>
      <trkpt lat="49.30149" lon="-0.31157">
        <ele>4.7</ele>
        <time>2020-12-27T09:08:20Z</time>
      </trkpt>
      <trkpt lat="49.30147" lon="-0.31153">
        <ele>4.7</ele>
        <time>2020-12-27T09:08:22Z</time>
      </trkpt>
      <trkpt lat="49.30146" lon="-0.31151">
        <ele>4.7</ele>
        <time>2020-12-27T09:08:23Z</time>
      </trkpt>
      <trkpt lat="49.30145" lon="-0.31149">
        <ele>4.7</ele>
        <time>2020-12-27T09:08:25Z</time>
      </trkpt>
      <trkpt lat="49.30145" lon="-0.31146">
        <ele>4.7</ele>
        <time>2020-12-27T09:08:26Z</time>
      </trkpt>
      <trkpt lat="49.30143" lon="-0.31141">
        <ele>4.8</ele>
        <time>2020-12-27T09:08:28Z</time>
      </trkpt>
      <trkpt lat="49.30142" lon="-0.31138">
        <ele>4.8</ele>
        <time>2020-12-27T09:08:29Z</time>
      </trkpt>
      <trkpt lat="49.3014" lon="-0.31132">
        <ele>4.8</ele>
        <time>2020-12-27T09:08:31Z</time>
      </trkpt>
      <trkpt lat="49.30139" lon="-0.3113">
        <ele>4.8</ele>
        <time>2020-12-27T09:08:33Z</time>
      </trkpt>
      <trkpt lat="49.30139" lon="-0.31129">
        <ele>4.8</ele>
        <time>2020-12-27T09:08:34Z</time>
      </trkpt>
      <trkpt lat="49.30137" lon="-0.31125">
        <ele>4.8</ele>
        <time>2020-12-27T09:08:35Z</time>
      </trkpt>
      <trkpt lat="49.30137" lon="-0.31123">
        <ele>4.8</ele>
        <time>2020-12-27T09:08:36Z</time>
      </trkpt>
      <trkpt lat="49.30136" lon="-0.31121">
        <ele>4.8</ele>
        <time>2020-12-27T09:08:37Z</time>
      </trkpt>
      <trkpt lat="49.30135" lon="-0.31119">
        <ele>4.8</ele>
        <time>2020-12-27T09:08:38Z</time>
      </trkpt>
      <trkpt lat="49.30134" lon="-0.31116">
        <ele>4.8</ele>
        <time>2020-12-27T09:08:39Z</time>
      </trkpt>
      <trkpt lat="49.30132" lon="-0.31114">
        <ele>4.8</ele>
        <time>2020-12-27T09:08:41Z</time>
      </trkpt>
      <trkpt lat="49.3013" lon="-0.31111">
        <ele>4.8</ele>
        <time>2020-12-27T09:08:42Z</time>
      </trkpt>
      <trkpt lat="49.3013" lon="-0.31109">
        <ele>4.8</ele>
        <time>2020-12-27T09:08:43Z</time>
      </trkpt>
      <trkpt lat="49.30129" lon="-0.31107">
        <ele>4.8</ele>
        <time>2020-12-27T09:08:45Z</time>
      </trkpt>
      <trkpt lat="49.30129" lon="-0.31105">
        <ele>4.8</ele>
        <time>2020-12-27T09:08:46Z</time>
      </trkpt>
      <trkpt lat="49.30128" lon="-0.311">
        <ele>4.8</ele>
        <time>2020-12-27T09:08:47Z</time>
      </trkpt>
      <trkpt lat="49.30127" lon="-0.31099">
        <ele>4.8</ele>
        <time>2020-12-27T09:08:48Z</time>
      </trkpt>
      <trkpt lat="49.30126" lon="-0.31095">
        <ele>4.8</ele>
        <time>2020-12-27T09:08:49Z</time>
      </trkpt>
      <trkpt lat="49.30126" lon="-0.31093">
        <ele>4.8</ele>
        <time>2020-12-27T09:08:51Z</time>
      </trkpt>
      <trkpt lat="49.30125" lon="-0.31091">
        <ele>4.8</ele>
        <time>2020-12-27T09:08:52Z</time>
      </trkpt>
      <trkpt lat="49.30124" lon="-0.31089">
        <ele>4.8</ele>
        <time>2020-12-27T09:08:53Z</time>
      </trkpt>
      <trkpt lat="49.30124" lon="-0.31087">
        <ele>4.8</ele>
        <time>2020-12-27T09:08:54Z</time>
      </trkpt>
      <trkpt lat="49.30123" lon="-0.31085">
        <ele>4.8</ele>
        <time>2020-12-27T09:08:55Z</time>
      </trkpt>
      <trkpt lat="49.30122" lon="-0.31081">
        <ele>4.7</ele>
        <time>2020-12-27T09:08:57Z</time>
      </trkpt>
      <trkpt lat="49.30122" lon="-0.31079">
        <ele>4.7</ele>
        <time>2020-12-27T09:08:58Z</time>
      </trkpt>
      <trkpt lat="49.30121" lon="-0.31075">
        <ele>4.7</ele>
        <time>2020-12-27T09:09:00Z</time>
      </trkpt>
      <trkpt lat="49.3012" lon="-0.31073">
        <ele>4.7</ele>
        <time>2020-12-27T09:09:01Z</time>
      </trkpt>
      <trkpt lat="49.3012" lon="-0.3107">
        <ele>4.7</ele>
        <time>2020-12-27T09:09:02Z</time>
      </trkpt>
      <trkpt lat="49.30119" lon="-0.31065">
        <ele>4.7</ele>
        <time>2020-12-27T09:09:03Z</time>
      </trkpt>
      <trkpt lat="49.30119" lon="-0.31064">
        <ele>4.7</ele>
        <time>2020-12-27T09:09:04Z</time>
      </trkpt>
      <trkpt lat="49.30118" lon="-0.31059">
        <ele>4.7</ele>
        <time>2020-12-27T09:09:06Z</time>
      </trkpt>
      <trkpt lat="49.30117" lon="-0.31057">
        <ele>4.7</ele>
        <time>2020-12-27T09:09:07Z</time>
      </trkpt>
      <trkpt lat="49.30117" lon="-0.31054">
        <ele>4.7</ele>
        <time>2020-12-27T09:09:08Z</time>
      </trkpt>
      <trkpt lat="49.30116" lon="-0.31052">
        <ele>4.7</ele>
        <time>2020-12-27T09:09:09Z</time>
      </trkpt>
      <trkpt lat="49.30116" lon="-0.31051">
        <ele>4.7</ele>
        <time>2020-12-27T09:09:10Z</time>
      </trkpt>
      <trkpt lat="49.30115" lon="-0.31047">
        <ele>4.7</ele>
        <time>2020-12-27T09:09:12Z</time>
      </trkpt>
      <trkpt lat="49.30113" lon="-0.31045">
        <ele>4.7</ele>
        <time>2020-12-27T09:09:13Z</time>
      </trkpt>
      <trkpt lat="49.30112" lon="-0.31044">
        <ele>4.7</ele>
        <time>2020-12-27T09:09:14Z</time>
      </trkpt>
      <trkpt lat="49.30111" lon="-0.31042">
        <ele>4.7</ele>
        <time>2020-12-27T09:09:15Z</time>
      </trkpt>
      <trkpt lat="49.3011" lon="-0.31041">
        <ele>4.7</ele>
        <time>2020-12-27T09:09:16Z</time>
      </trkpt>
      <trkpt lat="49.30108" lon="-0.31039">
        <ele>4.7</ele>
        <time>2020-12-27T09:09:18Z</time>
      </trkpt>
      <trkpt lat="49.30107" lon="-0.31037">
        <ele>4.7</ele>
        <time>2020-12-27T09:09:19Z</time>
      </trkpt>
      <trkpt lat="49.30106" lon="-0.31035">
        <ele>4.7</ele>
        <time>2020-12-27T09:09:20Z</time>
      </trkpt>
      <trkpt lat="49.30105" lon="-0.31032">
        <ele>4.7</ele>
        <time>2020-12-27T09:09:21Z</time>
      </trkpt>
      <trkpt lat="49.30104" lon="-0.3103">
        <ele>4.7</ele>
        <time>2020-12-27T09:09:23Z</time>
      </trkpt>
      <trkpt lat="49.30103" lon="-0.31028">
        <ele>4.7</ele>
        <time>2020-12-27T09:09:24Z</time>
      </trkpt>
      <trkpt lat="49.30103" lon="-0.31026">
        <ele>4.7</ele>
        <time>2020-12-27T09:09:25Z</time>
      </trkpt>
      <trkpt lat="49.30101" lon="-0.31022">
        <ele>4.7</ele>
        <time>2020-12-27T09:09:26Z</time>
      </trkpt>
      <trkpt lat="49.301" lon="-0.31019">
        <ele>4.7</ele>
        <time>2020-12-27T09:09:28Z</time>
      </trkpt>
      <trkpt lat="49.30098" lon="-0.31015">
        <ele>4.7</ele>
        <time>2020-12-27T09:09:29Z</time>
      </trkpt>
      <trkpt lat="49.30098" lon="-0.31013">
        <ele>4.7</ele>
        <time>2020-12-27T09:09:30Z</time>
      </trkpt>
      <trkpt lat="49.30096" lon="-0.3101">
        <ele>4.7</ele>
        <time>2020-12-27T09:09:32Z</time>
      </trkpt>
      <trkpt lat="49.30094" lon="-0.31007">
        <ele>4.7</ele>
        <time>2020-12-27T09:09:33Z</time>
      </trkpt>
      <trkpt lat="49.30094" lon="-0.31006">
        <ele>4.7</ele>
        <time>2020-12-27T09:09:34Z</time>
      </trkpt>
      <trkpt lat="49.30092" lon="-0.31002">
        <ele>4.7</ele>
        <time>2020-12-27T09:09:36Z</time>
      </trkpt>
      <trkpt lat="49.30091" lon="-0.31001">
        <ele>4.7</ele>
        <time>2020-12-27T09:09:37Z</time>
      </trkpt>
      <trkpt lat="49.3009" lon="-0.30999">
        <ele>4.7</ele>
        <time>2020-12-27T09:09:38Z</time>
      </trkpt>
      <trkpt lat="49.30089" lon="-0.30996">
        <ele>4.7</ele>
        <time>2020-12-27T09:09:40Z</time>
      </trkpt>
      <trkpt lat="49.30088" lon="-0.30994">
        <ele>4.7</ele>
        <time>2020-12-27T09:09:41Z</time>
      </trkpt>
      <trkpt lat="49.30087" lon="-0.30991">
        <ele>4.7</ele>
        <time>2020-12-27T09:09:42Z</time>
      </trkpt>
      <trkpt lat="49.30086" lon="-0.30989">
        <ele>4.7</ele>
        <time>2020-12-27T09:09:43Z</time>
      </trkpt>
      <trkpt lat="49.30085" lon="-0.30987">
        <ele>4.7</ele>
        <time>2020-12-27T09:09:45Z</time>
      </trkpt>
      <trkpt lat="49.30084" lon="-0.30985">
        <ele>4.7</ele>
        <time>2020-12-27T09:09:46Z</time>
      </trkpt>
      <trkpt lat="49.30083" lon="-0.30983">
        <ele>4.7</ele>
        <time>2020-12-27T09:09:47Z</time>
      </trkpt>
      <trkpt lat="49.30082" lon="-0.30979">
        <ele>4.7</ele>
        <time>2020-12-27T09:09:48Z</time>
      </trkpt>
      <trkpt lat="49.30081" lon="-0.30974">
        <ele>4.7</ele>
        <time>2020-12-27T09:09:50Z</time>
      </trkpt>
      <trkpt lat="49.3008" lon="-0.30972">
        <ele>4.7</ele>
        <time>2020-12-27T09:09:51Z</time>
      </trkpt>
      <trkpt lat="49.3008" lon="-0.3097">
        <ele>4.7</ele>
        <time>2020-12-27T09:09:52Z</time>
      </trkpt>
      <trkpt lat="49.30079" lon="-0.30967">
        <ele>4.7</ele>
        <time>2020-12-27T09:09:54Z</time>
      </trkpt>
      <trkpt lat="49.30078" lon="-0.30964">
        <ele>4.7</ele>
        <time>2020-12-27T09:09:55Z</time>
      </trkpt>
      <trkpt lat="49.30077" lon="-0.30962">
        <ele>4.7</ele>
        <time>2020-12-27T09:09:56Z</time>
      </trkpt>
      <trkpt lat="49.30077" lon="-0.30958">
        <ele>4.7</ele>
        <time>2020-12-27T09:09:57Z</time>
      </trkpt>
      <trkpt lat="49.30076" lon="-0.30957">
        <ele>4.7</ele>
        <time>2020-12-27T09:09:58Z</time>
      </trkpt>
      <trkpt lat="49.30075" lon="-0.30953">
        <ele>4.7</ele>
        <time>2020-12-27T09:10:00Z</time>
      </trkpt>
      <trkpt lat="49.30074" lon="-0.30951">
        <ele>4.7</ele>
        <time>2020-12-27T09:10:01Z</time>
      </trkpt>
      <trkpt lat="49.30073" lon="-0.30948">
        <ele>4.7</ele>
        <time>2020-12-27T09:10:03Z</time>
      </trkpt>
      <trkpt lat="49.30072" lon="-0.30945">
        <ele>4.7</ele>
        <time>2020-12-27T09:10:04Z</time>
      </trkpt>
      <trkpt lat="49.30072" lon="-0.30943">
        <ele>4.7</ele>
        <time>2020-12-27T09:10:05Z</time>
      </trkpt>
      <trkpt lat="49.3007" lon="-0.3094">
        <ele>4.7</ele>
        <time>2020-12-27T09:10:07Z</time>
      </trkpt>
      <trkpt lat="49.3007" lon="-0.30938">
        <ele>4.7</ele>
        <time>2020-12-27T09:10:08Z</time>
      </trkpt>
      <trkpt lat="49.30069" lon="-0.30937">
        <ele>4.7</ele>
        <time>2020-12-27T09:10:09Z</time>
      </trkpt>
      <trkpt lat="49.30068" lon="-0.30935">
        <ele>4.7</ele>
        <time>2020-12-27T09:10:10Z</time>
      </trkpt>
      <trkpt lat="49.30066" lon="-0.30931">
        <ele>4.7</ele>
        <time>2020-12-27T09:10:11Z</time>
      </trkpt>
      <trkpt lat="49.30065" lon="-0.3093">
        <ele>4.7</ele>
        <time>2020-12-27T09:10:13Z</time>
      </trkpt>
      <trkpt lat="49.30064" lon="-0.30928">
        <ele>4.7</ele>
        <time>2020-12-27T09:10:14Z</time>
      </trkpt>
      <trkpt lat="49.30064" lon="-0.30927">
        <ele>4.7</ele>
        <time>2020-12-27T09:10:15Z</time>
      </trkpt>
      <trkpt lat="49.30063" lon="-0.30926">
        <ele>4.7</ele>
        <time>2020-12-27T09:10:16Z</time>
      </trkpt>
      <trkpt lat="49.30062" lon="-0.30923">
        <ele>4.7</ele>
        <time>2020-12-27T09:10:18Z</time>
      </trkpt>
      <trkpt lat="49.30061" lon="-0.30922">
        <ele>4.7</ele>
        <time>2020-12-27T09:10:19Z</time>
      </trkpt>
      <trkpt lat="49.3006" lon="-0.30919">
        <ele>4.7</ele>
        <time>2020-12-27T09:10:20Z</time>
      </trkpt>
      <trkpt lat="49.30059" lon="-0.30915">
        <ele>4.7</ele>
        <time>2020-12-27T09:10:22Z</time>
      </trkpt>
      <trkpt lat="49.30056" lon="-0.30909">
        <ele>4.7</ele>
        <time>2020-12-27T09:10:24Z</time>
      </trkpt>
      <trkpt lat="49.30055" lon="-0.30908">
        <ele>4.7</ele>
        <time>2020-12-27T09:10:25Z</time>
      </trkpt>
      <trkpt lat="49.30054" lon="-0.30906">
        <ele>4.7</ele>
        <time>2020-12-27T09:10:26Z</time>
      </trkpt>
      <trkpt lat="49.30053" lon="-0.30903">
        <ele>4.7</ele>
        <time>2020-12-27T09:10:27Z</time>
      </trkpt>
      <trkpt lat="49.30052" lon="-0.309">
        <ele>4.7</ele>
        <time>2020-12-27T09:10:29Z</time>
      </trkpt>
      <trkpt lat="49.30051" lon="-0.30898">
        <ele>4.7</ele>
        <time>2020-12-27T09:10:30Z</time>
      </trkpt>
      <trkpt lat="49.3005" lon="-0.30896">
        <ele>4.7</ele>
        <time>2020-12-27T09:10:31Z</time>
      </trkpt>
      <trkpt lat="49.3005" lon="-0.30893">
        <ele>4.7</ele>
        <time>2020-12-27T09:10:32Z</time>
      </trkpt>
      <trkpt lat="49.30049" lon="-0.30889">
        <ele>4.7</ele>
        <time>2020-12-27T09:10:34Z</time>
      </trkpt>
      <trkpt lat="49.30048" lon="-0.30886">
        <ele>4.7</ele>
        <time>2020-12-27T09:10:35Z</time>
      </trkpt>
      <trkpt lat="49.30047" lon="-0.30884">
        <ele>4.7</ele>
        <time>2020-12-27T09:10:36Z</time>
      </trkpt>
      <trkpt lat="49.30046" lon="-0.30881">
        <ele>4.7</ele>
        <time>2020-12-27T09:10:38Z</time>
      </trkpt>
      <trkpt lat="49.30045" lon="-0.30879">
        <ele>4.7</ele>
        <time>2020-12-27T09:10:39Z</time>
      </trkpt>
      <trkpt lat="49.30044" lon="-0.30876">
        <ele>4.7</ele>
        <time>2020-12-27T09:10:40Z</time>
      </trkpt>
      <trkpt lat="49.30043" lon="-0.30875">
        <ele>4.7</ele>
        <time>2020-12-27T09:10:41Z</time>
      </trkpt>
      <trkpt lat="49.30042" lon="-0.30873">
        <ele>4.7</ele>
        <time>2020-12-27T09:10:42Z</time>
      </trkpt>
      <trkpt lat="49.30041" lon="-0.30871">
        <ele>4.7</ele>
        <time>2020-12-27T09:10:43Z</time>
      </trkpt>
      <trkpt lat="49.30039" lon="-0.30868">
        <ele>4.7</ele>
        <time>2020-12-27T09:10:45Z</time>
      </trkpt>
      <trkpt lat="49.30038" lon="-0.30867">
        <ele>4.7</ele>
        <time>2020-12-27T09:10:46Z</time>
      </trkpt>
      <trkpt lat="49.30036" lon="-0.30863">
        <ele>4.7</ele>
        <time>2020-12-27T09:10:48Z</time>
      </trkpt>
      <trkpt lat="49.30035" lon="-0.30862">
        <ele>4.7</ele>
        <time>2020-12-27T09:10:49Z</time>
      </trkpt>
      <trkpt lat="49.30033" lon="-0.30858">
        <ele>4.7</ele>
        <time>2020-12-27T09:10:51Z</time>
      </trkpt>
      <trkpt lat="49.30032" lon="-0.30857">
        <ele>4.7</ele>
        <time>2020-12-27T09:10:52Z</time>
      </trkpt>
      <trkpt lat="49.3003" lon="-0.30853">
        <ele>4.7</ele>
        <time>2020-12-27T09:10:54Z</time>
      </trkpt>
      <trkpt lat="49.3003" lon="-0.30852">
        <ele>4.7</ele>
        <time>2020-12-27T09:10:55Z</time>
      </trkpt>
      <trkpt lat="49.30029" lon="-0.30849">
        <ele>4.7</ele>
        <time>2020-12-27T09:10:56Z</time>
      </trkpt>
      <trkpt lat="49.30029" lon="-0.30847">
        <ele>4.7</ele>
        <time>2020-12-27T09:10:57Z</time>
      </trkpt>
      <trkpt lat="49.30027" lon="-0.30842">
        <ele>4.7</ele>
        <time>2020-12-27T09:10:59Z</time>
      </trkpt>
      <trkpt lat="49.30026" lon="-0.3084">
        <ele>4.7</ele>
        <time>2020-12-27T09:11:00Z</time>
      </trkpt>
      <trkpt lat="49.30025" lon="-0.30838">
        <ele>4.7</ele>
        <time>2020-12-27T09:11:01Z</time>
      </trkpt>
      <trkpt lat="49.30024" lon="-0.30835">
        <ele>4.7</ele>
        <time>2020-12-27T09:11:03Z</time>
      </trkpt>
      <trkpt lat="49.30022" lon="-0.3083">
        <ele>4.7</ele>
        <time>2020-12-27T09:11:05Z</time>
      </trkpt>
      <trkpt lat="49.30021" lon="-0.30828">
        <ele>4.7</ele>
        <time>2020-12-27T09:11:06Z</time>
      </trkpt>
      <trkpt lat="49.3002" lon="-0.30826">
        <ele>4.7</ele>
        <time>2020-12-27T09:11:07Z</time>
      </trkpt>
      <trkpt lat="49.3002" lon="-0.30824">
        <ele>4.7</ele>
        <time>2020-12-27T09:11:08Z</time>
      </trkpt>
      <trkpt lat="49.30019" lon="-0.30822">
        <ele>4.7</ele>
        <time>2020-12-27T09:11:09Z</time>
      </trkpt>
      <trkpt lat="49.30018" lon="-0.30816">
        <ele>4.7</ele>
        <time>2020-12-27T09:11:11Z</time>
      </trkpt>
      <trkpt lat="49.30017" lon="-0.30815">
        <ele>4.7</ele>
        <time>2020-12-27T09:11:12Z</time>
      </trkpt>
      <trkpt lat="49.30016" lon="-0.30812">
        <ele>4.7</ele>
        <time>2020-12-27T09:11:13Z</time>
      </trkpt>
      <trkpt lat="49.30016" lon="-0.30808">
        <ele>4.7</ele>
        <time>2020-12-27T09:11:15Z</time>
      </trkpt>
      <trkpt lat="49.30014" lon="-0.30805">
        <ele>4.7</ele>
        <time>2020-12-27T09:11:16Z</time>
      </trkpt>
      <trkpt lat="49.30013" lon="-0.308">
        <ele>4.7</ele>
        <time>2020-12-27T09:11:18Z</time>
      </trkpt>
      <trkpt lat="49.30013" lon="-0.30798">
        <ele>4.7</ele>
        <time>2020-12-27T09:11:19Z</time>
      </trkpt>
      <trkpt lat="49.30011" lon="-0.30793">
        <ele>4.7</ele>
        <time>2020-12-27T09:11:20Z</time>
      </trkpt>
      <trkpt lat="49.3001" lon="-0.30791">
        <ele>4.7</ele>
        <time>2020-12-27T09:11:21Z</time>
      </trkpt>
      <trkpt lat="49.30009" lon="-0.30787">
        <ele>4.7</ele>
        <time>2020-12-27T09:11:23Z</time>
      </trkpt>
      <trkpt lat="49.30008" lon="-0.30785">
        <ele>4.7</ele>
        <time>2020-12-27T09:11:24Z</time>
      </trkpt>
      <trkpt lat="49.30007" lon="-0.30781">
        <ele>4.7</ele>
        <time>2020-12-27T09:11:26Z</time>
      </trkpt>
      <trkpt lat="49.30007" lon="-0.3078">
        <ele>4.7</ele>
        <time>2020-12-27T09:11:27Z</time>
      </trkpt>
      <trkpt lat="49.30006" lon="-0.30778">
        <ele>4.7</ele>
        <time>2020-12-27T09:11:28Z</time>
      </trkpt>
      <trkpt lat="49.30005" lon="-0.30775">
        <ele>4.7</ele>
        <time>2020-12-27T09:11:30Z</time>
      </trkpt>
      <trkpt lat="49.30004" lon="-0.30773">
        <ele>4.7</ele>
        <time>2020-12-27T09:11:31Z</time>
      </trkpt>
      <trkpt lat="49.30004" lon="-0.30769">
        <ele>4.7</ele>
        <time>2020-12-27T09:11:33Z</time>
      </trkpt>
      <trkpt lat="49.30004" lon="-0.30767">
        <ele>4.7</ele>
        <time>2020-12-27T09:11:34Z</time>
      </trkpt>
      <trkpt lat="49.30005" lon="-0.30764">
        <ele>4.7</ele>
        <time>2020-12-27T09:11:35Z</time>
      </trkpt>
      <trkpt lat="49.30006" lon="-0.30761">
        <ele>4.7</ele>
        <time>2020-12-27T09:11:36Z</time>
      </trkpt>
      <trkpt lat="49.30007" lon="-0.30757">
        <ele>4.7</ele>
        <time>2020-12-27T09:11:38Z</time>
      </trkpt>
      <trkpt lat="49.30008" lon="-0.30752">
        <ele>4.7</ele>
        <time>2020-12-27T09:11:39Z</time>
      </trkpt>
      <trkpt lat="49.30008" lon="-0.3075">
        <ele>4.7</ele>
        <time>2020-12-27T09:11:40Z</time>
      </trkpt>
      <trkpt lat="49.30009" lon="-0.30747">
        <ele>4.7</ele>
        <time>2020-12-27T09:11:42Z</time>
      </trkpt>
      <trkpt lat="49.30011" lon="-0.30743">
        <ele>4.7</ele>
        <time>2020-12-27T09:11:43Z</time>
      </trkpt>
      <trkpt lat="49.30012" lon="-0.30742">
        <ele>4.7</ele>
        <time>2020-12-27T09:11:44Z</time>
      </trkpt>
      <trkpt lat="49.30013" lon="-0.3074">
        <ele>4.6</ele>
        <time>2020-12-27T09:11:46Z</time>
      </trkpt>
      <trkpt lat="49.30014" lon="-0.30739">
        <ele>4.6</ele>
        <time>2020-12-27T09:11:47Z</time>
      </trkpt>
      <trkpt lat="49.30015" lon="-0.30737">
        <ele>4.6</ele>
        <time>2020-12-27T09:11:48Z</time>
      </trkpt>
      <trkpt lat="49.30016" lon="-0.30735">
        <ele>4.6</ele>
        <time>2020-12-27T09:11:50Z</time>
      </trkpt>
      <trkpt lat="49.30016" lon="-0.30734">
        <ele>4.6</ele>
        <time>2020-12-27T09:11:51Z</time>
      </trkpt>
      <trkpt lat="49.30015" lon="-0.30734">
        <ele>4.6</ele>
        <time>2020-12-27T09:11:53Z</time>
      </trkpt>
      <trkpt lat="49.30014" lon="-0.30735">
        <ele>4.6</ele>
        <time>2020-12-27T09:11:54Z</time>
      </trkpt>
      <trkpt lat="49.30014" lon="-0.30736">
        <ele>4.6</ele>
        <time>2020-12-27T09:11:55Z</time>
      </trkpt>
      <trkpt lat="49.30014" lon="-0.30737">
        <ele>4.6</ele>
        <time>2020-12-27T09:11:57Z</time>
      </trkpt>
      <trkpt lat="49.30014" lon="-0.30738">
        <ele>4.6</ele>
        <time>2020-12-27T09:11:59Z</time>
      </trkpt>
      <trkpt lat="49.30015" lon="-0.30737">
        <ele>4.6</ele>
        <time>2020-12-27T09:12:00Z</time>
      </trkpt>
      <trkpt lat="49.30015" lon="-0.30737">
        <ele>4.6</ele>
        <time>2020-12-27T09:12:02Z</time>
      </trkpt>
      <trkpt lat="49.30016" lon="-0.30737">
        <ele>4.6</ele>
        <time>2020-12-27T09:12:03Z</time>
      </trkpt>
      <trkpt lat="49.30016" lon="-0.30736">
        <ele>4.6</ele>
        <time>2020-12-27T09:12:05Z</time>
      </trkpt>
      <trkpt lat="49.30017" lon="-0.30736">
        <ele>4.6</ele>
        <time>2020-12-27T09:12:07Z</time>
      </trkpt>
      <trkpt lat="49.30017" lon="-0.30736">
        <ele>4.6</ele>
        <time>2020-12-27T09:12:08Z</time>
      </trkpt>
      <trkpt lat="49.30017" lon="-0.30736">
        <ele>4.6</ele>
        <time>2020-12-27T09:12:09Z</time>
      </trkpt>
      <trkpt lat="49.30017" lon="-0.30736">
        <ele>4.6</ele>
        <time>2020-12-27T09:12:10Z</time>
      </trkpt>
      <trkpt lat="49.30018" lon="-0.30736">
        <ele>4.6</ele>
        <time>2020-12-27T09:12:12Z</time>
      </trkpt>
      <trkpt lat="49.30018" lon="-0.30736">
        <ele>4.6</ele>
        <time>2020-12-27T09:12:14Z</time>
      </trkpt>
      <trkpt lat="49.30018" lon="-0.30736">
        <ele>4.6</ele>
        <time>2020-12-27T09:12:15Z</time>
      </trkpt>
      <trkpt lat="49.30018" lon="-0.30736">
        <ele>4.6</ele>
        <time>2020-12-27T09:12:16Z</time>
      </trkpt>
      <trkpt lat="49.3002" lon="-0.30735">
        <ele>4.6</ele>
        <time>2020-12-27T09:12:18Z</time>
      </trkpt>
      <trkpt lat="49.3002" lon="-0.30736">
        <ele>4.6</ele>
        <time>2020-12-27T09:12:20Z</time>
      </trkpt>
      <trkpt lat="49.3002" lon="-0.30736">
        <ele>4.6</ele>
        <time>2020-12-27T09:12:21Z</time>
      </trkpt>
      <trkpt lat="49.3002" lon="-0.30736">
        <ele>4.6</ele>
        <time>2020-12-27T09:12:22Z</time>
      </trkpt>
      <trkpt lat="49.3002" lon="-0.30736">
        <ele>4.6</ele>
        <time>2020-12-27T09:12:24Z</time>
      </trkpt>
      <trkpt lat="49.3002" lon="-0.30736">
        <ele>4.6</ele>
        <time>2020-12-27T09:12:25Z</time>
      </trkpt>
      <trkpt lat="49.3002" lon="-0.30736">
        <ele>4.6</ele>
        <time>2020-12-27T09:12:26Z</time>
      </trkpt>
      <trkpt lat="49.3002" lon="-0.30737">
        <ele>4.6</ele>
        <time>2020-12-27T09:12:28Z</time>
      </trkpt>
      <trkpt lat="49.3002" lon="-0.30737">
        <ele>4.6</ele>
        <time>2020-12-27T09:12:29Z</time>
      </trkpt>
      <trkpt lat="49.3002" lon="-0.30737">
        <ele>4.6</ele>
        <time>2020-12-27T09:12:31Z</time>
      </trkpt>
      <trkpt lat="49.3002" lon="-0.30737">
        <ele>4.6</ele>
        <time>2020-12-27T09:12:32Z</time>
      </trkpt>
      <trkpt lat="49.3002" lon="-0.30736">
        <ele>4.6</ele>
        <time>2020-12-27T09:12:33Z</time>
      </trkpt>
      <trkpt lat="49.3002" lon="-0.30736">
        <ele>4.6</ele>
        <time>2020-12-27T09:12:34Z</time>
      </trkpt>
      <trkpt lat="49.3002" lon="-0.30736">
        <ele>4.6</ele>
        <time>2020-12-27T09:12:36Z</time>
      </trkpt>
      <trkpt lat="49.3002" lon="-0.30736">
        <ele>4.6</ele>
        <time>2020-12-27T09:12:38Z</time>
      </trkpt>
      <trkpt lat="49.30019" lon="-0.30736">
        <ele>4.6</ele>
        <time>2020-12-27T09:12:40Z</time>
      </trkpt>
      <trkpt lat="49.30019" lon="-0.30736">
        <ele>4.6</ele>
        <time>2020-12-27T09:12:41Z</time>
      </trkpt>
      <trkpt lat="49.30019" lon="-0.30736">
        <ele>4.6</ele>
        <time>2020-12-27T09:12:43Z</time>
      </trkpt>
      <trkpt lat="49.30019" lon="-0.30736">
        <ele>4.6</ele>
        <time>2020-12-27T09:12:45Z</time>
      </trkpt>
      <trkpt lat="49.30019" lon="-0.30736">
        <ele>4.6</ele>
        <time>2020-12-27T09:12:46Z</time>
      </trkpt>
      <trkpt lat="49.30019" lon="-0.30736">
        <ele>4.6</ele>
        <time>2020-12-27T09:12:48Z</time>
      </trkpt>
      <trkpt lat="49.30019" lon="-0.30736">
        <ele>4.6</ele>
        <time>2020-12-27T09:12:49Z</time>
      </trkpt>
      <trkpt lat="49.30019" lon="-0.30736">
        <ele>4.6</ele>
        <time>2020-12-27T09:12:50Z</time>
      </trkpt>
      <trkpt lat="49.30019" lon="-0.30736">
        <ele>4.6</ele>
        <time>2020-12-27T09:12:52Z</time>
      </trkpt>
      <trkpt lat="49.30019" lon="-0.30736">
        <ele>4.6</ele>
        <time>2020-12-27T09:12:53Z</time>
      </trkpt>
      <trkpt lat="49.30019" lon="-0.30736">
        <ele>4.6</ele>
        <time>2020-12-27T09:12:54Z</time>
      </trkpt>
      <trkpt lat="49.30019" lon="-0.30736">
        <ele>4.6</ele>
        <time>2020-12-27T09:12:56Z</time>
      </trkpt>
      <trkpt lat="49.30019" lon="-0.30736">
        <ele>4.6</ele>
        <time>2020-12-27T09:12:58Z</time>
      </trkpt>
      <trkpt lat="49.30017" lon="-0.30732">
        <ele>4.6</ele>
        <time>2020-12-27T09:13:00Z</time>
      </trkpt>
      <trkpt lat="49.30017" lon="-0.30732">
        <ele>4.6</ele>
        <time>2020-12-27T09:13:02Z</time>
      </trkpt>
      <trkpt lat="49.30017" lon="-0.30732">
        <ele>4.6</ele>
        <time>2020-12-27T09:13:03Z</time>
      </trkpt>
      <trkpt lat="49.30017" lon="-0.30733">
        <ele>4.6</ele>
        <time>2020-12-27T09:13:04Z</time>
      </trkpt>
      <trkpt lat="49.30017" lon="-0.30736">
        <ele>4.6</ele>
        <time>2020-12-27T09:13:06Z</time>
      </trkpt>
      <trkpt lat="49.30018" lon="-0.30737">
        <ele>4.6</ele>
        <time>2020-12-27T09:13:07Z</time>
      </trkpt>
      <trkpt lat="49.30018" lon="-0.30737">
        <ele>4.6</ele>
        <time>2020-12-27T09:13:08Z</time>
      </trkpt>
      <trkpt lat="49.30018" lon="-0.30736">
        <ele>4.6</ele>
        <time>2020-12-27T09:13:10Z</time>
      </trkpt>
      <trkpt lat="49.30018" lon="-0.30736">
        <ele>4.6</ele>
        <time>2020-12-27T09:13:11Z</time>
      </trkpt>
      <trkpt lat="49.30018" lon="-0.30736">
        <ele>4.6</ele>
        <time>2020-12-27T09:13:13Z</time>
      </trkpt>
      <trkpt lat="49.30018" lon="-0.30736">
        <ele>4.6</ele>
        <time>2020-12-27T09:13:14Z</time>
      </trkpt>
      <trkpt lat="49.30018" lon="-0.30736">
        <ele>4.6</ele>
        <time>2020-12-27T09:13:16Z</time>
      </trkpt>
      <trkpt lat="49.30018" lon="-0.30736">
        <ele>4.6</ele>
        <time>2020-12-27T09:13:17Z</time>
      </trkpt>
      <trkpt lat="49.30018" lon="-0.30736">
        <ele>4.6</ele>
        <time>2020-12-27T09:13:18Z</time>
      </trkpt>
      <trkpt lat="49.30018" lon="-0.30736">
        <ele>4.6</ele>
        <time>2020-12-27T09:13:20Z</time>
      </trkpt>
      <trkpt lat="49.30018" lon="-0.30736">
        <ele>4.6</ele>
        <time>2020-12-27T09:13:22Z</time>
      </trkpt>
      <trkpt lat="49.30018" lon="-0.30736">
        <ele>4.6</ele>
        <time>2020-12-27T09:13:24Z</time>
      </trkpt>
      <trkpt lat="49.30018" lon="-0.30736">
        <ele>4.6</ele>
        <time>2020-12-27T09:13:26Z</time>
      </trkpt>
      <trkpt lat="49.30018" lon="-0.30736">
        <ele>4.6</ele>
        <time>2020-12-27T09:13:27Z</time>
      </trkpt>
      <trkpt lat="49.30018" lon="-0.30736">
        <ele>4.6</ele>
        <time>2020-12-27T09:13:28Z</time>
      </trkpt>
      <trkpt lat="49.30018" lon="-0.30736">
        <ele>4.6</ele>
        <time>2020-12-27T09:13:30Z</time>
      </trkpt>
      <trkpt lat="49.30018" lon="-0.30736">
        <ele>4.6</ele>
        <time>2020-12-27T09:13:31Z</time>
      </trkpt>
      <trkpt lat="49.30018" lon="-0.30736">
        <ele>4.6</ele>
        <time>2020-12-27T09:13:33Z</time>
      </trkpt>
      <trkpt lat="49.30018" lon="-0.30736">
        <ele>4.6</ele>
        <time>2020-12-27T09:13:35Z</time>
      </trkpt>
      <trkpt lat="49.30018" lon="-0.30736">
        <ele>4.6</ele>
        <time>2020-12-27T09:13:36Z</time>
      </trkpt>
      <trkpt lat="49.30018" lon="-0.30736">
        <ele>4.6</ele>
        <time>2020-12-27T09:13:38Z</time>
      </trkpt>
      <trkpt lat="49.30018" lon="-0.30736">
        <ele>4.6</ele>
        <time>2020-12-27T09:13:40Z</time>
      </trkpt>
      <trkpt lat="49.30018" lon="-0.30736">
        <ele>4.6</ele>
        <time>2020-12-27T09:13:42Z</time>
      </trkpt>
      <trkpt lat="49.30018" lon="-0.30736">
        <ele>4.6</ele>
        <time>2020-12-27T09:13:44Z</time>
      </trkpt>
      <trkpt lat="49.30018" lon="-0.30736">
        <ele>4.6</ele>
        <time>2020-12-27T09:13:45Z</time>
      </trkpt>
      <trkpt lat="49.30018" lon="-0.30736">
        <ele>4.6</ele>
        <time>2020-12-27T09:13:47Z</time>
      </trkpt>
      <trkpt lat="49.30018" lon="-0.30736">
        <ele>4.6</ele>
        <time>2020-12-27T09:13:49Z</time>
      </trkpt>
      <trkpt lat="49.30018" lon="-0.30736">
        <ele>4.6</ele>
        <time>2020-12-27T09:13:50Z</time>
      </trkpt>
      <trkpt lat="49.30018" lon="-0.30736">
        <ele>4.6</ele>
        <time>2020-12-27T09:13:52Z</time>
      </trkpt>
      <trkpt lat="49.30018" lon="-0.30736">
        <ele>4.6</ele>
        <time>2020-12-27T09:13:54Z</time>
      </trkpt>
      <trkpt lat="49.30018" lon="-0.30736">
        <ele>4.6</ele>
        <time>2020-12-27T09:13:55Z</time>
      </trkpt>
      <trkpt lat="49.30018" lon="-0.30736">
        <ele>4.6</ele>
        <time>2020-12-27T09:13:57Z</time>
      </trkpt>
      <trkpt lat="49.30018" lon="-0.30736">
        <ele>4.6</ele>
        <time>2020-12-27T09:13:59Z</time>
      </trkpt>
      <trkpt lat="49.30018" lon="-0.30736">
        <ele>4.6</ele>
        <time>2020-12-27T09:14:00Z</time>
      </trkpt>
      <trkpt lat="49.30018" lon="-0.30736">
        <ele>4.6</ele>
        <time>2020-12-27T09:14:01Z</time>
      </trkpt>
      <trkpt lat="49.30018" lon="-0.30736">
        <ele>4.6</ele>
        <time>2020-12-27T09:14:03Z</time>
      </trkpt>
      <trkpt lat="49.30018" lon="-0.30736">
        <ele>4.6</ele>
        <time>2020-12-27T09:14:05Z</time>
      </trkpt>
      <trkpt lat="49.30018" lon="-0.30736">
        <ele>4.6</ele>
        <time>2020-12-27T09:14:07Z</time>
      </trkpt>
      <trkpt lat="49.30018" lon="-0.30736">
        <ele>4.6</ele>
        <time>2020-12-27T09:14:09Z</time>
      </trkpt>
      <trkpt lat="49.30018" lon="-0.30736">
        <ele>4.6</ele>
        <time>2020-12-27T09:14:10Z</time>
      </trkpt>
      <trkpt lat="49.30018" lon="-0.30736">
        <ele>4.6</ele>
        <time>2020-12-27T09:14:12Z</time>
      </trkpt>
      <trkpt lat="49.30018" lon="-0.30736">
        <ele>4.6</ele>
        <time>2020-12-27T09:14:13Z</time>
      </trkpt>
      <trkpt lat="49.30018" lon="-0.30736">
        <ele>4.6</ele>
        <time>2020-12-27T09:14:15Z</time>
      </trkpt>
      <trkpt lat="49.30018" lon="-0.30736">
        <ele>4.6</ele>
        <time>2020-12-27T09:14:16Z</time>
      </trkpt>
      <trkpt lat="49.30018" lon="-0.30736">
        <ele>4.6</ele>
        <time>2020-12-27T09:14:18Z</time>
      </trkpt>
      <trkpt lat="49.30018" lon="-0.30736">
        <ele>4.6</ele>
        <time>2020-12-27T09:14:20Z</time>
      </trkpt>
      <trkpt lat="49.30018" lon="-0.30736">
        <ele>4.6</ele>
        <time>2020-12-27T09:14:21Z</time>
      </trkpt>
      <trkpt lat="49.30018" lon="-0.30736">
        <ele>4.6</ele>
        <time>2020-12-27T09:14:23Z</time>
      </trkpt>
      <trkpt lat="49.30018" lon="-0.30736">
        <ele>4.6</ele>
        <time>2020-12-27T09:14:25Z</time>
      </trkpt>
      <trkpt lat="49.30018" lon="-0.30736">
        <ele>4.6</ele>
        <time>2020-12-27T09:14:27Z</time>
      </trkpt>
      <trkpt lat="49.30018" lon="-0.30736">
        <ele>4.6</ele>
        <time>2020-12-27T09:14:29Z</time>
      </trkpt>
      <trkpt lat="49.30019" lon="-0.30736">
        <ele>4.6</ele>
        <time>2020-12-27T09:14:30Z</time>
      </trkpt>
      <trkpt lat="49.30021" lon="-0.30735">
        <ele>4.6</ele>
        <time>2020-12-27T09:14:31Z</time>
      </trkpt>
      <trkpt lat="49.30019" lon="-0.30735">
        <ele>4.6</ele>
        <time>2020-12-27T09:14:33Z</time>
      </trkpt>
      <trkpt lat="49.30018" lon="-0.30735">
        <ele>4.6</ele>
        <time>2020-12-27T09:14:34Z</time>
      </trkpt>
      <trkpt lat="49.30016" lon="-0.30736">
        <ele>4.6</ele>
        <time>2020-12-27T09:14:36Z</time>
      </trkpt>
      <trkpt lat="49.30015" lon="-0.30736">
        <ele>4.6</ele>
        <time>2020-12-27T09:14:37Z</time>
      </trkpt>
      <trkpt lat="49.30013" lon="-0.30736">
        <ele>4.6</ele>
        <time>2020-12-27T09:14:38Z</time>
      </trkpt>
      <trkpt lat="49.30009" lon="-0.30734">
        <ele>4.6</ele>
        <time>2020-12-27T09:14:40Z</time>
      </trkpt>
      <trkpt lat="49.30007" lon="-0.30733">
        <ele>4.6</ele>
        <time>2020-12-27T09:14:41Z</time>
      </trkpt>
      <trkpt lat="49.30002" lon="-0.30732">
        <ele>4.6</ele>
        <time>2020-12-27T09:14:42Z</time>
      </trkpt>
      <trkpt lat="49.29997" lon="-0.30732">
        <ele>4.6</ele>
        <time>2020-12-27T09:14:44Z</time>
      </trkpt>
      <trkpt lat="49.29993" lon="-0.30731">
        <ele>4.6</ele>
        <time>2020-12-27T09:14:45Z</time>
      </trkpt>
      <trkpt lat="49.29988" lon="-0.3073">
        <ele>4.6</ele>
        <time>2020-12-27T09:14:47Z</time>
      </trkpt>
      <trkpt lat="49.29987" lon="-0.30729">
        <ele>4.6</ele>
        <time>2020-12-27T09:14:48Z</time>
      </trkpt>
      <trkpt lat="49.29985" lon="-0.30729">
        <ele>4.6</ele>
        <time>2020-12-27T09:14:49Z</time>
      </trkpt>
      <trkpt lat="49.29983" lon="-0.30727">
        <ele>4.6</ele>
        <time>2020-12-27T09:14:50Z</time>
      </trkpt>
      <trkpt lat="49.29981" lon="-0.30726">
        <ele>4.6</ele>
        <time>2020-12-27T09:14:51Z</time>
      </trkpt>
      <trkpt lat="49.29979" lon="-0.30723">
        <ele>4.6</ele>
        <time>2020-12-27T09:14:53Z</time>
      </trkpt>
      <trkpt lat="49.29979" lon="-0.30722">
        <ele>4.6</ele>
        <time>2020-12-27T09:14:54Z</time>
      </trkpt>
      <trkpt lat="49.29977" lon="-0.3072">
        <ele>4.6</ele>
        <time>2020-12-27T09:14:55Z</time>
      </trkpt>
      <trkpt lat="49.29976" lon="-0.30717">
        <ele>4.6</ele>
        <time>2020-12-27T09:14:57Z</time>
      </trkpt>
      <trkpt lat="49.29973" lon="-0.30711">
        <ele>4.6</ele>
        <time>2020-12-27T09:14:59Z</time>
      </trkpt>
      <trkpt lat="49.29972" lon="-0.30709">
        <ele>4.6</ele>
        <time>2020-12-27T09:15:00Z</time>
      </trkpt>
      <trkpt lat="49.29972" lon="-0.30708">
        <ele>4.6</ele>
        <time>2020-12-27T09:15:01Z</time>
      </trkpt>
      <trkpt lat="49.2997" lon="-0.30701">
        <ele>4.6</ele>
        <time>2020-12-27T09:15:03Z</time>
      </trkpt>
      <trkpt lat="49.29969" lon="-0.30699">
        <ele>4.6</ele>
        <time>2020-12-27T09:15:04Z</time>
      </trkpt>
      <trkpt lat="49.29968" lon="-0.30697">
        <ele>4.6</ele>
        <time>2020-12-27T09:15:05Z</time>
      </trkpt>
      <trkpt lat="49.29968" lon="-0.30694">
        <ele>4.6</ele>
        <time>2020-12-27T09:15:06Z</time>
      </trkpt>
      <trkpt lat="49.29967" lon="-0.3069">
        <ele>4.6</ele>
        <time>2020-12-27T09:15:08Z</time>
      </trkpt>
      <trkpt lat="49.29966" lon="-0.30689">
        <ele>4.6</ele>
        <time>2020-12-27T09:15:09Z</time>
      </trkpt>
      <trkpt lat="49.29965" lon="-0.30686">
        <ele>4.5</ele>
        <time>2020-12-27T09:15:11Z</time>
      </trkpt>
      <trkpt lat="49.29964" lon="-0.30681">
        <ele>4.5</ele>
        <time>2020-12-27T09:15:12Z</time>
      </trkpt>
      <trkpt lat="49.29964" lon="-0.30679">
        <ele>4.5</ele>
        <time>2020-12-27T09:15:13Z</time>
      </trkpt>
      <trkpt lat="49.29963" lon="-0.30674">
        <ele>4.5</ele>
        <time>2020-12-27T09:15:14Z</time>
      </trkpt>
      <trkpt lat="49.29963" lon="-0.30672">
        <ele>4.5</ele>
        <time>2020-12-27T09:15:15Z</time>
      </trkpt>
      <trkpt lat="49.29962" lon="-0.30666">
        <ele>4.5</ele>
        <time>2020-12-27T09:15:17Z</time>
      </trkpt>
      <trkpt lat="49.29961" lon="-0.30664">
        <ele>4.5</ele>
        <time>2020-12-27T09:15:18Z</time>
      </trkpt>
      <trkpt lat="49.2996" lon="-0.30658">
        <ele>4.5</ele>
        <time>2020-12-27T09:15:20Z</time>
      </trkpt>
      <trkpt lat="49.29959" lon="-0.30657">
        <ele>4.5</ele>
        <time>2020-12-27T09:15:21Z</time>
      </trkpt>
      <trkpt lat="49.29958" lon="-0.30655">
        <ele>4.4</ele>
        <time>2020-12-27T09:15:22Z</time>
      </trkpt>
      <trkpt lat="49.29957" lon="-0.30652">
        <ele>4.4</ele>
        <time>2020-12-27T09:15:23Z</time>
      </trkpt>
      <trkpt lat="49.29956" lon="-0.3065">
        <ele>4.4</ele>
        <time>2020-12-27T09:15:25Z</time>
      </trkpt>
      <trkpt lat="49.29956" lon="-0.30649">
        <ele>4.4</ele>
        <time>2020-12-27T09:15:26Z</time>
      </trkpt>
      <trkpt lat="49.29955" lon="-0.30647">
        <ele>4.4</ele>
        <time>2020-12-27T09:15:27Z</time>
      </trkpt>
      <trkpt lat="49.29955" lon="-0.30645">
        <ele>4.4</ele>
        <time>2020-12-27T09:15:28Z</time>
      </trkpt>
      <trkpt lat="49.29954" lon="-0.30643">
        <ele>4.4</ele>
        <time>2020-12-27T09:15:29Z</time>
      </trkpt>
      <trkpt lat="49.29954" lon="-0.30639">
        <ele>4.4</ele>
        <time>2020-12-27T09:15:31Z</time>
      </trkpt>
      <trkpt lat="49.29954" lon="-0.30635">
        <ele>4.4</ele>
        <time>2020-12-27T09:15:32Z</time>
      </trkpt>
      <trkpt lat="49.29953" lon="-0.3063">
        <ele>4.4</ele>
        <time>2020-12-27T09:15:34Z</time>
      </trkpt>
      <trkpt lat="49.29952" lon="-0.30629">
        <ele>4.4</ele>
        <time>2020-12-27T09:15:35Z</time>
      </trkpt>
      <trkpt lat="49.29951" lon="-0.30626">
        <ele>4.4</ele>
        <time>2020-12-27T09:15:36Z</time>
      </trkpt>
      <trkpt lat="49.29949" lon="-0.3062">
        <ele>4.4</ele>
        <time>2020-12-27T09:15:38Z</time>
      </trkpt>
      <trkpt lat="49.29948" lon="-0.30618">
        <ele>4.4</ele>
        <time>2020-12-27T09:15:39Z</time>
      </trkpt>
      <trkpt lat="49.29947" lon="-0.30615">
        <ele>4.4</ele>
        <time>2020-12-27T09:15:40Z</time>
      </trkpt>
      <trkpt lat="49.29945" lon="-0.30612">
        <ele>4.4</ele>
        <time>2020-12-27T09:15:42Z</time>
      </trkpt>
      <trkpt lat="49.29944" lon="-0.30609">
        <ele>4.4</ele>
        <time>2020-12-27T09:15:43Z</time>
      </trkpt>
      <trkpt lat="49.29943" lon="-0.30606">
        <ele>4.4</ele>
        <time>2020-12-27T09:15:45Z</time>
      </trkpt>
      <trkpt lat="49.29941" lon="-0.30602">
        <ele>4.4</ele>
        <time>2020-12-27T09:15:46Z</time>
      </trkpt>
      <trkpt lat="49.2994" lon="-0.306">
        <ele>4.4</ele>
        <time>2020-12-27T09:15:47Z</time>
      </trkpt>
      <trkpt lat="49.29939" lon="-0.30594">
        <ele>4.4</ele>
        <time>2020-12-27T09:15:49Z</time>
      </trkpt>
      <trkpt lat="49.29938" lon="-0.30592">
        <ele>4.4</ele>
        <time>2020-12-27T09:15:51Z</time>
      </trkpt>
      <trkpt lat="49.29938" lon="-0.3059">
        <ele>4.4</ele>
        <time>2020-12-27T09:15:52Z</time>
      </trkpt>
      <trkpt lat="49.29938" lon="-0.30585">
        <ele>4.4</ele>
        <time>2020-12-27T09:15:54Z</time>
      </trkpt>
      <trkpt lat="49.29939" lon="-0.30584">
        <ele>4.4</ele>
        <time>2020-12-27T09:15:55Z</time>
      </trkpt>
      <trkpt lat="49.29938" lon="-0.3058">
        <ele>4.4</ele>
        <time>2020-12-27T09:15:56Z</time>
      </trkpt>
      <trkpt lat="49.29937" lon="-0.30578">
        <ele>4.4</ele>
        <time>2020-12-27T09:15:58Z</time>
      </trkpt>
      <trkpt lat="49.29936" lon="-0.30574">
        <ele>4.4</ele>
        <time>2020-12-27T09:15:59Z</time>
      </trkpt>
      <trkpt lat="49.29936" lon="-0.30573">
        <ele>4.4</ele>
        <time>2020-12-27T09:16:00Z</time>
      </trkpt>
      <trkpt lat="49.29934" lon="-0.30568">
        <ele>4.4</ele>
        <time>2020-12-27T09:16:02Z</time>
      </trkpt>
      <trkpt lat="49.29933" lon="-0.30567">
        <ele>4.4</ele>
        <time>2020-12-27T09:16:03Z</time>
      </trkpt>
      <trkpt lat="49.29932" lon="-0.30563">
        <ele>4.4</ele>
        <time>2020-12-27T09:16:05Z</time>
      </trkpt>
      <trkpt lat="49.29931" lon="-0.30561">
        <ele>4.4</ele>
        <time>2020-12-27T09:16:06Z</time>
      </trkpt>
      <trkpt lat="49.2993" lon="-0.30559">
        <ele>4.4</ele>
        <time>2020-12-27T09:16:07Z</time>
      </trkpt>
      <trkpt lat="49.29929" lon="-0.30556">
        <ele>4.4</ele>
        <time>2020-12-27T09:16:09Z</time>
      </trkpt>
      <trkpt lat="49.29927" lon="-0.30552">
        <ele>4.4</ele>
        <time>2020-12-27T09:16:10Z</time>
      </trkpt>
      <trkpt lat="49.29926" lon="-0.3055">
        <ele>4.3</ele>
        <time>2020-12-27T09:16:11Z</time>
      </trkpt>
      <trkpt lat="49.29925" lon="-0.30548">
        <ele>4.3</ele>
        <time>2020-12-27T09:16:13Z</time>
      </trkpt>
      <trkpt lat="49.29924" lon="-0.30546">
        <ele>4.3</ele>
        <time>2020-12-27T09:16:14Z</time>
      </trkpt>
      <trkpt lat="49.29922" lon="-0.30544">
        <ele>4.3</ele>
        <time>2020-12-27T09:16:15Z</time>
      </trkpt>
      <trkpt lat="49.29921" lon="-0.30542">
        <ele>4.3</ele>
        <time>2020-12-27T09:16:17Z</time>
      </trkpt>
      <trkpt lat="49.2992" lon="-0.30538">
        <ele>4.3</ele>
        <time>2020-12-27T09:16:18Z</time>
      </trkpt>
      <trkpt lat="49.2992" lon="-0.30536">
        <ele>4.3</ele>
        <time>2020-12-27T09:16:19Z</time>
      </trkpt>
      <trkpt lat="49.29919" lon="-0.30533">
        <ele>4.3</ele>
        <time>2020-12-27T09:16:20Z</time>
      </trkpt>
      <trkpt lat="49.29918" lon="-0.3053">
        <ele>4.3</ele>
        <time>2020-12-27T09:16:22Z</time>
      </trkpt>
      <trkpt lat="49.29916" lon="-0.30526">
        <ele>4.3</ele>
        <time>2020-12-27T09:16:23Z</time>
      </trkpt>
      <trkpt lat="49.29916" lon="-0.30523">
        <ele>4.3</ele>
        <time>2020-12-27T09:16:24Z</time>
      </trkpt>
      <trkpt lat="49.29915" lon="-0.30519">
        <ele>4.3</ele>
        <time>2020-12-27T09:16:26Z</time>
      </trkpt>
      <trkpt lat="49.29914" lon="-0.30513">
        <ele>4.3</ele>
        <time>2020-12-27T09:16:28Z</time>
      </trkpt>
      <trkpt lat="49.29914" lon="-0.30511">
        <ele>4.3</ele>
        <time>2020-12-27T09:16:29Z</time>
      </trkpt>
      <trkpt lat="49.29913" lon="-0.30506">
        <ele>4.4</ele>
        <time>2020-12-27T09:16:31Z</time>
      </trkpt>
      <trkpt lat="49.29912" lon="-0.30504">
        <ele>4.4</ele>
        <time>2020-12-27T09:16:32Z</time>
      </trkpt>
      <trkpt lat="49.29911" lon="-0.30502">
        <ele>4.4</ele>
        <time>2020-12-27T09:16:33Z</time>
      </trkpt>
      <trkpt lat="49.2991" lon="-0.305">
        <ele>4.4</ele>
        <time>2020-12-27T09:16:35Z</time>
      </trkpt>
      <trkpt lat="49.29909" lon="-0.30496">
        <ele>4.4</ele>
        <time>2020-12-27T09:16:36Z</time>
      </trkpt>
      <trkpt lat="49.29908" lon="-0.30494">
        <ele>4.4</ele>
        <time>2020-12-27T09:16:37Z</time>
      </trkpt>
      <trkpt lat="49.29907" lon="-0.30489">
        <ele>4.3</ele>
        <time>2020-12-27T09:16:39Z</time>
      </trkpt>
      <trkpt lat="49.29906" lon="-0.30487">
        <ele>4.3</ele>
        <time>2020-12-27T09:16:40Z</time>
      </trkpt>
      <trkpt lat="49.29904" lon="-0.30483">
        <ele>4.3</ele>
        <time>2020-12-27T09:16:42Z</time>
      </trkpt>
      <trkpt lat="49.29904" lon="-0.30482">
        <ele>4.3</ele>
        <time>2020-12-27T09:16:43Z</time>
      </trkpt>
      <trkpt lat="49.29903" lon="-0.30477">
        <ele>4.3</ele>
        <time>2020-12-27T09:16:44Z</time>
      </trkpt>
      <trkpt lat="49.29902" lon="-0.30476">
        <ele>4.3</ele>
        <time>2020-12-27T09:16:45Z</time>
      </trkpt>
      <trkpt lat="49.29901" lon="-0.30474">
        <ele>4.3</ele>
        <time>2020-12-27T09:16:46Z</time>
      </trkpt>
      <trkpt lat="49.29901" lon="-0.30471">
        <ele>4.3</ele>
        <time>2020-12-27T09:16:48Z</time>
      </trkpt>
      <trkpt lat="49.29899" lon="-0.30467">
        <ele>4.3</ele>
        <time>2020-12-27T09:16:49Z</time>
      </trkpt>
      <trkpt lat="49.29898" lon="-0.30466">
        <ele>4.3</ele>
        <time>2020-12-27T09:16:50Z</time>
      </trkpt>
      <trkpt lat="49.29897" lon="-0.30463">
        <ele>4.3</ele>
        <time>2020-12-27T09:16:52Z</time>
      </trkpt>
      <trkpt lat="49.29896" lon="-0.30461">
        <ele>4.3</ele>
        <time>2020-12-27T09:16:53Z</time>
      </trkpt>
      <trkpt lat="49.29896" lon="-0.30459">
        <ele>4.3</ele>
        <time>2020-12-27T09:16:54Z</time>
      </trkpt>
      <trkpt lat="49.29895" lon="-0.30456">
        <ele>4.3</ele>
        <time>2020-12-27T09:16:56Z</time>
      </trkpt>
      <trkpt lat="49.29894" lon="-0.30454">
        <ele>4.3</ele>
        <time>2020-12-27T09:16:57Z</time>
      </trkpt>
      <trkpt lat="49.29894" lon="-0.30451">
        <ele>4.3</ele>
        <time>2020-12-27T09:16:58Z</time>
      </trkpt>
      <trkpt lat="49.29892" lon="-0.30447">
        <ele>4.3</ele>
        <time>2020-12-27T09:16:59Z</time>
      </trkpt>
      <trkpt lat="49.29892" lon="-0.30446">
        <ele>4.3</ele>
        <time>2020-12-27T09:17:00Z</time>
      </trkpt>
      <trkpt lat="49.2989" lon="-0.30441">
        <ele>4.3</ele>
        <time>2020-12-27T09:17:02Z</time>
      </trkpt>
      <trkpt lat="49.2989" lon="-0.3044">
        <ele>4.3</ele>
        <time>2020-12-27T09:17:03Z</time>
      </trkpt>
      <trkpt lat="49.29889" lon="-0.30437">
        <ele>4.3</ele>
        <time>2020-12-27T09:17:04Z</time>
      </trkpt>
      <trkpt lat="49.29888" lon="-0.30433">
        <ele>4.3</ele>
        <time>2020-12-27T09:17:06Z</time>
      </trkpt>
      <trkpt lat="49.29887" lon="-0.3043">
        <ele>4.3</ele>
        <time>2020-12-27T09:17:07Z</time>
      </trkpt>
      <trkpt lat="49.29886" lon="-0.30426">
        <ele>4.3</ele>
        <time>2020-12-27T09:17:09Z</time>
      </trkpt>
      <trkpt lat="49.29885" lon="-0.30423">
        <ele>4.3</ele>
        <time>2020-12-27T09:17:10Z</time>
      </trkpt>
      <trkpt lat="49.29884" lon="-0.3042">
        <ele>4.3</ele>
        <time>2020-12-27T09:17:12Z</time>
      </trkpt>
      <trkpt lat="49.29883" lon="-0.30416">
        <ele>4.3</ele>
        <time>2020-12-27T09:17:13Z</time>
      </trkpt>
      <trkpt lat="49.29882" lon="-0.30414">
        <ele>4.2</ele>
        <time>2020-12-27T09:17:15Z</time>
      </trkpt>
      <trkpt lat="49.29881" lon="-0.30411">
        <ele>4.2</ele>
        <time>2020-12-27T09:17:16Z</time>
      </trkpt>
      <trkpt lat="49.2988" lon="-0.30408">
        <ele>4.2</ele>
        <time>2020-12-27T09:17:18Z</time>
      </trkpt>
      <trkpt lat="49.29879" lon="-0.30405">
        <ele>4.2</ele>
        <time>2020-12-27T09:17:19Z</time>
      </trkpt>
      <trkpt lat="49.29878" lon="-0.30401">
        <ele>4.2</ele>
        <time>2020-12-27T09:17:21Z</time>
      </trkpt>
      <trkpt lat="49.29877" lon="-0.30396">
        <ele>4.2</ele>
        <time>2020-12-27T09:17:22Z</time>
      </trkpt>
      <trkpt lat="49.29876" lon="-0.30394">
        <ele>4.2</ele>
        <time>2020-12-27T09:17:23Z</time>
      </trkpt>
      <trkpt lat="49.29875" lon="-0.30391">
        <ele>4.2</ele>
        <time>2020-12-27T09:17:25Z</time>
      </trkpt>
      <trkpt lat="49.29874" lon="-0.30387">
        <ele>4.2</ele>
        <time>2020-12-27T09:17:27Z</time>
      </trkpt>
      <trkpt lat="49.29873" lon="-0.30383">
        <ele>4.2</ele>
        <time>2020-12-27T09:17:28Z</time>
      </trkpt>
      <trkpt lat="49.29872" lon="-0.30381">
        <ele>4.2</ele>
        <time>2020-12-27T09:17:29Z</time>
      </trkpt>
      <trkpt lat="49.29872" lon="-0.30377">
        <ele>4.2</ele>
        <time>2020-12-27T09:17:31Z</time>
      </trkpt>
      <trkpt lat="49.29871" lon="-0.30373">
        <ele>4.2</ele>
        <time>2020-12-27T09:17:32Z</time>
      </trkpt>
      <trkpt lat="49.29871" lon="-0.30371">
        <ele>4.2</ele>
        <time>2020-12-27T09:17:33Z</time>
      </trkpt>
      <trkpt lat="49.2987" lon="-0.30368">
        <ele>4.2</ele>
        <time>2020-12-27T09:17:34Z</time>
      </trkpt>
      <trkpt lat="49.29869" lon="-0.30365">
        <ele>4.2</ele>
        <time>2020-12-27T09:17:36Z</time>
      </trkpt>
      <trkpt lat="49.29868" lon="-0.30361">
        <ele>4.2</ele>
        <time>2020-12-27T09:17:37Z</time>
      </trkpt>
      <trkpt lat="49.29868" lon="-0.30358">
        <ele>4.2</ele>
        <time>2020-12-27T09:17:39Z</time>
      </trkpt>
      <trkpt lat="49.29867" lon="-0.30353">
        <ele>4.2</ele>
        <time>2020-12-27T09:17:40Z</time>
      </trkpt>
      <trkpt lat="49.29866" lon="-0.30351">
        <ele>4.2</ele>
        <time>2020-12-27T09:17:41Z</time>
      </trkpt>
      <trkpt lat="49.29865" lon="-0.30347">
        <ele>4.2</ele>
        <time>2020-12-27T09:17:43Z</time>
      </trkpt>
      <trkpt lat="49.29865" lon="-0.30346">
        <ele>4.2</ele>
        <time>2020-12-27T09:17:44Z</time>
      </trkpt>
      <trkpt lat="49.29864" lon="-0.30342">
        <ele>4.2</ele>
        <time>2020-12-27T09:17:45Z</time>
      </trkpt>
      <trkpt lat="49.29862" lon="-0.30335">
        <ele>4.2</ele>
        <time>2020-12-27T09:17:47Z</time>
      </trkpt>
      <trkpt lat="49.29861" lon="-0.30333">
        <ele>4.2</ele>
        <time>2020-12-27T09:17:49Z</time>
      </trkpt>
      <trkpt lat="49.2986" lon="-0.30331">
        <ele>4.1</ele>
        <time>2020-12-27T09:17:50Z</time>
      </trkpt>
      <trkpt lat="49.29859" lon="-0.30327">
        <ele>4.1</ele>
        <time>2020-12-27T09:17:52Z</time>
      </trkpt>
      <trkpt lat="49.29858" lon="-0.30326">
        <ele>4.1</ele>
        <time>2020-12-27T09:17:53Z</time>
      </trkpt>
      <trkpt lat="49.29857" lon="-0.3032">
        <ele>4.1</ele>
        <time>2020-12-27T09:17:55Z</time>
      </trkpt>
      <trkpt lat="49.29856" lon="-0.30318">
        <ele>4.1</ele>
        <time>2020-12-27T09:17:56Z</time>
      </trkpt>
      <trkpt lat="49.29855" lon="-0.30315">
        <ele>4.1</ele>
        <time>2020-12-27T09:17:58Z</time>
      </trkpt>
      <trkpt lat="49.29854" lon="-0.30313">
        <ele>4.1</ele>
        <time>2020-12-27T09:17:59Z</time>
      </trkpt>
      <trkpt lat="49.29853" lon="-0.3031">
        <ele>4.1</ele>
        <time>2020-12-27T09:18:00Z</time>
      </trkpt>
      <trkpt lat="49.29853" lon="-0.30308">
        <ele>4.1</ele>
        <time>2020-12-27T09:18:01Z</time>
      </trkpt>
      <trkpt lat="49.29852" lon="-0.30305">
        <ele>4.1</ele>
        <time>2020-12-27T09:18:02Z</time>
      </trkpt>
      <trkpt lat="49.29851" lon="-0.30302">
        <ele>4.1</ele>
        <time>2020-12-27T09:18:04Z</time>
      </trkpt>
      <trkpt lat="49.2985" lon="-0.30299">
        <ele>4.1</ele>
        <time>2020-12-27T09:18:05Z</time>
      </trkpt>
      <trkpt lat="49.29849" lon="-0.30296">
        <ele>4.1</ele>
        <time>2020-12-27T09:18:07Z</time>
      </trkpt>
      <trkpt lat="49.29847" lon="-0.30292">
        <ele>4.1</ele>
        <time>2020-12-27T09:18:08Z</time>
      </trkpt>
      <trkpt lat="49.29847" lon="-0.30291">
        <ele>4.1</ele>
        <time>2020-12-27T09:18:09Z</time>
      </trkpt>
      <trkpt lat="49.29845" lon="-0.30286">
        <ele>4</ele>
        <time>2020-12-27T09:18:11Z</time>
      </trkpt>
      <trkpt lat="49.29844" lon="-0.30284">
        <ele>4</ele>
        <time>2020-12-27T09:18:12Z</time>
      </trkpt>
      <trkpt lat="49.29843" lon="-0.30283">
        <ele>4</ele>
        <time>2020-12-27T09:18:13Z</time>
      </trkpt>
      <trkpt lat="49.29841" lon="-0.3028">
        <ele>4</ele>
        <time>2020-12-27T09:18:15Z</time>
      </trkpt>
      <trkpt lat="49.29839" lon="-0.30274">
        <ele>4</ele>
        <time>2020-12-27T09:18:17Z</time>
      </trkpt>
      <trkpt lat="49.29838" lon="-0.30273">
        <ele>4</ele>
        <time>2020-12-27T09:18:18Z</time>
      </trkpt>
      <trkpt lat="49.29837" lon="-0.30271">
        <ele>4</ele>
        <time>2020-12-27T09:18:19Z</time>
      </trkpt>
      <trkpt lat="49.29836" lon="-0.30266">
        <ele>3.9</ele>
        <time>2020-12-27T09:18:21Z</time>
      </trkpt>
      <trkpt lat="49.29835" lon="-0.30265">
        <ele>3.9</ele>
        <time>2020-12-27T09:18:22Z</time>
      </trkpt>
      <trkpt lat="49.29834" lon="-0.30261">
        <ele>3.9</ele>
        <time>2020-12-27T09:18:23Z</time>
      </trkpt>
      <trkpt lat="49.29833" lon="-0.30259">
        <ele>3.9</ele>
        <time>2020-12-27T09:18:24Z</time>
      </trkpt>
      <trkpt lat="49.29832" lon="-0.30255">
        <ele>3.9</ele>
        <time>2020-12-27T09:18:26Z</time>
      </trkpt>
      <trkpt lat="49.29831" lon="-0.30253">
        <ele>3.9</ele>
        <time>2020-12-27T09:18:27Z</time>
      </trkpt>
      <trkpt lat="49.2983" lon="-0.30249">
        <ele>3.9</ele>
        <time>2020-12-27T09:18:29Z</time>
      </trkpt>
      <trkpt lat="49.2983" lon="-0.30247">
        <ele>3.9</ele>
        <time>2020-12-27T09:18:30Z</time>
      </trkpt>
      <trkpt lat="49.29829" lon="-0.30243">
        <ele>3.9</ele>
        <time>2020-12-27T09:18:31Z</time>
      </trkpt>
      <trkpt lat="49.29829" lon="-0.30241">
        <ele>3.9</ele>
        <time>2020-12-27T09:18:33Z</time>
      </trkpt>
      <trkpt lat="49.29829" lon="-0.30239">
        <ele>3.9</ele>
        <time>2020-12-27T09:18:35Z</time>
      </trkpt>
      <trkpt lat="49.29828" lon="-0.30237">
        <ele>3.7</ele>
        <time>2020-12-27T09:18:36Z</time>
      </trkpt>
      <trkpt lat="49.29827" lon="-0.30233">
        <ele>3.6</ele>
        <time>2020-12-27T09:18:38Z</time>
      </trkpt>
      <trkpt lat="49.29827" lon="-0.30231">
        <ele>3.6</ele>
        <time>2020-12-27T09:18:39Z</time>
      </trkpt>
      <trkpt lat="49.29827" lon="-0.30228">
        <ele>3.5</ele>
        <time>2020-12-27T09:18:40Z</time>
      </trkpt>
      <trkpt lat="49.29828" lon="-0.30228">
        <ele>3.5</ele>
        <time>2020-12-27T09:18:42Z</time>
      </trkpt>
      <trkpt lat="49.29828" lon="-0.30228">
        <ele>3.5</ele>
        <time>2020-12-27T09:18:43Z</time>
      </trkpt>
      <trkpt lat="49.29828" lon="-0.30229">
        <ele>3.5</ele>
        <time>2020-12-27T09:18:44Z</time>
      </trkpt>
      <trkpt lat="49.29829" lon="-0.3023">
        <ele>3.5</ele>
        <time>2020-12-27T09:18:46Z</time>
      </trkpt>
      <trkpt lat="49.29829" lon="-0.3023">
        <ele>3.5</ele>
        <time>2020-12-27T09:18:47Z</time>
      </trkpt>
      <trkpt lat="49.2983" lon="-0.30231">
        <ele>3.4</ele>
        <time>2020-12-27T09:18:49Z</time>
      </trkpt>
      <trkpt lat="49.2983" lon="-0.30232">
        <ele>3.4</ele>
        <time>2020-12-27T09:18:50Z</time>
      </trkpt>
      <trkpt lat="49.2983" lon="-0.30233">
        <ele>3.4</ele>
        <time>2020-12-27T09:18:51Z</time>
      </trkpt>
      <trkpt lat="49.29831" lon="-0.30233">
        <ele>3.4</ele>
        <time>2020-12-27T09:18:52Z</time>
      </trkpt>
      <trkpt lat="49.29831" lon="-0.30234">
        <ele>3.4</ele>
        <time>2020-12-27T09:18:54Z</time>
      </trkpt>
      <trkpt lat="49.29832" lon="-0.30235">
        <ele>3.3</ele>
        <time>2020-12-27T09:18:55Z</time>
      </trkpt>
      <trkpt lat="49.29832" lon="-0.30235">
        <ele>3.3</ele>
        <time>2020-12-27T09:28:04Z</time>
      </trkpt>
      <trkpt lat="49.29833" lon="-0.30236">
        <ele>3.3</ele>
        <time>2020-12-27T09:28:06Z</time>
      </trkpt>
      <trkpt lat="49.29833" lon="-0.30237">
        <ele>3.3</ele>
        <time>2020-12-27T09:28:07Z</time>
      </trkpt>
      <trkpt lat="49.29833" lon="-0.30237">
        <ele>3.3</ele>
        <time>2020-12-27T09:28:08Z</time>
      </trkpt>
      <trkpt lat="49.29834" lon="-0.30238">
        <ele>3.3</ele>
        <time>2020-12-27T09:28:10Z</time>
      </trkpt>
      <trkpt lat="49.29834" lon="-0.30239">
        <ele>3.2</ele>
        <time>2020-12-27T09:28:11Z</time>
      </trkpt>
      <trkpt lat="49.29835" lon="-0.30239">
        <ele>3.2</ele>
        <time>2020-12-27T09:28:13Z</time>
      </trkpt>
      <trkpt lat="49.29836" lon="-0.30242">
        <ele>3.2</ele>
        <time>2020-12-27T09:28:14Z</time>
      </trkpt>
      <trkpt lat="49.29837" lon="-0.30246">
        <ele>3.1</ele>
        <time>2020-12-27T09:28:16Z</time>
      </trkpt>
      <trkpt lat="49.29839" lon="-0.30251">
        <ele>3.1</ele>
        <time>2020-12-27T09:28:18Z</time>
      </trkpt>
      <trkpt lat="49.2984" lon="-0.30257">
        <ele>3.1</ele>
        <time>2020-12-27T09:28:19Z</time>
      </trkpt>
      <trkpt lat="49.29841" lon="-0.30261">
        <ele>3</ele>
        <time>2020-12-27T09:28:21Z</time>
      </trkpt>
      <trkpt lat="49.29842" lon="-0.30267">
        <ele>3</ele>
        <time>2020-12-27T09:28:23Z</time>
      </trkpt>
      <trkpt lat="49.29844" lon="-0.30273">
        <ele>3</ele>
        <time>2020-12-27T09:28:24Z</time>
      </trkpt>
      <trkpt lat="49.29844" lon="-0.30274">
        <ele>3</ele>
        <time>2020-12-27T09:28:25Z</time>
      </trkpt>
      <trkpt lat="49.29845" lon="-0.30277">
        <ele>3</ele>
        <time>2020-12-27T09:28:27Z</time>
      </trkpt>
      <trkpt lat="49.29847" lon="-0.30282">
        <ele>3</ele>
        <time>2020-12-27T09:28:29Z</time>
      </trkpt>
      <trkpt lat="49.29848" lon="-0.30286">
        <ele>3</ele>
        <time>2020-12-27T09:28:30Z</time>
      </trkpt>
      <trkpt lat="49.2985" lon="-0.30291">
        <ele>2.9</ele>
        <time>2020-12-27T09:28:32Z</time>
      </trkpt>
      <trkpt lat="49.29852" lon="-0.30294">
        <ele>2.9</ele>
        <time>2020-12-27T09:28:33Z</time>
      </trkpt>
      <trkpt lat="49.29853" lon="-0.30297">
        <ele>2.9</ele>
        <time>2020-12-27T09:28:35Z</time>
      </trkpt>
      <trkpt lat="49.29854" lon="-0.30301">
        <ele>2.9</ele>
        <time>2020-12-27T09:28:36Z</time>
      </trkpt>
      <trkpt lat="49.29854" lon="-0.30303">
        <ele>2.9</ele>
        <time>2020-12-27T09:28:37Z</time>
      </trkpt>
      <trkpt lat="49.29855" lon="-0.30307">
        <ele>2.9</ele>
        <time>2020-12-27T09:28:39Z</time>
      </trkpt>
      <trkpt lat="49.29856" lon="-0.30311">
        <ele>2.9</ele>
        <time>2020-12-27T09:28:40Z</time>
      </trkpt>
      <trkpt lat="49.29857" lon="-0.30316">
        <ele>2.9</ele>
        <time>2020-12-27T09:28:42Z</time>
      </trkpt>
      <trkpt lat="49.29858" lon="-0.30317">
        <ele>2.9</ele>
        <time>2020-12-27T09:28:43Z</time>
      </trkpt>
      <trkpt lat="49.29859" lon="-0.30322">
        <ele>2.9</ele>
        <time>2020-12-27T09:28:45Z</time>
      </trkpt>
      <trkpt lat="49.29859" lon="-0.30324">
        <ele>2.9</ele>
        <time>2020-12-27T09:28:46Z</time>
      </trkpt>
      <trkpt lat="49.2986" lon="-0.30327">
        <ele>2.9</ele>
        <time>2020-12-27T09:28:47Z</time>
      </trkpt>
      <trkpt lat="49.29861" lon="-0.3033">
        <ele>2.9</ele>
        <time>2020-12-27T09:28:49Z</time>
      </trkpt>
      <trkpt lat="49.29862" lon="-0.30335">
        <ele>2.9</ele>
        <time>2020-12-27T09:28:50Z</time>
      </trkpt>
      <trkpt lat="49.29863" lon="-0.30337">
        <ele>2.9</ele>
        <time>2020-12-27T09:28:51Z</time>
      </trkpt>
      <trkpt lat="49.29863" lon="-0.30341">
        <ele>2.9</ele>
        <time>2020-12-27T09:28:53Z</time>
      </trkpt>
      <trkpt lat="49.29864" lon="-0.30346">
        <ele>2.9</ele>
        <time>2020-12-27T09:28:55Z</time>
      </trkpt>
      <trkpt lat="49.29865" lon="-0.30351">
        <ele>2.9</ele>
        <time>2020-12-27T09:28:56Z</time>
      </trkpt>
      <trkpt lat="49.29865" lon="-0.30353">
        <ele>2.9</ele>
        <time>2020-12-27T09:28:57Z</time>
      </trkpt>
      <trkpt lat="49.29868" lon="-0.30357">
        <ele>2.9</ele>
        <time>2020-12-27T09:28:59Z</time>
      </trkpt>
      <trkpt lat="49.29869" lon="-0.30358">
        <ele>2.9</ele>
        <time>2020-12-27T09:29:00Z</time>
      </trkpt>
      <trkpt lat="49.2987" lon="-0.30362">
        <ele>2.9</ele>
        <time>2020-12-27T09:29:01Z</time>
      </trkpt>
      <trkpt lat="49.29871" lon="-0.30366">
        <ele>2.9</ele>
        <time>2020-12-27T09:29:03Z</time>
      </trkpt>
      <trkpt lat="49.29872" lon="-0.3037">
        <ele>2.9</ele>
        <time>2020-12-27T09:29:04Z</time>
      </trkpt>
      <trkpt lat="49.29872" lon="-0.30372">
        <ele>2.9</ele>
        <time>2020-12-27T09:29:05Z</time>
      </trkpt>
      <trkpt lat="49.29874" lon="-0.30377">
        <ele>3</ele>
        <time>2020-12-27T09:29:07Z</time>
      </trkpt>
      <trkpt lat="49.29874" lon="-0.30378">
        <ele>3</ele>
        <time>2020-12-27T09:29:08Z</time>
      </trkpt>
      <trkpt lat="49.29876" lon="-0.30383">
        <ele>3</ele>
        <time>2020-12-27T09:29:10Z</time>
      </trkpt>
      <trkpt lat="49.29877" lon="-0.30384">
        <ele>3</ele>
        <time>2020-12-27T09:29:11Z</time>
      </trkpt>
      <trkpt lat="49.29878" lon="-0.30387">
        <ele>3</ele>
        <time>2020-12-27T09:29:12Z</time>
      </trkpt>
      <trkpt lat="49.29879" lon="-0.30391">
        <ele>3</ele>
        <time>2020-12-27T09:29:14Z</time>
      </trkpt>
      <trkpt lat="49.29881" lon="-0.30394">
        <ele>3</ele>
        <time>2020-12-27T09:29:16Z</time>
      </trkpt>
      <trkpt lat="49.29882" lon="-0.30397">
        <ele>3</ele>
        <time>2020-12-27T09:29:17Z</time>
      </trkpt>
      <trkpt lat="49.29883" lon="-0.30401">
        <ele>3</ele>
        <time>2020-12-27T09:29:19Z</time>
      </trkpt>
      <trkpt lat="49.29883" lon="-0.30404">
        <ele>3</ele>
        <time>2020-12-27T09:29:20Z</time>
      </trkpt>
      <trkpt lat="49.29884" lon="-0.30407">
        <ele>3</ele>
        <time>2020-12-27T09:29:22Z</time>
      </trkpt>
      <trkpt lat="49.29885" lon="-0.30409">
        <ele>3</ele>
        <time>2020-12-27T09:29:23Z</time>
      </trkpt>
      <trkpt lat="49.29887" lon="-0.30414">
        <ele>3</ele>
        <time>2020-12-27T09:29:25Z</time>
      </trkpt>
      <trkpt lat="49.29888" lon="-0.30418">
        <ele>3</ele>
        <time>2020-12-27T09:29:26Z</time>
      </trkpt>
      <trkpt lat="49.29888" lon="-0.3042">
        <ele>3</ele>
        <time>2020-12-27T09:29:27Z</time>
      </trkpt>
      <trkpt lat="49.2989" lon="-0.30424">
        <ele>3</ele>
        <time>2020-12-27T09:29:29Z</time>
      </trkpt>
      <trkpt lat="49.2989" lon="-0.30425">
        <ele>3</ele>
        <time>2020-12-27T09:29:30Z</time>
      </trkpt>
      <trkpt lat="49.29892" lon="-0.30429">
        <ele>3</ele>
        <time>2020-12-27T09:29:32Z</time>
      </trkpt>
      <trkpt lat="49.29892" lon="-0.3043">
        <ele>3</ele>
        <time>2020-12-27T09:29:33Z</time>
      </trkpt>
      <trkpt lat="49.29894" lon="-0.30434">
        <ele>3</ele>
        <time>2020-12-27T09:29:34Z</time>
      </trkpt>
      <trkpt lat="49.29894" lon="-0.30436">
        <ele>3</ele>
        <time>2020-12-27T09:29:36Z</time>
      </trkpt>
      <trkpt lat="49.29895" lon="-0.30439">
        <ele>3</ele>
        <time>2020-12-27T09:29:37Z</time>
      </trkpt>
      <trkpt lat="49.29896" lon="-0.30442">
        <ele>3</ele>
        <time>2020-12-27T09:29:39Z</time>
      </trkpt>
      <trkpt lat="49.29898" lon="-0.30446">
        <ele>3</ele>
        <time>2020-12-27T09:29:40Z</time>
      </trkpt>
      <trkpt lat="49.29898" lon="-0.30448">
        <ele>3</ele>
        <time>2020-12-27T09:29:41Z</time>
      </trkpt>
      <trkpt lat="49.299" lon="-0.30453">
        <ele>3</ele>
        <time>2020-12-27T09:29:43Z</time>
      </trkpt>
      <trkpt lat="49.299" lon="-0.30455">
        <ele>3</ele>
        <time>2020-12-27T09:29:44Z</time>
      </trkpt>
      <trkpt lat="49.29901" lon="-0.30457">
        <ele>3</ele>
        <time>2020-12-27T09:29:45Z</time>
      </trkpt>
      <trkpt lat="49.29902" lon="-0.30461">
        <ele>3</ele>
        <time>2020-12-27T09:29:47Z</time>
      </trkpt>
      <trkpt lat="49.29902" lon="-0.30465">
        <ele>3</ele>
        <time>2020-12-27T09:29:49Z</time>
      </trkpt>
      <trkpt lat="49.29903" lon="-0.30469">
        <ele>3</ele>
        <time>2020-12-27T09:29:51Z</time>
      </trkpt>
      <trkpt lat="49.29904" lon="-0.30472">
        <ele>3</ele>
        <time>2020-12-27T09:29:52Z</time>
      </trkpt>
      <trkpt lat="49.29905" lon="-0.30477">
        <ele>3</ele>
        <time>2020-12-27T09:29:54Z</time>
      </trkpt>
      <trkpt lat="49.29906" lon="-0.3048">
        <ele>3</ele>
        <time>2020-12-27T09:29:55Z</time>
      </trkpt>
      <trkpt lat="49.29907" lon="-0.30484">
        <ele>3</ele>
        <time>2020-12-27T09:29:57Z</time>
      </trkpt>
      <trkpt lat="49.29908" lon="-0.30488">
        <ele>3</ele>
        <time>2020-12-27T09:29:58Z</time>
      </trkpt>
      <trkpt lat="49.29909" lon="-0.30489">
        <ele>3</ele>
        <time>2020-12-27T09:29:59Z</time>
      </trkpt>
      <trkpt lat="49.2991" lon="-0.30493">
        <ele>3</ele>
        <time>2020-12-27T09:30:00Z</time>
      </trkpt>
      <trkpt lat="49.29911" lon="-0.30498">
        <ele>3</ele>
        <time>2020-12-27T09:30:02Z</time>
      </trkpt>
      <trkpt lat="49.29912" lon="-0.30499">
        <ele>3</ele>
        <time>2020-12-27T09:30:03Z</time>
      </trkpt>
      <trkpt lat="49.29913" lon="-0.30503">
        <ele>3</ele>
        <time>2020-12-27T09:30:05Z</time>
      </trkpt>
      <trkpt lat="49.29914" lon="-0.30505">
        <ele>3</ele>
        <time>2020-12-27T09:30:06Z</time>
      </trkpt>
      <trkpt lat="49.29914" lon="-0.30507">
        <ele>3</ele>
        <time>2020-12-27T09:30:07Z</time>
      </trkpt>
      <trkpt lat="49.29915" lon="-0.30509">
        <ele>3</ele>
        <time>2020-12-27T09:30:08Z</time>
      </trkpt>
      <trkpt lat="49.29916" lon="-0.30513">
        <ele>3</ele>
        <time>2020-12-27T09:30:10Z</time>
      </trkpt>
      <trkpt lat="49.29917" lon="-0.30515">
        <ele>3</ele>
        <time>2020-12-27T09:30:11Z</time>
      </trkpt>
      <trkpt lat="49.29918" lon="-0.30519">
        <ele>3</ele>
        <time>2020-12-27T09:30:13Z</time>
      </trkpt>
      <trkpt lat="49.29919" lon="-0.3052">
        <ele>3</ele>
        <time>2020-12-27T09:30:14Z</time>
      </trkpt>
      <trkpt lat="49.29921" lon="-0.30525">
        <ele>3</ele>
        <time>2020-12-27T09:30:16Z</time>
      </trkpt>
      <trkpt lat="49.29921" lon="-0.30527">
        <ele>3</ele>
        <time>2020-12-27T09:30:17Z</time>
      </trkpt>
      <trkpt lat="49.29922" lon="-0.3053">
        <ele>3</ele>
        <time>2020-12-27T09:30:18Z</time>
      </trkpt>
      <trkpt lat="49.29924" lon="-0.30534">
        <ele>3</ele>
        <time>2020-12-27T09:30:20Z</time>
      </trkpt>
      <trkpt lat="49.29924" lon="-0.30536">
        <ele>3</ele>
        <time>2020-12-27T09:30:21Z</time>
      </trkpt>
      <trkpt lat="49.29926" lon="-0.3054">
        <ele>3</ele>
        <time>2020-12-27T09:30:23Z</time>
      </trkpt>
      <trkpt lat="49.29926" lon="-0.30541">
        <ele>3</ele>
        <time>2020-12-27T09:30:24Z</time>
      </trkpt>
      <trkpt lat="49.29928" lon="-0.30545">
        <ele>3</ele>
        <time>2020-12-27T09:30:25Z</time>
      </trkpt>
      <trkpt lat="49.29929" lon="-0.30547">
        <ele>3</ele>
        <time>2020-12-27T09:30:27Z</time>
      </trkpt>
      <trkpt lat="49.2993" lon="-0.3055">
        <ele>3</ele>
        <time>2020-12-27T09:30:28Z</time>
      </trkpt>
      <trkpt lat="49.29932" lon="-0.30554">
        <ele>3</ele>
        <time>2020-12-27T09:30:30Z</time>
      </trkpt>
      <trkpt lat="49.29933" lon="-0.30558">
        <ele>3</ele>
        <time>2020-12-27T09:30:31Z</time>
      </trkpt>
      <trkpt lat="49.29934" lon="-0.30561">
        <ele>3</ele>
        <time>2020-12-27T09:30:33Z</time>
      </trkpt>
      <trkpt lat="49.29935" lon="-0.30565">
        <ele>3</ele>
        <time>2020-12-27T09:30:34Z</time>
      </trkpt>
      <trkpt lat="49.29936" lon="-0.30567">
        <ele>3</ele>
        <time>2020-12-27T09:30:35Z</time>
      </trkpt>
      <trkpt lat="49.29937" lon="-0.30571">
        <ele>3.1</ele>
        <time>2020-12-27T09:30:37Z</time>
      </trkpt>
      <trkpt lat="49.29938" lon="-0.30573">
        <ele>3.1</ele>
        <time>2020-12-27T09:30:38Z</time>
      </trkpt>
      <trkpt lat="49.2994" lon="-0.3058">
        <ele>3.1</ele>
        <time>2020-12-27T09:30:40Z</time>
      </trkpt>
      <trkpt lat="49.29941" lon="-0.30582">
        <ele>3.1</ele>
        <time>2020-12-27T09:30:41Z</time>
      </trkpt>
      <trkpt lat="49.29941" lon="-0.30584">
        <ele>3.1</ele>
        <time>2020-12-27T09:30:42Z</time>
      </trkpt>
      <trkpt lat="49.29942" lon="-0.30588">
        <ele>3.1</ele>
        <time>2020-12-27T09:30:44Z</time>
      </trkpt>
      <trkpt lat="49.29944" lon="-0.30591">
        <ele>3.1</ele>
        <time>2020-12-27T09:30:45Z</time>
      </trkpt>
      <trkpt lat="49.29945" lon="-0.30594">
        <ele>3.1</ele>
        <time>2020-12-27T09:30:47Z</time>
      </trkpt>
      <trkpt lat="49.29947" lon="-0.30598">
        <ele>3.1</ele>
        <time>2020-12-27T09:30:48Z</time>
      </trkpt>
      <trkpt lat="49.29948" lon="-0.306">
        <ele>3.1</ele>
        <time>2020-12-27T09:30:49Z</time>
      </trkpt>
      <trkpt lat="49.29949" lon="-0.30604">
        <ele>3.1</ele>
        <time>2020-12-27T09:30:51Z</time>
      </trkpt>
      <trkpt lat="49.2995" lon="-0.30606">
        <ele>3.1</ele>
        <time>2020-12-27T09:30:52Z</time>
      </trkpt>
      <trkpt lat="49.29951" lon="-0.3061">
        <ele>3.1</ele>
        <time>2020-12-27T09:30:53Z</time>
      </trkpt>
      <trkpt lat="49.29951" lon="-0.30611">
        <ele>3.1</ele>
        <time>2020-12-27T09:30:54Z</time>
      </trkpt>
      <trkpt lat="49.29952" lon="-0.30615">
        <ele>3.1</ele>
        <time>2020-12-27T09:30:55Z</time>
      </trkpt>
      <trkpt lat="49.29953" lon="-0.30619">
        <ele>3.1</ele>
        <time>2020-12-27T09:30:57Z</time>
      </trkpt>
      <trkpt lat="49.29954" lon="-0.30622">
        <ele>3.1</ele>
        <time>2020-12-27T09:30:58Z</time>
      </trkpt>
      <trkpt lat="49.29955" lon="-0.30626">
        <ele>3.1</ele>
        <time>2020-12-27T09:31:00Z</time>
      </trkpt>
      <trkpt lat="49.29955" lon="-0.30631">
        <ele>3.2</ele>
        <time>2020-12-27T09:31:02Z</time>
      </trkpt>
      <trkpt lat="49.29955" lon="-0.30633">
        <ele>3.2</ele>
        <time>2020-12-27T09:31:03Z</time>
      </trkpt>
      <trkpt lat="49.29955" lon="-0.30636">
        <ele>3.2</ele>
        <time>2020-12-27T09:31:04Z</time>
      </trkpt>
      <trkpt lat="49.29956" lon="-0.30641">
        <ele>3.2</ele>
        <time>2020-12-27T09:31:05Z</time>
      </trkpt>
      <trkpt lat="49.29956" lon="-0.30643">
        <ele>3.2</ele>
        <time>2020-12-27T09:31:06Z</time>
      </trkpt>
      <trkpt lat="49.29958" lon="-0.30647">
        <ele>3.2</ele>
        <time>2020-12-27T09:31:08Z</time>
      </trkpt>
      <trkpt lat="49.29959" lon="-0.30649">
        <ele>3.2</ele>
        <time>2020-12-27T09:31:09Z</time>
      </trkpt>
      <trkpt lat="49.29961" lon="-0.30652">
        <ele>3.2</ele>
        <time>2020-12-27T09:31:11Z</time>
      </trkpt>
      <trkpt lat="49.29963" lon="-0.30652">
        <ele>3.2</ele>
        <time>2020-12-27T09:31:12Z</time>
      </trkpt>
      <trkpt lat="49.29965" lon="-0.30656">
        <ele>3.2</ele>
        <time>2020-12-27T09:31:14Z</time>
      </trkpt>
      <trkpt lat="49.29965" lon="-0.30657">
        <ele>3.2</ele>
        <time>2020-12-27T09:31:15Z</time>
      </trkpt>
      <trkpt lat="49.29965" lon="-0.3066">
        <ele>3.2</ele>
        <time>2020-12-27T09:31:16Z</time>
      </trkpt>
      <trkpt lat="49.29966" lon="-0.30662">
        <ele>3.2</ele>
        <time>2020-12-27T09:31:18Z</time>
      </trkpt>
      <trkpt lat="49.29966" lon="-0.30664">
        <ele>3.2</ele>
        <time>2020-12-27T09:31:19Z</time>
      </trkpt>
      <trkpt lat="49.29967" lon="-0.30666">
        <ele>3.2</ele>
        <time>2020-12-27T09:31:20Z</time>
      </trkpt>
      <trkpt lat="49.29968" lon="-0.30668">
        <ele>3.2</ele>
        <time>2020-12-27T09:31:22Z</time>
      </trkpt>
      <trkpt lat="49.29969" lon="-0.3067">
        <ele>3.2</ele>
        <time>2020-12-27T09:31:23Z</time>
      </trkpt>
      <trkpt lat="49.2997" lon="-0.30674">
        <ele>3.2</ele>
        <time>2020-12-27T09:31:25Z</time>
      </trkpt>
      <trkpt lat="49.29971" lon="-0.30676">
        <ele>3.2</ele>
        <time>2020-12-27T09:31:26Z</time>
      </trkpt>
      <trkpt lat="49.29972" lon="-0.3068">
        <ele>3.2</ele>
        <time>2020-12-27T09:31:27Z</time>
      </trkpt>
      <trkpt lat="49.29974" lon="-0.30685">
        <ele>3.2</ele>
        <time>2020-12-27T09:31:29Z</time>
      </trkpt>
      <trkpt lat="49.29975" lon="-0.3069">
        <ele>3.1</ele>
        <time>2020-12-27T09:31:30Z</time>
      </trkpt>
      <trkpt lat="49.29977" lon="-0.30695">
        <ele>3.1</ele>
        <time>2020-12-27T09:31:32Z</time>
      </trkpt>
      <trkpt lat="49.29977" lon="-0.30698">
        <ele>3.1</ele>
        <time>2020-12-27T09:31:33Z</time>
      </trkpt>
      <trkpt lat="49.29978" lon="-0.30701">
        <ele>3.1</ele>
        <time>2020-12-27T09:31:34Z</time>
      </trkpt>
      <trkpt lat="49.2998" lon="-0.30705">
        <ele>3.1</ele>
        <time>2020-12-27T09:31:36Z</time>
      </trkpt>
      <trkpt lat="49.29981" lon="-0.3071">
        <ele>3.1</ele>
        <time>2020-12-27T09:31:38Z</time>
      </trkpt>
      <trkpt lat="49.29982" lon="-0.30713">
        <ele>3.1</ele>
        <time>2020-12-27T09:31:39Z</time>
      </trkpt>
      <trkpt lat="49.29983" lon="-0.30718">
        <ele>3.1</ele>
        <time>2020-12-27T09:31:41Z</time>
      </trkpt>
      <trkpt lat="49.29983" lon="-0.30722">
        <ele>3.1</ele>
        <time>2020-12-27T09:31:42Z</time>
      </trkpt>
      <trkpt lat="49.29984" lon="-0.30726">
        <ele>3.1</ele>
        <time>2020-12-27T09:31:43Z</time>
      </trkpt>
      <trkpt lat="49.29986" lon="-0.3073">
        <ele>3.1</ele>
        <time>2020-12-27T09:31:45Z</time>
      </trkpt>
      <trkpt lat="49.29987" lon="-0.30731">
        <ele>3.1</ele>
        <time>2020-12-27T09:31:46Z</time>
      </trkpt>
      <trkpt lat="49.29989" lon="-0.30736">
        <ele>3.1</ele>
        <time>2020-12-27T09:31:48Z</time>
      </trkpt>
      <trkpt lat="49.29989" lon="-0.30738">
        <ele>3.1</ele>
        <time>2020-12-27T09:31:49Z</time>
      </trkpt>
      <trkpt lat="49.29991" lon="-0.30742">
        <ele>3.1</ele>
        <time>2020-12-27T09:31:51Z</time>
      </trkpt>
      <trkpt lat="49.29992" lon="-0.30745">
        <ele>3.1</ele>
        <time>2020-12-27T09:31:52Z</time>
      </trkpt>
      <trkpt lat="49.29993" lon="-0.30748">
        <ele>3.1</ele>
        <time>2020-12-27T09:31:54Z</time>
      </trkpt>
      <trkpt lat="49.29994" lon="-0.30752">
        <ele>3.1</ele>
        <time>2020-12-27T09:31:55Z</time>
      </trkpt>
      <trkpt lat="49.29994" lon="-0.30753">
        <ele>3.1</ele>
        <time>2020-12-27T09:31:56Z</time>
      </trkpt>
      <trkpt lat="49.29996" lon="-0.30758">
        <ele>3.1</ele>
        <time>2020-12-27T09:31:57Z</time>
      </trkpt>
      <trkpt lat="49.29996" lon="-0.3076">
        <ele>3.1</ele>
        <time>2020-12-27T09:31:58Z</time>
      </trkpt>
      <trkpt lat="49.29998" lon="-0.30766">
        <ele>3.1</ele>
        <time>2020-12-27T09:32:00Z</time>
      </trkpt>
      <trkpt lat="49.29998" lon="-0.30767">
        <ele>3.1</ele>
        <time>2020-12-27T09:32:01Z</time>
      </trkpt>
      <trkpt lat="49.3" lon="-0.30772">
        <ele>3.1</ele>
        <time>2020-12-27T09:32:03Z</time>
      </trkpt>
      <trkpt lat="49.3" lon="-0.30774">
        <ele>3.1</ele>
        <time>2020-12-27T09:32:04Z</time>
      </trkpt>
      <trkpt lat="49.30002" lon="-0.30778">
        <ele>3.1</ele>
        <time>2020-12-27T09:32:05Z</time>
      </trkpt>
      <trkpt lat="49.30002" lon="-0.30779">
        <ele>3.1</ele>
        <time>2020-12-27T09:32:06Z</time>
      </trkpt>
      <trkpt lat="49.30004" lon="-0.30783">
        <ele>3.1</ele>
        <time>2020-12-27T09:32:08Z</time>
      </trkpt>
      <trkpt lat="49.30005" lon="-0.30785">
        <ele>3.1</ele>
        <time>2020-12-27T09:32:09Z</time>
      </trkpt>
      <trkpt lat="49.30007" lon="-0.30789">
        <ele>3.1</ele>
        <time>2020-12-27T09:32:11Z</time>
      </trkpt>
      <trkpt lat="49.30008" lon="-0.3079">
        <ele>3.1</ele>
        <time>2020-12-27T09:32:12Z</time>
      </trkpt>
      <trkpt lat="49.3001" lon="-0.30794">
        <ele>3.1</ele>
        <time>2020-12-27T09:32:14Z</time>
      </trkpt>
      <trkpt lat="49.3001" lon="-0.30795">
        <ele>3.1</ele>
        <time>2020-12-27T09:32:15Z</time>
      </trkpt>
      <trkpt lat="49.30012" lon="-0.30799">
        <ele>3.1</ele>
        <time>2020-12-27T09:32:16Z</time>
      </trkpt>
      <trkpt lat="49.30013" lon="-0.30803">
        <ele>3.1</ele>
        <time>2020-12-27T09:32:18Z</time>
      </trkpt>
      <trkpt lat="49.30014" lon="-0.30804">
        <ele>3.1</ele>
        <time>2020-12-27T09:32:19Z</time>
      </trkpt>
      <trkpt lat="49.30016" lon="-0.30808">
        <ele>3.1</ele>
        <time>2020-12-27T09:32:21Z</time>
      </trkpt>
      <trkpt lat="49.30017" lon="-0.30811">
        <ele>3.1</ele>
        <time>2020-12-27T09:32:22Z</time>
      </trkpt>
      <trkpt lat="49.30018" lon="-0.30813">
        <ele>3.1</ele>
        <time>2020-12-27T09:32:24Z</time>
      </trkpt>
      <trkpt lat="49.30019" lon="-0.30818">
        <ele>3.1</ele>
        <time>2020-12-27T09:32:25Z</time>
      </trkpt>
      <trkpt lat="49.3002" lon="-0.30819">
        <ele>3.1</ele>
        <time>2020-12-27T09:32:26Z</time>
      </trkpt>
      <trkpt lat="49.30021" lon="-0.30822">
        <ele>3.1</ele>
        <time>2020-12-27T09:32:28Z</time>
      </trkpt>
      <trkpt lat="49.30023" lon="-0.30826">
        <ele>3.2</ele>
        <time>2020-12-27T09:32:30Z</time>
      </trkpt>
      <trkpt lat="49.30024" lon="-0.30828">
        <ele>3.2</ele>
        <time>2020-12-27T09:32:31Z</time>
      </trkpt>
      <trkpt lat="49.30025" lon="-0.30832">
        <ele>3.2</ele>
        <time>2020-12-27T09:32:33Z</time>
      </trkpt>
      <trkpt lat="49.30027" lon="-0.30835">
        <ele>3.2</ele>
        <time>2020-12-27T09:32:34Z</time>
      </trkpt>
      <trkpt lat="49.30028" lon="-0.30836">
        <ele>3.2</ele>
        <time>2020-12-27T09:32:35Z</time>
      </trkpt>
      <trkpt lat="49.3003" lon="-0.3084">
        <ele>3.2</ele>
        <time>2020-12-27T09:32:36Z</time>
      </trkpt>
      <trkpt lat="49.30031" lon="-0.30841">
        <ele>3.2</ele>
        <time>2020-12-27T09:32:37Z</time>
      </trkpt>
      <trkpt lat="49.30034" lon="-0.30844">
        <ele>3.2</ele>
        <time>2020-12-27T09:32:39Z</time>
      </trkpt>
      <trkpt lat="49.30034" lon="-0.30846">
        <ele>3.2</ele>
        <time>2020-12-27T09:32:40Z</time>
      </trkpt>
      <trkpt lat="49.30036" lon="-0.30849">
        <ele>3.2</ele>
        <time>2020-12-27T09:32:42Z</time>
      </trkpt>
      <trkpt lat="49.30037" lon="-0.3085">
        <ele>3.3</ele>
        <time>2020-12-27T09:32:43Z</time>
      </trkpt>
      <trkpt lat="49.30039" lon="-0.30856">
        <ele>3.3</ele>
        <time>2020-12-27T09:32:45Z</time>
      </trkpt>
      <trkpt lat="49.3004" lon="-0.30857">
        <ele>3.3</ele>
        <time>2020-12-27T09:32:46Z</time>
      </trkpt>
      <trkpt lat="49.30041" lon="-0.30862">
        <ele>3.3</ele>
        <time>2020-12-27T09:32:48Z</time>
      </trkpt>
      <trkpt lat="49.30042" lon="-0.30863">
        <ele>3.3</ele>
        <time>2020-12-27T09:32:49Z</time>
      </trkpt>
      <trkpt lat="49.30043" lon="-0.30866">
        <ele>3.3</ele>
        <time>2020-12-27T09:32:51Z</time>
      </trkpt>
      <trkpt lat="49.30045" lon="-0.3087">
        <ele>3.3</ele>
        <time>2020-12-27T09:32:53Z</time>
      </trkpt>
      <trkpt lat="49.30046" lon="-0.30875">
        <ele>3.4</ele>
        <time>2020-12-27T09:32:54Z</time>
      </trkpt>
      <trkpt lat="49.30047" lon="-0.30876">
        <ele>3.4</ele>
        <time>2020-12-27T09:32:55Z</time>
      </trkpt>
      <trkpt lat="49.30049" lon="-0.30882">
        <ele>3.4</ele>
        <time>2020-12-27T09:32:57Z</time>
      </trkpt>
      <trkpt lat="49.3005" lon="-0.30884">
        <ele>3.4</ele>
        <time>2020-12-27T09:32:58Z</time>
      </trkpt>
      <trkpt lat="49.3005" lon="-0.30886">
        <ele>3.4</ele>
        <time>2020-12-27T09:32:59Z</time>
      </trkpt>
      <trkpt lat="49.30052" lon="-0.30889">
        <ele>3.4</ele>
        <time>2020-12-27T09:33:01Z</time>
      </trkpt>
      <trkpt lat="49.30053" lon="-0.30892">
        <ele>3.4</ele>
        <time>2020-12-27T09:33:03Z</time>
      </trkpt>
      <trkpt lat="49.30055" lon="-0.30895">
        <ele>3.4</ele>
        <time>2020-12-27T09:33:04Z</time>
      </trkpt>
      <trkpt lat="49.30055" lon="-0.30899">
        <ele>3.6</ele>
        <time>2020-12-27T09:33:06Z</time>
      </trkpt>
      <trkpt lat="49.30054" lon="-0.30902">
        <ele>4</ele>
        <time>2020-12-27T09:33:08Z</time>
      </trkpt>
      <trkpt lat="49.30053" lon="-0.30903">
        <ele>4.2</ele>
        <time>2020-12-27T09:33:09Z</time>
      </trkpt>
      <trkpt lat="49.3005" lon="-0.30905">
        <ele>4.6</ele>
        <time>2020-12-27T09:33:10Z</time>
      </trkpt>
      <trkpt lat="49.3005" lon="-0.30905">
        <ele>4.7</ele>
        <time>2020-12-27T09:33:11Z</time>
      </trkpt>
      <trkpt lat="49.30047" lon="-0.30908">
        <ele>4.8</ele>
        <time>2020-12-27T09:33:13Z</time>
      </trkpt>
      <trkpt lat="49.30047" lon="-0.30908">
        <ele>4.9</ele>
        <time>2020-12-27T09:33:14Z</time>
      </trkpt>
      <trkpt lat="49.30044" lon="-0.30912">
        <ele>5.1</ele>
        <time>2020-12-27T09:33:16Z</time>
      </trkpt>
      <trkpt lat="49.30043" lon="-0.30913">
        <ele>5.1</ele>
        <time>2020-12-27T09:33:17Z</time>
      </trkpt>
      <trkpt lat="49.30041" lon="-0.30915">
        <ele>5.2</ele>
        <time>2020-12-27T09:33:18Z</time>
      </trkpt>
      <trkpt lat="49.30038" lon="-0.30917">
        <ele>5.3</ele>
        <time>2020-12-27T09:33:20Z</time>
      </trkpt>
      <trkpt lat="49.30037" lon="-0.30919">
        <ele>5.4</ele>
        <time>2020-12-27T09:33:21Z</time>
      </trkpt>
      <trkpt lat="49.30035" lon="-0.30921">
        <ele>5.5</ele>
        <time>2020-12-27T09:33:23Z</time>
      </trkpt>
      <trkpt lat="49.30033" lon="-0.30923">
        <ele>5.6</ele>
        <time>2020-12-27T09:33:24Z</time>
      </trkpt>
      <trkpt lat="49.30031" lon="-0.30924">
        <ele>5.7</ele>
        <time>2020-12-27T09:33:26Z</time>
      </trkpt>
      <trkpt lat="49.30029" lon="-0.30926">
        <ele>5.8</ele>
        <time>2020-12-27T09:33:27Z</time>
      </trkpt>
      <trkpt lat="49.30027" lon="-0.30928">
        <ele>5.9</ele>
        <time>2020-12-27T09:33:29Z</time>
      </trkpt>
      <trkpt lat="49.30025" lon="-0.3093">
        <ele>6</ele>
        <time>2020-12-27T09:33:30Z</time>
      </trkpt>
      <trkpt lat="49.30023" lon="-0.30931">
        <ele>6</ele>
        <time>2020-12-27T09:33:31Z</time>
      </trkpt>
      <trkpt lat="49.30021" lon="-0.30933">
        <ele>6.1</ele>
        <time>2020-12-27T09:33:33Z</time>
      </trkpt>
      <trkpt lat="49.3002" lon="-0.30934">
        <ele>6.2</ele>
        <time>2020-12-27T09:33:34Z</time>
      </trkpt>
      <trkpt lat="49.30018" lon="-0.30936">
        <ele>6.3</ele>
        <time>2020-12-27T09:33:35Z</time>
      </trkpt>
      <trkpt lat="49.30017" lon="-0.30937">
        <ele>6.3</ele>
        <time>2020-12-27T09:33:36Z</time>
      </trkpt>
      <trkpt lat="49.30015" lon="-0.30939">
        <ele>6.4</ele>
        <time>2020-12-27T09:33:38Z</time>
      </trkpt>
      <trkpt lat="49.30013" lon="-0.3094">
        <ele>6.5</ele>
        <time>2020-12-27T09:33:39Z</time>
      </trkpt>
      <trkpt lat="49.30011" lon="-0.30941">
        <ele>6.6</ele>
        <time>2020-12-27T09:33:41Z</time>
      </trkpt>
      <trkpt lat="49.3001" lon="-0.30942">
        <ele>6.7</ele>
        <time>2020-12-27T09:33:42Z</time>
      </trkpt>
      <trkpt lat="49.30008" lon="-0.30944">
        <ele>6.7</ele>
        <time>2020-12-27T09:33:43Z</time>
      </trkpt>
      <trkpt lat="49.30007" lon="-0.30946">
        <ele>6.8</ele>
        <time>2020-12-27T09:33:45Z</time>
      </trkpt>
      <trkpt lat="49.30005" lon="-0.30947">
        <ele>6.8</ele>
        <time>2020-12-27T09:33:46Z</time>
      </trkpt>
      <trkpt lat="49.30004" lon="-0.30949">
        <ele>6.9</ele>
        <time>2020-12-27T09:33:47Z</time>
      </trkpt>
      <trkpt lat="49.30002" lon="-0.30952">
        <ele>6.9</ele>
        <time>2020-12-27T09:33:49Z</time>
      </trkpt>
      <trkpt lat="49.30001" lon="-0.30957">
        <ele>6.7</ele>
        <time>2020-12-27T09:33:51Z</time>
      </trkpt>
      <trkpt lat="49.3" lon="-0.30958">
        <ele>6.7</ele>
        <time>2020-12-27T09:33:52Z</time>
      </trkpt>
      <trkpt lat="49.3" lon="-0.30963">
        <ele>6.7</ele>
        <time>2020-12-27T09:33:53Z</time>
      </trkpt>
      <trkpt lat="49.29999" lon="-0.30967">
        <ele>6.7</ele>
        <time>2020-12-27T09:33:55Z</time>
      </trkpt>
      <trkpt lat="49.29998" lon="-0.30971">
        <ele>6.6</ele>
        <time>2020-12-27T09:33:56Z</time>
      </trkpt>
      <trkpt lat="49.29996" lon="-0.30975">
        <ele>6.6</ele>
        <time>2020-12-27T09:33:58Z</time>
      </trkpt>
      <trkpt lat="49.29995" lon="-0.30976">
        <ele>6.6</ele>
        <time>2020-12-27T09:33:59Z</time>
      </trkpt>
      <trkpt lat="49.29993" lon="-0.30979">
        <ele>6.6</ele>
        <time>2020-12-27T09:34:01Z</time>
      </trkpt>
      <trkpt lat="49.29991" lon="-0.30982">
        <ele>6.6</ele>
        <time>2020-12-27T09:34:03Z</time>
      </trkpt>
      <trkpt lat="49.29988" lon="-0.30985">
        <ele>6.5</ele>
        <time>2020-12-27T09:34:04Z</time>
      </trkpt>
      <trkpt lat="49.29987" lon="-0.30986">
        <ele>6.5</ele>
        <time>2020-12-27T09:34:05Z</time>
      </trkpt>
      <trkpt lat="49.29985" lon="-0.30988">
        <ele>6.5</ele>
        <time>2020-12-27T09:34:06Z</time>
      </trkpt>
      <trkpt lat="49.29982" lon="-0.3099">
        <ele>6.5</ele>
        <time>2020-12-27T09:34:08Z</time>
      </trkpt>
      <trkpt lat="49.2998" lon="-0.30992">
        <ele>6.5</ele>
        <time>2020-12-27T09:34:09Z</time>
      </trkpt>
      <trkpt lat="49.29977" lon="-0.30995">
        <ele>6.5</ele>
        <time>2020-12-27T09:34:11Z</time>
      </trkpt>
      <trkpt lat="49.29975" lon="-0.30997">
        <ele>6.5</ele>
        <time>2020-12-27T09:34:12Z</time>
      </trkpt>
      <trkpt lat="49.29973" lon="-0.30999">
        <ele>6.5</ele>
        <time>2020-12-27T09:34:14Z</time>
      </trkpt>
      <trkpt lat="49.29971" lon="-0.31001">
        <ele>6.4</ele>
        <time>2020-12-27T09:34:16Z</time>
      </trkpt>
      <trkpt lat="49.29969" lon="-0.31002">
        <ele>6.4</ele>
        <time>2020-12-27T09:34:17Z</time>
      </trkpt>
      <trkpt lat="49.29968" lon="-0.31003">
        <ele>6.4</ele>
        <time>2020-12-27T09:34:18Z</time>
      </trkpt>
      <trkpt lat="49.29966" lon="-0.31004">
        <ele>6.4</ele>
        <time>2020-12-27T09:34:19Z</time>
      </trkpt>
      <trkpt lat="49.29964" lon="-0.31005">
        <ele>6.4</ele>
        <time>2020-12-27T09:34:21Z</time>
      </trkpt>
      <trkpt lat="49.29961" lon="-0.31007">
        <ele>6.4</ele>
        <time>2020-12-27T09:34:22Z</time>
      </trkpt>
      <trkpt lat="49.2996" lon="-0.31008">
        <ele>6.4</ele>
        <time>2020-12-27T09:34:23Z</time>
      </trkpt>
      <trkpt lat="49.29957" lon="-0.3101">
        <ele>6.4</ele>
        <time>2020-12-27T09:34:25Z</time>
      </trkpt>
      <trkpt lat="49.29957" lon="-0.31011">
        <ele>6.4</ele>
        <time>2020-12-27T09:34:26Z</time>
      </trkpt>
      <trkpt lat="49.29955" lon="-0.31012">
        <ele>6.5</ele>
        <time>2020-12-27T09:34:28Z</time>
      </trkpt>
      <trkpt lat="49.29953" lon="-0.31013">
        <ele>6.5</ele>
        <time>2020-12-27T09:34:29Z</time>
      </trkpt>
      <trkpt lat="49.29951" lon="-0.31016">
        <ele>6.5</ele>
        <time>2020-12-27T09:34:31Z</time>
      </trkpt>
      <trkpt lat="49.2995" lon="-0.31017">
        <ele>6.5</ele>
        <time>2020-12-27T09:34:32Z</time>
      </trkpt>
      <trkpt lat="49.29947" lon="-0.31019">
        <ele>6.5</ele>
        <time>2020-12-27T09:34:34Z</time>
      </trkpt>
      <trkpt lat="49.29946" lon="-0.31019">
        <ele>6.5</ele>
        <time>2020-12-27T09:34:35Z</time>
      </trkpt>
      <trkpt lat="49.29945" lon="-0.31021">
        <ele>6.5</ele>
        <time>2020-12-27T09:34:36Z</time>
      </trkpt>
      <trkpt lat="49.29942" lon="-0.31024">
        <ele>6.6</ele>
        <time>2020-12-27T09:34:38Z</time>
      </trkpt>
      <trkpt lat="49.29941" lon="-0.31026">
        <ele>6.6</ele>
        <time>2020-12-27T09:34:39Z</time>
      </trkpt>
      <trkpt lat="49.29939" lon="-0.31028">
        <ele>6.6</ele>
        <time>2020-12-27T09:34:41Z</time>
      </trkpt>
      <trkpt lat="49.29937" lon="-0.31029">
        <ele>6.6</ele>
        <time>2020-12-27T09:34:42Z</time>
      </trkpt>
      <trkpt lat="49.29935" lon="-0.3103">
        <ele>6.6</ele>
        <time>2020-12-27T09:34:43Z</time>
      </trkpt>
      <trkpt lat="49.29934" lon="-0.31031">
        <ele>6.6</ele>
        <time>2020-12-27T09:34:44Z</time>
      </trkpt>
      <trkpt lat="49.29931" lon="-0.31033">
        <ele>6.6</ele>
        <time>2020-12-27T09:34:46Z</time>
      </trkpt>
      <trkpt lat="49.29929" lon="-0.31035">
        <ele>6.7</ele>
        <time>2020-12-27T09:34:47Z</time>
      </trkpt>
      <trkpt lat="49.29927" lon="-0.31037">
        <ele>6.7</ele>
        <time>2020-12-27T09:34:49Z</time>
      </trkpt>
      <trkpt lat="49.29924" lon="-0.3104">
        <ele>6.7</ele>
        <time>2020-12-27T09:34:50Z</time>
      </trkpt>
      <trkpt lat="49.29923" lon="-0.31041">
        <ele>6.7</ele>
        <time>2020-12-27T09:34:51Z</time>
      </trkpt>
      <trkpt lat="49.2992" lon="-0.31044">
        <ele>6.7</ele>
        <time>2020-12-27T09:34:53Z</time>
      </trkpt>
      <trkpt lat="49.29919" lon="-0.31045">
        <ele>6.7</ele>
        <time>2020-12-27T09:34:54Z</time>
      </trkpt>
      <trkpt lat="49.29916" lon="-0.31048">
        <ele>6.7</ele>
        <time>2020-12-27T09:34:56Z</time>
      </trkpt>
      <trkpt lat="49.29915" lon="-0.31049">
        <ele>6.7</ele>
        <time>2020-12-27T09:34:57Z</time>
      </trkpt>
      <trkpt lat="49.29912" lon="-0.31051">
        <ele>6.8</ele>
        <time>2020-12-27T09:34:59Z</time>
      </trkpt>
      <trkpt lat="49.2991" lon="-0.31054">
        <ele>6.8</ele>
        <time>2020-12-27T09:35:00Z</time>
      </trkpt>
      <trkpt lat="49.29909" lon="-0.31056">
        <ele>6.8</ele>
        <time>2020-12-27T09:35:02Z</time>
      </trkpt>
      <trkpt lat="49.29907" lon="-0.3106">
        <ele>6.7</ele>
        <time>2020-12-27T09:35:03Z</time>
      </trkpt>
      <trkpt lat="49.29906" lon="-0.31061">
        <ele>6.7</ele>
        <time>2020-12-27T09:35:04Z</time>
      </trkpt>
      <trkpt lat="49.29903" lon="-0.31065">
        <ele>6.7</ele>
        <time>2020-12-27T09:35:06Z</time>
      </trkpt>
      <trkpt lat="49.29902" lon="-0.31066">
        <ele>6.7</ele>
        <time>2020-12-27T09:35:07Z</time>
      </trkpt>
      <trkpt lat="49.29901" lon="-0.31068">
        <ele>6.7</ele>
        <time>2020-12-27T09:35:08Z</time>
      </trkpt>
      <trkpt lat="49.29899" lon="-0.31071">
        <ele>6.7</ele>
        <time>2020-12-27T09:35:09Z</time>
      </trkpt>
      <trkpt lat="49.29898" lon="-0.31073">
        <ele>6.7</ele>
        <time>2020-12-27T09:35:11Z</time>
      </trkpt>
      <trkpt lat="49.29896" lon="-0.31077">
        <ele>6.7</ele>
        <time>2020-12-27T09:35:12Z</time>
      </trkpt>
      <trkpt lat="49.29894" lon="-0.3108">
        <ele>6.7</ele>
        <time>2020-12-27T09:35:14Z</time>
      </trkpt>
      <trkpt lat="49.29893" lon="-0.31082">
        <ele>6.7</ele>
        <time>2020-12-27T09:35:15Z</time>
      </trkpt>
      <trkpt lat="49.29892" lon="-0.31084">
        <ele>6.7</ele>
        <time>2020-12-27T09:35:16Z</time>
      </trkpt>
      <trkpt lat="49.2989" lon="-0.31088">
        <ele>6.6</ele>
        <time>2020-12-27T09:35:18Z</time>
      </trkpt>
      <trkpt lat="49.29889" lon="-0.3109">
        <ele>6.6</ele>
        <time>2020-12-27T09:35:19Z</time>
      </trkpt>
      <trkpt lat="49.29887" lon="-0.31092">
        <ele>6.6</ele>
        <time>2020-12-27T09:35:20Z</time>
      </trkpt>
      <trkpt lat="49.29886" lon="-0.31093">
        <ele>6.6</ele>
        <time>2020-12-27T09:35:21Z</time>
      </trkpt>
      <trkpt lat="49.29884" lon="-0.31097">
        <ele>6.6</ele>
        <time>2020-12-27T09:35:23Z</time>
      </trkpt>
      <trkpt lat="49.29883" lon="-0.31098">
        <ele>6.6</ele>
        <time>2020-12-27T09:35:24Z</time>
      </trkpt>
      <trkpt lat="49.29881" lon="-0.31101">
        <ele>6.6</ele>
        <time>2020-12-27T09:35:26Z</time>
      </trkpt>
      <trkpt lat="49.2988" lon="-0.31102">
        <ele>6.6</ele>
        <time>2020-12-27T09:35:27Z</time>
      </trkpt>
      <trkpt lat="49.29877" lon="-0.31105">
        <ele>6.6</ele>
        <time>2020-12-27T09:35:28Z</time>
      </trkpt>
      <trkpt lat="49.29877" lon="-0.31106">
        <ele>6.5</ele>
        <time>2020-12-27T09:35:29Z</time>
      </trkpt>
      <trkpt lat="49.29874" lon="-0.3111">
        <ele>6.5</ele>
        <time>2020-12-27T09:35:31Z</time>
      </trkpt>
      <trkpt lat="49.29873" lon="-0.31111">
        <ele>6.5</ele>
        <time>2020-12-27T09:35:32Z</time>
      </trkpt>
      <trkpt lat="49.29871" lon="-0.31115">
        <ele>6.5</ele>
        <time>2020-12-27T09:35:34Z</time>
      </trkpt>
      <trkpt lat="49.29871" lon="-0.3112">
        <ele>6.5</ele>
        <time>2020-12-27T09:35:35Z</time>
      </trkpt>
      <trkpt lat="49.29871" lon="-0.31125">
        <ele>6.5</ele>
        <time>2020-12-27T09:35:37Z</time>
      </trkpt>
      <trkpt lat="49.29871" lon="-0.31127">
        <ele>6.5</ele>
        <time>2020-12-27T09:35:38Z</time>
      </trkpt>
      <trkpt lat="49.29872" lon="-0.31132">
        <ele>6.6</ele>
        <time>2020-12-27T09:35:40Z</time>
      </trkpt>
      <trkpt lat="49.29873" lon="-0.31134">
        <ele>6.6</ele>
        <time>2020-12-27T09:35:41Z</time>
      </trkpt>
      <trkpt lat="49.29874" lon="-0.31138">
        <ele>6.6</ele>
        <time>2020-12-27T09:35:43Z</time>
      </trkpt>
      <trkpt lat="49.29874" lon="-0.31142">
        <ele>6.7</ele>
        <time>2020-12-27T09:35:45Z</time>
      </trkpt>
      <trkpt lat="49.29874" lon="-0.31146">
        <ele>6.7</ele>
        <time>2020-12-27T09:35:46Z</time>
      </trkpt>
      <trkpt lat="49.29874" lon="-0.31151">
        <ele>6.8</ele>
        <time>2020-12-27T09:35:47Z</time>
      </trkpt>
      <trkpt lat="49.29874" lon="-0.31153">
        <ele>6.8</ele>
        <time>2020-12-27T09:35:48Z</time>
      </trkpt>
      <trkpt lat="49.29874" lon="-0.31155">
        <ele>6.8</ele>
        <time>2020-12-27T09:35:49Z</time>
      </trkpt>
      <trkpt lat="49.29875" lon="-0.31159">
        <ele>6.9</ele>
        <time>2020-12-27T09:35:51Z</time>
      </trkpt>
      <trkpt lat="49.29875" lon="-0.31167">
        <ele>6.9</ele>
        <time>2020-12-27T09:35:53Z</time>
      </trkpt>
      <trkpt lat="49.29875" lon="-0.31169">
        <ele>6.9</ele>
        <time>2020-12-27T09:35:54Z</time>
      </trkpt>
      <trkpt lat="49.29876" lon="-0.31171">
        <ele>7</ele>
        <time>2020-12-27T09:35:55Z</time>
      </trkpt>
      <trkpt lat="49.29876" lon="-0.31178">
        <ele>7</ele>
        <time>2020-12-27T09:35:57Z</time>
      </trkpt>
      <trkpt lat="49.29877" lon="-0.31181">
        <ele>7.1</ele>
        <time>2020-12-27T09:35:59Z</time>
      </trkpt>
      <trkpt lat="49.29877" lon="-0.31184">
        <ele>7.1</ele>
        <time>2020-12-27T09:36:00Z</time>
      </trkpt>
      <trkpt lat="49.29877" lon="-0.31187">
        <ele>7.1</ele>
        <time>2020-12-27T09:36:01Z</time>
      </trkpt>
      <trkpt lat="49.29878" lon="-0.31192">
        <ele>7.2</ele>
        <time>2020-12-27T09:36:02Z</time>
      </trkpt>
      <trkpt lat="49.29878" lon="-0.31193">
        <ele>7.2</ele>
        <time>2020-12-27T09:36:03Z</time>
      </trkpt>
      <trkpt lat="49.29878" lon="-0.31198">
        <ele>7.2</ele>
        <time>2020-12-27T09:36:05Z</time>
      </trkpt>
      <trkpt lat="49.29879" lon="-0.31199">
        <ele>7.2</ele>
        <time>2020-12-27T09:36:06Z</time>
      </trkpt>
      <trkpt lat="49.29879" lon="-0.31201">
        <ele>7.3</ele>
        <time>2020-12-27T09:36:07Z</time>
      </trkpt>
      <trkpt lat="49.29879" lon="-0.31204">
        <ele>7.3</ele>
        <time>2020-12-27T09:36:08Z</time>
      </trkpt>
      <trkpt lat="49.29879" lon="-0.31206">
        <ele>7.3</ele>
        <time>2020-12-27T09:36:09Z</time>
      </trkpt>
      <trkpt lat="49.29879" lon="-0.31209">
        <ele>7.3</ele>
        <time>2020-12-27T09:36:11Z</time>
      </trkpt>
      <trkpt lat="49.29878" lon="-0.31211">
        <ele>7.3</ele>
        <time>2020-12-27T09:36:12Z</time>
      </trkpt>
      <trkpt lat="49.29878" lon="-0.31213">
        <ele>7.4</ele>
        <time>2020-12-27T09:36:13Z</time>
      </trkpt>
      <trkpt lat="49.29878" lon="-0.31218">
        <ele>7.4</ele>
        <time>2020-12-27T09:36:15Z</time>
      </trkpt>
      <trkpt lat="49.29879" lon="-0.3122">
        <ele>7.4</ele>
        <time>2020-12-27T09:36:16Z</time>
      </trkpt>
      <trkpt lat="49.2988" lon="-0.31225">
        <ele>7.5</ele>
        <time>2020-12-27T09:36:18Z</time>
      </trkpt>
      <trkpt lat="49.2988" lon="-0.31227">
        <ele>7.5</ele>
        <time>2020-12-27T09:36:19Z</time>
      </trkpt>
      <trkpt lat="49.29882" lon="-0.31232">
        <ele>7.5</ele>
        <time>2020-12-27T09:36:20Z</time>
      </trkpt>
      <trkpt lat="49.29882" lon="-0.31234">
        <ele>7.5</ele>
        <time>2020-12-27T09:36:21Z</time>
      </trkpt>
      <trkpt lat="49.29883" lon="-0.31238">
        <ele>7.6</ele>
        <time>2020-12-27T09:36:23Z</time>
      </trkpt>
      <trkpt lat="49.29884" lon="-0.31241">
        <ele>7.6</ele>
        <time>2020-12-27T09:36:24Z</time>
      </trkpt>
      <trkpt lat="49.29885" lon="-0.31244">
        <ele>7.6</ele>
        <time>2020-12-27T09:36:26Z</time>
      </trkpt>
      <trkpt lat="49.29886" lon="-0.31247">
        <ele>7.7</ele>
        <time>2020-12-27T09:36:27Z</time>
      </trkpt>
      <trkpt lat="49.29887" lon="-0.31252">
        <ele>7.7</ele>
        <time>2020-12-27T09:36:29Z</time>
      </trkpt>
      <trkpt lat="49.29887" lon="-0.31255">
        <ele>7.7</ele>
        <time>2020-12-27T09:36:30Z</time>
      </trkpt>
      <trkpt lat="49.29888" lon="-0.31258">
        <ele>7.7</ele>
        <time>2020-12-27T09:36:32Z</time>
      </trkpt>
      <trkpt lat="49.29888" lon="-0.31262">
        <ele>7.7</ele>
        <time>2020-12-27T09:36:33Z</time>
      </trkpt>
      <trkpt lat="49.29889" lon="-0.31264">
        <ele>7.8</ele>
        <time>2020-12-27T09:36:34Z</time>
      </trkpt>
      <trkpt lat="49.29889" lon="-0.31267">
        <ele>7.8</ele>
        <time>2020-12-27T09:36:35Z</time>
      </trkpt>
      <trkpt lat="49.2989" lon="-0.31271">
        <ele>7.8</ele>
        <time>2020-12-27T09:36:37Z</time>
      </trkpt>
      <trkpt lat="49.29891" lon="-0.31275">
        <ele>7.8</ele>
        <time>2020-12-27T09:36:38Z</time>
      </trkpt>
      <trkpt lat="49.29891" lon="-0.31281">
        <ele>7.9</ele>
        <time>2020-12-27T09:36:40Z</time>
      </trkpt>
      <trkpt lat="49.29892" lon="-0.31283">
        <ele>7.9</ele>
        <time>2020-12-27T09:36:41Z</time>
      </trkpt>
      <trkpt lat="49.29892" lon="-0.31287">
        <ele>7.9</ele>
        <time>2020-12-27T09:36:42Z</time>
      </trkpt>
      <trkpt lat="49.29892" lon="-0.3129">
        <ele>7.9</ele>
        <time>2020-12-27T09:36:44Z</time>
      </trkpt>
      <trkpt lat="49.29892" lon="-0.31293">
        <ele>7.9</ele>
        <time>2020-12-27T09:36:45Z</time>
      </trkpt>
      <trkpt lat="49.29892" lon="-0.31296">
        <ele>8</ele>
        <time>2020-12-27T09:36:47Z</time>
      </trkpt>
      <trkpt lat="49.2989" lon="-0.313">
        <ele>8</ele>
        <time>2020-12-27T09:36:48Z</time>
      </trkpt>
      <trkpt lat="49.29889" lon="-0.313">
        <ele>8</ele>
        <time>2020-12-27T09:36:49Z</time>
      </trkpt>
      <trkpt lat="49.29887" lon="-0.31302">
        <ele>8</ele>
        <time>2020-12-27T09:36:50Z</time>
      </trkpt>
      <trkpt lat="49.29885" lon="-0.31304">
        <ele>8.1</ele>
        <time>2020-12-27T09:36:52Z</time>
      </trkpt>
      <trkpt lat="49.29884" lon="-0.31305">
        <ele>8.1</ele>
        <time>2020-12-27T09:36:53Z</time>
      </trkpt>
      <trkpt lat="49.29883" lon="-0.31306">
        <ele>8.1</ele>
        <time>2020-12-27T09:36:54Z</time>
      </trkpt>
      <trkpt lat="49.29881" lon="-0.31307">
        <ele>8.1</ele>
        <time>2020-12-27T09:36:55Z</time>
      </trkpt>
      <trkpt lat="49.2988" lon="-0.31309">
        <ele>8.1</ele>
        <time>2020-12-27T09:36:56Z</time>
      </trkpt>
      <trkpt lat="49.29879" lon="-0.31312">
        <ele>8.2</ele>
        <time>2020-12-27T09:36:58Z</time>
      </trkpt>
      <trkpt lat="49.29877" lon="-0.31316">
        <ele>8.2</ele>
        <time>2020-12-27T09:37:00Z</time>
      </trkpt>
      <trkpt lat="49.29876" lon="-0.31319">
        <ele>8.2</ele>
        <time>2020-12-27T09:37:01Z</time>
      </trkpt>
      <trkpt lat="49.29874" lon="-0.31322">
        <ele>8.3</ele>
        <time>2020-12-27T09:37:03Z</time>
      </trkpt>
      <trkpt lat="49.29871" lon="-0.31326">
        <ele>8.3</ele>
        <time>2020-12-27T09:37:04Z</time>
      </trkpt>
      <trkpt lat="49.2987" lon="-0.31327">
        <ele>8.3</ele>
        <time>2020-12-27T09:37:05Z</time>
      </trkpt>
      <trkpt lat="49.29868" lon="-0.31331">
        <ele>8.3</ele>
        <time>2020-12-27T09:37:07Z</time>
      </trkpt>
      <trkpt lat="49.29867" lon="-0.31333">
        <ele>8.4</ele>
        <time>2020-12-27T09:37:08Z</time>
      </trkpt>
      <trkpt lat="49.29865" lon="-0.31335">
        <ele>8.4</ele>
        <time>2020-12-27T09:37:10Z</time>
      </trkpt>
      <trkpt lat="49.29863" lon="-0.31337">
        <ele>8.4</ele>
        <time>2020-12-27T09:37:11Z</time>
      </trkpt>
      <trkpt lat="49.29862" lon="-0.3134">
        <ele>8.4</ele>
        <time>2020-12-27T09:37:13Z</time>
      </trkpt>
      <trkpt lat="49.29861" lon="-0.31342">
        <ele>8.4</ele>
        <time>2020-12-27T09:37:14Z</time>
      </trkpt>
      <trkpt lat="49.2986" lon="-0.31343">
        <ele>8.4</ele>
        <time>2020-12-27T09:37:15Z</time>
      </trkpt>
      <trkpt lat="49.29858" lon="-0.31345">
        <ele>8.4</ele>
        <time>2020-12-27T09:37:16Z</time>
      </trkpt>
      <trkpt lat="49.29857" lon="-0.31346">
        <ele>8.4</ele>
        <time>2020-12-27T09:37:18Z</time>
      </trkpt>
      <trkpt lat="49.29855" lon="-0.31348">
        <ele>8.4</ele>
        <time>2020-12-27T09:37:19Z</time>
      </trkpt>
      <trkpt lat="49.29854" lon="-0.31352">
        <ele>8.4</ele>
        <time>2020-12-27T09:37:21Z</time>
      </trkpt>
      <trkpt lat="49.29852" lon="-0.31355">
        <ele>8.5</ele>
        <time>2020-12-27T09:37:22Z</time>
      </trkpt>
      <trkpt lat="49.29851" lon="-0.31356">
        <ele>8.5</ele>
        <time>2020-12-27T09:37:23Z</time>
      </trkpt>
      <trkpt lat="49.29849" lon="-0.3136">
        <ele>8.6</ele>
        <time>2020-12-27T09:37:25Z</time>
      </trkpt>
      <trkpt lat="49.29847" lon="-0.31365">
        <ele>8.6</ele>
        <time>2020-12-27T09:37:27Z</time>
      </trkpt>
      <trkpt lat="49.29846" lon="-0.31368">
        <ele>8.7</ele>
        <time>2020-12-27T09:37:28Z</time>
      </trkpt>
      <trkpt lat="49.29845" lon="-0.31371">
        <ele>8.7</ele>
        <time>2020-12-27T09:37:30Z</time>
      </trkpt>
      <trkpt lat="49.29843" lon="-0.31375">
        <ele>8.7</ele>
        <time>2020-12-27T09:37:31Z</time>
      </trkpt>
      <trkpt lat="49.29842" lon="-0.31376">
        <ele>8.7</ele>
        <time>2020-12-27T09:37:32Z</time>
      </trkpt>
      <trkpt lat="49.2984" lon="-0.3138">
        <ele>8.8</ele>
        <time>2020-12-27T09:37:34Z</time>
      </trkpt>
      <trkpt lat="49.2984" lon="-0.31381">
        <ele>8.8</ele>
        <time>2020-12-27T09:37:35Z</time>
      </trkpt>
      <trkpt lat="49.29838" lon="-0.31385">
        <ele>8.8</ele>
        <time>2020-12-27T09:37:37Z</time>
      </trkpt>
      <trkpt lat="49.29837" lon="-0.31386">
        <ele>8.8</ele>
        <time>2020-12-27T09:37:38Z</time>
      </trkpt>
      <trkpt lat="49.29835" lon="-0.3139">
        <ele>8.7</ele>
        <time>2020-12-27T09:37:40Z</time>
      </trkpt>
      <trkpt lat="49.29834" lon="-0.31391">
        <ele>8.7</ele>
        <time>2020-12-27T09:37:41Z</time>
      </trkpt>
      <trkpt lat="49.29832" lon="-0.31394">
        <ele>8.7</ele>
        <time>2020-12-27T09:37:42Z</time>
      </trkpt>
      <trkpt lat="49.29832" lon="-0.31395">
        <ele>8.7</ele>
        <time>2020-12-27T09:37:43Z</time>
      </trkpt>
      <trkpt lat="49.2983" lon="-0.31399">
        <ele>8.6</ele>
        <time>2020-12-27T09:37:45Z</time>
      </trkpt>
      <trkpt lat="49.29829" lon="-0.314">
        <ele>8.6</ele>
        <time>2020-12-27T09:37:46Z</time>
      </trkpt>
      <trkpt lat="49.29828" lon="-0.31403">
        <ele>8.6</ele>
        <time>2020-12-27T09:37:47Z</time>
      </trkpt>
      <trkpt lat="49.29827" lon="-0.31406">
        <ele>8.5</ele>
        <time>2020-12-27T09:37:49Z</time>
      </trkpt>
      <trkpt lat="49.29825" lon="-0.31407">
        <ele>8.5</ele>
        <time>2020-12-27T09:37:50Z</time>
      </trkpt>
      <trkpt lat="49.29823" lon="-0.3141">
        <ele>8.5</ele>
        <time>2020-12-27T09:37:52Z</time>
      </trkpt>
      <trkpt lat="49.29822" lon="-0.31413">
        <ele>8.5</ele>
        <time>2020-12-27T09:37:53Z</time>
      </trkpt>
      <trkpt lat="49.2982" lon="-0.31416">
        <ele>8.5</ele>
        <time>2020-12-27T09:37:55Z</time>
      </trkpt>
      <trkpt lat="49.29819" lon="-0.31418">
        <ele>8.5</ele>
        <time>2020-12-27T09:37:56Z</time>
      </trkpt>
      <trkpt lat="49.29817" lon="-0.31419">
        <ele>8.5</ele>
        <time>2020-12-27T09:37:57Z</time>
      </trkpt>
      <trkpt lat="49.29815" lon="-0.31422">
        <ele>8.5</ele>
        <time>2020-12-27T09:37:58Z</time>
      </trkpt>
      <trkpt lat="49.29814" lon="-0.31424">
        <ele>8.5</ele>
        <time>2020-12-27T09:38:00Z</time>
      </trkpt>
      <trkpt lat="49.29812" lon="-0.31427">
        <ele>8.6</ele>
        <time>2020-12-27T09:38:01Z</time>
      </trkpt>
      <trkpt lat="49.29812" lon="-0.31428">
        <ele>8.6</ele>
        <time>2020-12-27T09:38:02Z</time>
      </trkpt>
      <trkpt lat="49.29811" lon="-0.3143">
        <ele>8.6</ele>
        <time>2020-12-27T09:38:03Z</time>
      </trkpt>
      <trkpt lat="49.29809" lon="-0.31433">
        <ele>8.6</ele>
        <time>2020-12-27T09:38:05Z</time>
      </trkpt>
      <trkpt lat="49.29808" lon="-0.31436">
        <ele>8.7</ele>
        <time>2020-12-27T09:38:06Z</time>
      </trkpt>
      <trkpt lat="49.29806" lon="-0.3144">
        <ele>8.8</ele>
        <time>2020-12-27T09:38:08Z</time>
      </trkpt>
      <trkpt lat="49.29805" lon="-0.31442">
        <ele>8.8</ele>
        <time>2020-12-27T09:38:09Z</time>
      </trkpt>
      <trkpt lat="49.29802" lon="-0.31447">
        <ele>9</ele>
        <time>2020-12-27T09:38:11Z</time>
      </trkpt>
      <trkpt lat="49.29801" lon="-0.31449">
        <ele>9</ele>
        <time>2020-12-27T09:38:12Z</time>
      </trkpt>
      <trkpt lat="49.298" lon="-0.31451">
        <ele>9</ele>
        <time>2020-12-27T09:38:13Z</time>
      </trkpt>
      <trkpt lat="49.29798" lon="-0.31454">
        <ele>9.1</ele>
        <time>2020-12-27T09:38:15Z</time>
      </trkpt>
      <trkpt lat="49.29797" lon="-0.31455">
        <ele>9.1</ele>
        <time>2020-12-27T09:38:16Z</time>
      </trkpt>
      <trkpt lat="49.29796" lon="-0.31457">
        <ele>9.2</ele>
        <time>2020-12-27T09:38:17Z</time>
      </trkpt>
      <trkpt lat="49.29795" lon="-0.31459">
        <ele>9.2</ele>
        <time>2020-12-27T09:38:18Z</time>
      </trkpt>
      <trkpt lat="49.29793" lon="-0.31462">
        <ele>9.3</ele>
        <time>2020-12-27T09:38:19Z</time>
      </trkpt>
      <trkpt lat="49.29792" lon="-0.31463">
        <ele>9.3</ele>
        <time>2020-12-27T09:38:21Z</time>
      </trkpt>
      <trkpt lat="49.29791" lon="-0.31465">
        <ele>9.4</ele>
        <time>2020-12-27T09:38:22Z</time>
      </trkpt>
      <trkpt lat="49.2979" lon="-0.31467">
        <ele>9.4</ele>
        <time>2020-12-27T09:38:23Z</time>
      </trkpt>
      <trkpt lat="49.29788" lon="-0.31469">
        <ele>9.5</ele>
        <time>2020-12-27T09:38:24Z</time>
      </trkpt>
      <trkpt lat="49.29787" lon="-0.31471">
        <ele>9.5</ele>
        <time>2020-12-27T09:38:25Z</time>
      </trkpt>
      <trkpt lat="49.29786" lon="-0.31474">
        <ele>9.5</ele>
        <time>2020-12-27T09:38:27Z</time>
      </trkpt>
      <trkpt lat="49.29784" lon="-0.31477">
        <ele>9.6</ele>
        <time>2020-12-27T09:38:29Z</time>
      </trkpt>
      <trkpt lat="49.29783" lon="-0.31478">
        <ele>9.6</ele>
        <time>2020-12-27T09:38:30Z</time>
      </trkpt>
      <trkpt lat="49.29783" lon="-0.3148">
        <ele>9.6</ele>
        <time>2020-12-27T09:38:31Z</time>
      </trkpt>
      <trkpt lat="49.29782" lon="-0.31481">
        <ele>9.7</ele>
        <time>2020-12-27T09:38:32Z</time>
      </trkpt>
      <trkpt lat="49.29781" lon="-0.31483">
        <ele>9.7</ele>
        <time>2020-12-27T09:38:34Z</time>
      </trkpt>
      <trkpt lat="49.29779" lon="-0.31485">
        <ele>9.7</ele>
        <time>2020-12-27T09:38:35Z</time>
      </trkpt>
      <trkpt lat="49.29778" lon="-0.31487">
        <ele>9.7</ele>
        <time>2020-12-27T09:38:36Z</time>
      </trkpt>
      <trkpt lat="49.29777" lon="-0.31489">
        <ele>9.7</ele>
        <time>2020-12-27T09:38:37Z</time>
      </trkpt>
      <trkpt lat="49.29775" lon="-0.31491">
        <ele>9.8</ele>
        <time>2020-12-27T09:38:39Z</time>
      </trkpt>
      <trkpt lat="49.29774" lon="-0.31493">
        <ele>9.8</ele>
        <time>2020-12-27T09:38:40Z</time>
      </trkpt>
      <trkpt lat="49.29772" lon="-0.31497">
        <ele>9.8</ele>
        <time>2020-12-27T09:38:42Z</time>
      </trkpt>
      <trkpt lat="49.29771" lon="-0.31499">
        <ele>9.8</ele>
        <time>2020-12-27T09:38:43Z</time>
      </trkpt>
      <trkpt lat="49.2977" lon="-0.315">
        <ele>9.8</ele>
        <time>2020-12-27T09:38:44Z</time>
      </trkpt>
      <trkpt lat="49.29768" lon="-0.31504">
        <ele>9.9</ele>
        <time>2020-12-27T09:38:45Z</time>
      </trkpt>
      <trkpt lat="49.29767" lon="-0.31505">
        <ele>9.9</ele>
        <time>2020-12-27T09:38:47Z</time>
      </trkpt>
      <trkpt lat="49.29766" lon="-0.31507">
        <ele>9.9</ele>
        <time>2020-12-27T09:38:48Z</time>
      </trkpt>
      <trkpt lat="49.29765" lon="-0.31508">
        <ele>9.9</ele>
        <time>2020-12-27T09:38:49Z</time>
      </trkpt>
      <trkpt lat="49.29764" lon="-0.3151">
        <ele>10</ele>
        <time>2020-12-27T09:38:50Z</time>
      </trkpt>
      <trkpt lat="49.29762" lon="-0.31513">
        <ele>10</ele>
        <time>2020-12-27T09:38:52Z</time>
      </trkpt>
      <trkpt lat="49.29761" lon="-0.31514">
        <ele>10.1</ele>
        <time>2020-12-27T09:38:53Z</time>
      </trkpt>
      <trkpt lat="49.2976" lon="-0.31516">
        <ele>10.1</ele>
        <time>2020-12-27T09:38:54Z</time>
      </trkpt>
      <trkpt lat="49.29759" lon="-0.31517">
        <ele>10.1</ele>
        <time>2020-12-27T09:38:55Z</time>
      </trkpt>
      <trkpt lat="49.29758" lon="-0.3152">
        <ele>10.2</ele>
        <time>2020-12-27T09:38:57Z</time>
      </trkpt>
      <trkpt lat="49.29758" lon="-0.31522">
        <ele>10.2</ele>
        <time>2020-12-27T09:38:58Z</time>
      </trkpt>
      <trkpt lat="49.29757" lon="-0.31525">
        <ele>10.2</ele>
        <time>2020-12-27T09:39:00Z</time>
      </trkpt>
      <trkpt lat="49.29754" lon="-0.31528">
        <ele>10.3</ele>
        <time>2020-12-27T09:39:01Z</time>
      </trkpt>
      <trkpt lat="49.29754" lon="-0.31529">
        <ele>10.3</ele>
        <time>2020-12-27T09:39:02Z</time>
      </trkpt>
      <trkpt lat="49.29752" lon="-0.31532">
        <ele>10.4</ele>
        <time>2020-12-27T09:39:04Z</time>
      </trkpt>
      <trkpt lat="49.29752" lon="-0.31534">
        <ele>10.4</ele>
        <time>2020-12-27T09:39:05Z</time>
      </trkpt>
      <trkpt lat="49.29751" lon="-0.31536">
        <ele>10.4</ele>
        <time>2020-12-27T09:39:06Z</time>
      </trkpt>
      <trkpt lat="49.2975" lon="-0.31538">
        <ele>10.4</ele>
        <time>2020-12-27T09:39:07Z</time>
      </trkpt>
      <trkpt lat="49.29749" lon="-0.31542">
        <ele>10.5</ele>
        <time>2020-12-27T09:39:09Z</time>
      </trkpt>
      <trkpt lat="49.29748" lon="-0.31543">
        <ele>10.5</ele>
        <time>2020-12-27T09:39:10Z</time>
      </trkpt>
      <trkpt lat="49.29747" lon="-0.31547">
        <ele>10.5</ele>
        <time>2020-12-27T09:39:11Z</time>
      </trkpt>
      <trkpt lat="49.29746" lon="-0.31548">
        <ele>10.5</ele>
        <time>2020-12-27T09:39:12Z</time>
      </trkpt>
      <trkpt lat="49.29744" lon="-0.3155">
        <ele>10.6</ele>
        <time>2020-12-27T09:39:14Z</time>
      </trkpt>
      <trkpt lat="49.29744" lon="-0.31552">
        <ele>10.6</ele>
        <time>2020-12-27T09:39:15Z</time>
      </trkpt>
      <trkpt lat="49.29743" lon="-0.31554">
        <ele>10.6</ele>
        <time>2020-12-27T09:39:16Z</time>
      </trkpt>
      <trkpt lat="49.29741" lon="-0.31558">
        <ele>10.7</ele>
        <time>2020-12-27T09:39:18Z</time>
      </trkpt>
      <trkpt lat="49.2974" lon="-0.3156">
        <ele>10.7</ele>
        <time>2020-12-27T09:39:19Z</time>
      </trkpt>
      <trkpt lat="49.29739" lon="-0.31562">
        <ele>10.7</ele>
        <time>2020-12-27T09:39:20Z</time>
      </trkpt>
      <trkpt lat="49.29737" lon="-0.31565">
        <ele>10.8</ele>
        <time>2020-12-27T09:39:22Z</time>
      </trkpt>
      <trkpt lat="49.29737" lon="-0.31566">
        <ele>10.8</ele>
        <time>2020-12-27T09:39:23Z</time>
      </trkpt>
      <trkpt lat="49.29735" lon="-0.3157">
        <ele>10.9</ele>
        <time>2020-12-27T09:39:24Z</time>
      </trkpt>
      <trkpt lat="49.29734" lon="-0.31571">
        <ele>10.9</ele>
        <time>2020-12-27T09:39:25Z</time>
      </trkpt>
      <trkpt lat="49.29732" lon="-0.31576">
        <ele>11</ele>
        <time>2020-12-27T09:39:27Z</time>
      </trkpt>
      <trkpt lat="49.29731" lon="-0.31578">
        <ele>11</ele>
        <time>2020-12-27T09:39:29Z</time>
      </trkpt>
      <trkpt lat="49.2973" lon="-0.3158">
        <ele>11</ele>
        <time>2020-12-27T09:39:30Z</time>
      </trkpt>
      <trkpt lat="49.29728" lon="-0.31583">
        <ele>11.1</ele>
        <time>2020-12-27T09:39:31Z</time>
      </trkpt>
      <trkpt lat="49.29727" lon="-0.31584">
        <ele>11.1</ele>
        <time>2020-12-27T09:39:32Z</time>
      </trkpt>
      <trkpt lat="49.29725" lon="-0.31588">
        <ele>11.2</ele>
        <time>2020-12-27T09:39:34Z</time>
      </trkpt>
      <trkpt lat="49.29724" lon="-0.31589">
        <ele>11.2</ele>
        <time>2020-12-27T09:39:35Z</time>
      </trkpt>
      <trkpt lat="49.29723" lon="-0.31591">
        <ele>11.3</ele>
        <time>2020-12-27T09:39:36Z</time>
      </trkpt>
      <trkpt lat="49.29721" lon="-0.31594">
        <ele>11.3</ele>
        <time>2020-12-27T09:39:38Z</time>
      </trkpt>
      <trkpt lat="49.29718" lon="-0.31599">
        <ele>11.4</ele>
        <time>2020-12-27T09:39:39Z</time>
      </trkpt>
      <trkpt lat="49.29718" lon="-0.316">
        <ele>11.5</ele>
        <time>2020-12-27T09:39:40Z</time>
      </trkpt>
      <trkpt lat="49.29715" lon="-0.31604">
        <ele>11.5</ele>
        <time>2020-12-27T09:39:42Z</time>
      </trkpt>
      <trkpt lat="49.29714" lon="-0.31606">
        <ele>11.5</ele>
        <time>2020-12-27T09:39:43Z</time>
      </trkpt>
      <trkpt lat="49.29712" lon="-0.31609">
        <ele>11.5</ele>
        <time>2020-12-27T09:39:45Z</time>
      </trkpt>
      <trkpt lat="49.29712" lon="-0.3161">
        <ele>11.5</ele>
        <time>2020-12-27T09:39:46Z</time>
      </trkpt>
      <trkpt lat="49.29711" lon="-0.31611">
        <ele>11.5</ele>
        <time>2020-12-27T09:39:47Z</time>
      </trkpt>
      <trkpt lat="49.29709" lon="-0.31613">
        <ele>11.5</ele>
        <time>2020-12-27T09:39:48Z</time>
      </trkpt>
      <trkpt lat="49.29708" lon="-0.31615">
        <ele>11.4</ele>
        <time>2020-12-27T09:39:49Z</time>
      </trkpt>
      <trkpt lat="49.29707" lon="-0.31617">
        <ele>11.4</ele>
        <time>2020-12-27T09:39:50Z</time>
      </trkpt>
      <trkpt lat="49.29705" lon="-0.3162">
        <ele>11.4</ele>
        <time>2020-12-27T09:39:52Z</time>
      </trkpt>
      <trkpt lat="49.29703" lon="-0.31622">
        <ele>11.3</ele>
        <time>2020-12-27T09:39:54Z</time>
      </trkpt>
      <trkpt lat="49.29701" lon="-0.31625">
        <ele>11.3</ele>
        <time>2020-12-27T09:39:55Z</time>
      </trkpt>
      <trkpt lat="49.29701" lon="-0.31627">
        <ele>11.2</ele>
        <time>2020-12-27T09:39:56Z</time>
      </trkpt>
      <trkpt lat="49.29698" lon="-0.3163">
        <ele>11.2</ele>
        <time>2020-12-27T09:39:58Z</time>
      </trkpt>
      <trkpt lat="49.29698" lon="-0.31631">
        <ele>11.1</ele>
        <time>2020-12-27T09:39:59Z</time>
      </trkpt>
      <trkpt lat="49.29696" lon="-0.31633">
        <ele>11</ele>
        <time>2020-12-27T09:40:00Z</time>
      </trkpt>
      <trkpt lat="49.29695" lon="-0.31636">
        <ele>11</ele>
        <time>2020-12-27T09:40:02Z</time>
      </trkpt>
      <trkpt lat="49.29694" lon="-0.31638">
        <ele>11</ele>
        <time>2020-12-27T09:40:03Z</time>
      </trkpt>
      <trkpt lat="49.29692" lon="-0.31639">
        <ele>11</ele>
        <time>2020-12-27T09:40:05Z</time>
      </trkpt>
      <trkpt lat="49.2969" lon="-0.31639">
        <ele>11</ele>
        <time>2020-12-27T09:40:06Z</time>
      </trkpt>
      <trkpt lat="49.29688" lon="-0.31638">
        <ele>11</ele>
        <time>2020-12-27T09:40:08Z</time>
      </trkpt>
      <trkpt lat="49.29685" lon="-0.31637">
        <ele>11</ele>
        <time>2020-12-27T09:40:09Z</time>
      </trkpt>
      <trkpt lat="49.29684" lon="-0.31637">
        <ele>11</ele>
        <time>2020-12-27T09:40:10Z</time>
      </trkpt>
      <trkpt lat="49.29682" lon="-0.31635">
        <ele>11</ele>
        <time>2020-12-27T09:40:12Z</time>
      </trkpt>
      <trkpt lat="49.29681" lon="-0.31635">
        <ele>11</ele>
        <time>2020-12-27T09:40:13Z</time>
      </trkpt>
      <trkpt lat="49.29679" lon="-0.31634">
        <ele>11</ele>
        <time>2020-12-27T09:40:14Z</time>
      </trkpt>
      <trkpt lat="49.29677" lon="-0.31632">
        <ele>11</ele>
        <time>2020-12-27T09:40:16Z</time>
      </trkpt>
      <trkpt lat="49.29674" lon="-0.3163">
        <ele>11</ele>
        <time>2020-12-27T09:40:17Z</time>
      </trkpt>
      <trkpt lat="49.29674" lon="-0.3163">
        <ele>10.9</ele>
        <time>2020-12-27T09:40:18Z</time>
      </trkpt>
      <trkpt lat="49.29672" lon="-0.31629">
        <ele>10.9</ele>
        <time>2020-12-27T09:40:19Z</time>
      </trkpt>
      <trkpt lat="49.2967" lon="-0.31627">
        <ele>10.9</ele>
        <time>2020-12-27T09:40:21Z</time>
      </trkpt>
      <trkpt lat="49.29668" lon="-0.31626">
        <ele>10.9</ele>
        <time>2020-12-27T09:40:22Z</time>
      </trkpt>
      <trkpt lat="49.29667" lon="-0.31625">
        <ele>10.9</ele>
        <time>2020-12-27T09:40:23Z</time>
      </trkpt>
      <trkpt lat="49.29666" lon="-0.31625">
        <ele>10.9</ele>
        <time>2020-12-27T09:40:24Z</time>
      </trkpt>
      <trkpt lat="49.29663" lon="-0.31622">
        <ele>10.9</ele>
        <time>2020-12-27T09:40:26Z</time>
      </trkpt>
      <trkpt lat="49.29661" lon="-0.31621">
        <ele>10.9</ele>
        <time>2020-12-27T09:40:27Z</time>
      </trkpt>
      <trkpt lat="49.29659" lon="-0.3162">
        <ele>10.9</ele>
        <time>2020-12-27T09:40:29Z</time>
      </trkpt>
      <trkpt lat="49.29657" lon="-0.31618">
        <ele>10.9</ele>
        <time>2020-12-27T09:40:30Z</time>
      </trkpt>
      <trkpt lat="49.29656" lon="-0.31618">
        <ele>10.9</ele>
        <time>2020-12-27T09:40:31Z</time>
      </trkpt>
      <trkpt lat="49.29654" lon="-0.31617">
        <ele>10.9</ele>
        <time>2020-12-27T09:40:32Z</time>
      </trkpt>
      <trkpt lat="49.29652" lon="-0.31616">
        <ele>10.9</ele>
        <time>2020-12-27T09:40:34Z</time>
      </trkpt>
      <trkpt lat="49.29651" lon="-0.31616">
        <ele>10.9</ele>
        <time>2020-12-27T09:40:35Z</time>
      </trkpt>
      <trkpt lat="49.29648" lon="-0.31614">
        <ele>10.9</ele>
        <time>2020-12-27T09:40:36Z</time>
      </trkpt>
      <trkpt lat="49.29647" lon="-0.31614">
        <ele>10.9</ele>
        <time>2020-12-27T09:40:37Z</time>
      </trkpt>
      <trkpt lat="49.29644" lon="-0.31614">
        <ele>10.9</ele>
        <time>2020-12-27T09:40:39Z</time>
      </trkpt>
      <trkpt lat="49.29643" lon="-0.31614">
        <ele>10.9</ele>
        <time>2020-12-27T09:40:40Z</time>
      </trkpt>
      <trkpt lat="49.29641" lon="-0.31615">
        <ele>10.9</ele>
        <time>2020-12-27T09:40:42Z</time>
      </trkpt>
      <trkpt lat="49.2964" lon="-0.31615">
        <ele>10.9</ele>
        <time>2020-12-27T09:40:43Z</time>
      </trkpt>
    </trkseg>
  </trk>
</gpx>